<?xml version="1.0" encoding="UTF-8" standalone="no" ?>
<gpx xmlns="http://www.topografix.com/GPX/1/1" xmlns:xsi="http://www.w3.org/2001/XMLSchema-instance" xsi:schemaLocation="http://www.topografix.com/GPX/1/1 http://www.topografix.com/GPX/1/1/gpx.xsd" version="1.1" creator="VisuGPX - https://www.visugpx.com">
  <metadata>
    <name>Entre Coulon et Arçais</name>
    <desc><![CDATA[Le marais Poitevin, circuits N°9 et N°1]]></desc>
  </metadata>
  <trk>
    <name><![CDATA[Entre Coulon et Arçais_1]]></name>
    <trkseg>
      <trkpt lat="46.3155" lon="-0.61041">
        <ele>37</ele>
        <time>2021-07-04T10:44:30Z</time>
      </trkpt>
      <trkpt lat="46.31557" lon="-0.61037">
        <ele>63.46875</ele>
        <time>2021-07-04T10:44:59Z</time>
      </trkpt>
      <trkpt lat="46.31557" lon="-0.61067">
        <ele>23.199219</ele>
        <time>2021-07-04T15:49:19Z</time>
      </trkpt>
      <trkpt lat="46.31548" lon="-0.61062">
        <ele>25.597656</ele>
        <time>2021-07-04T15:52:30Z</time>
      </trkpt>
      <trkpt lat="46.31558" lon="-0.61062">
        <ele>39.597656</ele>
        <time>2021-07-04T15:55:08Z</time>
      </trkpt>
      <trkpt lat="46.31568" lon="-0.61063">
        <ele>24.898438</ele>
        <time>2021-07-04T15:55:16Z</time>
      </trkpt>
      <trkpt lat="46.31558" lon="-0.61063">
        <ele>14.398438</ele>
        <time>2021-07-04T15:55:34Z</time>
      </trkpt>
      <trkpt lat="46.31547" lon="-0.61062">
        <ele>10.78125</ele>
        <time>2021-07-04T15:55:51Z</time>
      </trkpt>
      <trkpt lat="46.31552" lon="-0.61072">
        <ele>30.296875</ele>
        <time>2021-07-05T09:00:48Z</time>
      </trkpt>
      <trkpt lat="46.31551" lon="-0.61072">
        <ele>30.296875</ele>
        <time>2021-07-05T09:00:49Z</time>
      </trkpt>
      <trkpt lat="46.31551" lon="-0.61072">
        <ele>30.296875</ele>
        <time>2021-07-05T09:00:49Z</time>
      </trkpt>
      <trkpt lat="46.3156" lon="-0.61038">
        <ele>5.597656</ele>
        <time>2021-07-05T09:01:04Z</time>
      </trkpt>
      <trkpt lat="46.31542" lon="-0.61057">
        <ele>30.21875</ele>
        <time>2021-07-05T09:24:54Z</time>
      </trkpt>
      <trkpt lat="46.31534" lon="-0.61052">
        <ele>18.597656</ele>
        <time>2021-07-05T09:25:49Z</time>
      </trkpt>
      <trkpt lat="46.31528" lon="-0.61038">
        <ele>17.097656</ele>
        <time>2021-07-05T09:25:54Z</time>
      </trkpt>
      <trkpt lat="46.31516" lon="-0.60995">
        <ele>14.398438</ele>
        <time>2021-07-05T09:26:06Z</time>
      </trkpt>
      <trkpt lat="46.31505" lon="-0.60953">
        <ele>20</ele>
        <time>2021-07-05T09:26:19Z</time>
      </trkpt>
      <trkpt lat="46.31504" lon="-0.60935">
        <ele>13.398438</ele>
        <time>2021-07-05T09:26:51Z</time>
      </trkpt>
      <trkpt lat="46.31495" lon="-0.6094">
        <ele>11.5</ele>
        <time>2021-07-05T09:28:57Z</time>
      </trkpt>
      <trkpt lat="46.31504" lon="-0.60946">
        <ele>10.898438</ele>
        <time>2021-07-05T09:29:03Z</time>
      </trkpt>
      <trkpt lat="46.31514" lon="-0.60946">
        <ele>10.296875</ele>
        <time>2021-07-05T09:29:07Z</time>
      </trkpt>
      <trkpt lat="46.31524" lon="-0.60945">
        <ele>13.199219</ele>
        <time>2021-07-05T09:29:12Z</time>
      </trkpt>
      <trkpt lat="46.31533" lon="-0.60939">
        <ele>12.898438</ele>
        <time>2021-07-05T09:30:27Z</time>
      </trkpt>
      <trkpt lat="46.31523" lon="-0.6094">
        <ele>12.5</ele>
        <time>2021-07-05T09:30:34Z</time>
      </trkpt>
      <trkpt lat="46.31512" lon="-0.60937">
        <ele>12.398438</ele>
        <time>2021-07-05T09:30:38Z</time>
      </trkpt>
      <trkpt lat="46.31503" lon="-0.60929">
        <ele>12.5</ele>
        <time>2021-07-05T09:30:43Z</time>
      </trkpt>
      <trkpt lat="46.31495" lon="-0.60919">
        <ele>12.796875</ele>
        <time>2021-07-05T09:30:48Z</time>
      </trkpt>
      <trkpt lat="46.3149" lon="-0.60905">
        <ele>12.699219</ele>
        <time>2021-07-05T09:30:53Z</time>
      </trkpt>
      <trkpt lat="46.31479" lon="-0.60877">
        <ele>11.199219</ele>
        <time>2021-07-05T09:31:01Z</time>
      </trkpt>
      <trkpt lat="46.31469" lon="-0.60878">
        <ele>10.796875</ele>
        <time>2021-07-05T09:31:06Z</time>
      </trkpt>
      <trkpt lat="46.3146" lon="-0.60886">
        <ele>10.898438</ele>
        <time>2021-07-05T09:31:10Z</time>
      </trkpt>
      <trkpt lat="46.31457" lon="-0.609">
        <ele>9.898438</ele>
        <time>2021-07-05T09:31:14Z</time>
      </trkpt>
      <trkpt lat="46.31459" lon="-0.60917">
        <ele>7.199219</ele>
        <time>2021-07-05T09:31:18Z</time>
      </trkpt>
      <trkpt lat="46.31461" lon="-0.60945">
        <ele>3.699219</ele>
        <time>2021-07-05T09:31:24Z</time>
      </trkpt>
      <trkpt lat="46.3146" lon="-0.60961">
        <ele>3.5</ele>
        <time>2021-07-05T09:31:27Z</time>
      </trkpt>
      <trkpt lat="46.31456" lon="-0.61027">
        <ele>4.097656</ele>
        <time>2021-07-05T09:31:40Z</time>
      </trkpt>
      <trkpt lat="46.31456" lon="-0.61027">
        <ele>4.097656</ele>
        <time>2021-07-05T09:31:40Z</time>
      </trkpt>
      <trkpt lat="46.31456" lon="-0.61027">
        <ele>4.097656</ele>
        <time>2021-07-05T09:31:40Z</time>
      </trkpt>
      <trkpt lat="46.31456" lon="-0.61027">
        <ele>4.097656</ele>
        <time>2021-07-05T09:31:40Z</time>
      </trkpt>
      <trkpt lat="46.31454" lon="-0.61053">
        <ele>4.699219</ele>
        <time>2021-07-05T09:31:45Z</time>
      </trkpt>
      <trkpt lat="46.3145" lon="-0.61102">
        <ele>4</ele>
        <time>2021-07-05T09:31:53Z</time>
      </trkpt>
      <trkpt lat="46.31451" lon="-0.61116">
        <ele>4</ele>
        <time>2021-07-05T09:31:55Z</time>
      </trkpt>
      <trkpt lat="46.31453" lon="-0.61131">
        <ele>4.296875</ele>
        <time>2021-07-05T09:31:57Z</time>
      </trkpt>
      <trkpt lat="46.31457" lon="-0.61145">
        <ele>4.398438</ele>
        <time>2021-07-05T09:31:59Z</time>
      </trkpt>
      <trkpt lat="46.31462" lon="-0.61158">
        <ele>4.199219</ele>
        <time>2021-07-05T09:32:01Z</time>
      </trkpt>
      <trkpt lat="46.31467" lon="-0.6117">
        <ele>4</ele>
        <time>2021-07-05T09:32:03Z</time>
      </trkpt>
      <trkpt lat="46.31721" lon="-0.61656">
        <ele>4.398438</ele>
        <time>2021-07-05T09:33:21Z</time>
      </trkpt>
      <trkpt lat="46.31728" lon="-0.6167">
        <ele>3.597656</ele>
        <time>2021-07-05T09:33:24Z</time>
      </trkpt>
      <trkpt lat="46.3214" lon="-0.62479">
        <ele>1.097656</ele>
        <time>2021-07-05T09:35:41Z</time>
      </trkpt>
      <trkpt lat="46.32151" lon="-0.62483">
        <ele>1.5</ele>
        <time>2021-07-05T09:35:45Z</time>
      </trkpt>
      <trkpt lat="46.3216" lon="-0.62475">
        <ele>1.699219</ele>
        <time>2021-07-05T09:35:48Z</time>
      </trkpt>
      <trkpt lat="46.32168" lon="-0.62464">
        <ele>1.597656</ele>
        <time>2021-07-05T09:35:51Z</time>
      </trkpt>
      <trkpt lat="46.32182" lon="-0.62445">
        <ele>1.796875</ele>
        <time>2021-07-05T09:35:55Z</time>
      </trkpt>
      <trkpt lat="46.32187" lon="-0.62433">
        <ele>2.199219</ele>
        <time>2021-07-05T09:35:57Z</time>
      </trkpt>
      <trkpt lat="46.32198" lon="-0.62408">
        <ele>2.597656</ele>
        <time>2021-07-05T09:36:01Z</time>
      </trkpt>
      <trkpt lat="46.3221" lon="-0.62384">
        <ele>3.097656</ele>
        <time>2021-07-05T09:36:05Z</time>
      </trkpt>
      <trkpt lat="46.32247" lon="-0.62312">
        <ele>4.5</ele>
        <time>2021-07-05T09:36:17Z</time>
      </trkpt>
      <trkpt lat="46.3225" lon="-0.62299">
        <ele>4.796875</ele>
        <time>2021-07-05T09:36:19Z</time>
      </trkpt>
      <trkpt lat="46.32248" lon="-0.62287">
        <ele>5</ele>
        <time>2021-07-05T09:36:21Z</time>
      </trkpt>
      <trkpt lat="46.32243" lon="-0.62276">
        <ele>5.199219</ele>
        <time>2021-07-05T09:36:23Z</time>
      </trkpt>
      <trkpt lat="46.3219" lon="-0.62178">
        <ele>5.796875</ele>
        <time>2021-07-05T09:36:41Z</time>
      </trkpt>
      <trkpt lat="46.32186" lon="-0.62166">
        <ele>5.796875</ele>
        <time>2021-07-05T09:36:43Z</time>
      </trkpt>
      <trkpt lat="46.32182" lon="-0.62153">
        <ele>5.699219</ele>
        <time>2021-07-05T09:36:45Z</time>
      </trkpt>
      <trkpt lat="46.32179" lon="-0.62139">
        <ele>5.699219</ele>
        <time>2021-07-05T09:36:47Z</time>
      </trkpt>
      <trkpt lat="46.32176" lon="-0.62125">
        <ele>5.699219</ele>
        <time>2021-07-05T09:36:49Z</time>
      </trkpt>
      <trkpt lat="46.32162" lon="-0.62052">
        <ele>5.398438</ele>
        <time>2021-07-05T09:36:59Z</time>
      </trkpt>
      <trkpt lat="46.32154" lon="-0.62026">
        <ele>5.398438</ele>
        <time>2021-07-05T09:37:03Z</time>
      </trkpt>
      <trkpt lat="46.32149" lon="-0.62013">
        <ele>5.5</ele>
        <time>2021-07-05T09:37:05Z</time>
      </trkpt>
      <trkpt lat="46.32094" lon="-0.61865">
        <ele>4.5</ele>
        <time>2021-07-05T09:37:27Z</time>
      </trkpt>
      <trkpt lat="46.32076" lon="-0.61825">
        <ele>5</ele>
        <time>2021-07-05T09:37:33Z</time>
      </trkpt>
      <trkpt lat="46.32073" lon="-0.61811">
        <ele>5.097656</ele>
        <time>2021-07-05T09:37:35Z</time>
      </trkpt>
      <trkpt lat="46.3207" lon="-0.61797">
        <ele>5.199219</ele>
        <time>2021-07-05T09:37:37Z</time>
      </trkpt>
      <trkpt lat="46.32068" lon="-0.61783">
        <ele>5.199219</ele>
        <time>2021-07-05T09:37:39Z</time>
      </trkpt>
      <trkpt lat="46.32065" lon="-0.61736">
        <ele>5.097656</ele>
        <time>2021-07-05T09:37:45Z</time>
      </trkpt>
      <trkpt lat="46.32065" lon="-0.6172">
        <ele>5.097656</ele>
        <time>2021-07-05T09:37:47Z</time>
      </trkpt>
      <trkpt lat="46.32066" lon="-0.61705">
        <ele>5.199219</ele>
        <time>2021-07-05T09:37:49Z</time>
      </trkpt>
      <trkpt lat="46.32069" lon="-0.6169">
        <ele>5.296875</ele>
        <time>2021-07-05T09:37:51Z</time>
      </trkpt>
      <trkpt lat="46.32073" lon="-0.61675">
        <ele>5.398438</ele>
        <time>2021-07-05T09:37:53Z</time>
      </trkpt>
      <trkpt lat="46.32095" lon="-0.61618">
        <ele>5.796875</ele>
        <time>2021-07-05T09:38:01Z</time>
      </trkpt>
      <trkpt lat="46.32107" lon="-0.6159">
        <ele>6.199219</ele>
        <time>2021-07-05T09:38:05Z</time>
      </trkpt>
      <trkpt lat="46.32114" lon="-0.61576">
        <ele>6.199219</ele>
        <time>2021-07-05T09:38:07Z</time>
      </trkpt>
      <trkpt lat="46.32169" lon="-0.61476">
        <ele>5.296875</ele>
        <time>2021-07-05T09:38:23Z</time>
      </trkpt>
      <trkpt lat="46.32177" lon="-0.61465">
        <ele>5.5</ele>
        <time>2021-07-05T09:38:25Z</time>
      </trkpt>
      <trkpt lat="46.32185" lon="-0.61456">
        <ele>5.597656</ele>
        <time>2021-07-05T09:38:27Z</time>
      </trkpt>
      <trkpt lat="46.32212" lon="-0.61429">
        <ele>6.097656</ele>
        <time>2021-07-05T09:38:33Z</time>
      </trkpt>
      <trkpt lat="46.3222" lon="-0.61418">
        <ele>6.097656</ele>
        <time>2021-07-05T09:38:35Z</time>
      </trkpt>
      <trkpt lat="46.32225" lon="-0.61404">
        <ele>6</ele>
        <time>2021-07-05T09:38:37Z</time>
      </trkpt>
      <trkpt lat="46.32227" lon="-0.6139">
        <ele>6</ele>
        <time>2021-07-05T09:38:39Z</time>
      </trkpt>
      <trkpt lat="46.32226" lon="-0.61375">
        <ele>6.199219</ele>
        <time>2021-07-05T09:38:41Z</time>
      </trkpt>
      <trkpt lat="46.32223" lon="-0.61361">
        <ele>6.398438</ele>
        <time>2021-07-05T09:38:43Z</time>
      </trkpt>
      <trkpt lat="46.32219" lon="-0.61348">
        <ele>6.597656</ele>
        <time>2021-07-05T09:38:45Z</time>
      </trkpt>
      <trkpt lat="46.32204" lon="-0.6131">
        <ele>6.796875</ele>
        <time>2021-07-05T09:38:51Z</time>
      </trkpt>
      <trkpt lat="46.32145" lon="-0.61165">
        <ele>6.898438</ele>
        <time>2021-07-05T09:39:13Z</time>
      </trkpt>
      <trkpt lat="46.32141" lon="-0.6115">
        <ele>7.097656</ele>
        <time>2021-07-05T09:39:15Z</time>
      </trkpt>
      <trkpt lat="46.32137" lon="-0.61135">
        <ele>7.296875</ele>
        <time>2021-07-05T09:39:17Z</time>
      </trkpt>
      <trkpt lat="46.32132" lon="-0.61105">
        <ele>7.398438</ele>
        <time>2021-07-05T09:39:21Z</time>
      </trkpt>
      <trkpt lat="46.3213" lon="-0.61089">
        <ele>7.5</ele>
        <time>2021-07-05T09:39:23Z</time>
      </trkpt>
      <trkpt lat="46.32129" lon="-0.61073">
        <ele>7.5</ele>
        <time>2021-07-05T09:39:25Z</time>
      </trkpt>
      <trkpt lat="46.32127" lon="-0.61026">
        <ele>7.597656</ele>
        <time>2021-07-05T09:39:31Z</time>
      </trkpt>
      <trkpt lat="46.32129" lon="-0.60963">
        <ele>7.597656</ele>
        <time>2021-07-05T09:39:39Z</time>
      </trkpt>
      <trkpt lat="46.32131" lon="-0.60932">
        <ele>7.699219</ele>
        <time>2021-07-05T09:39:43Z</time>
      </trkpt>
      <trkpt lat="46.32133" lon="-0.60917">
        <ele>7.796875</ele>
        <time>2021-07-05T09:39:45Z</time>
      </trkpt>
      <trkpt lat="46.32141" lon="-0.60856">
        <ele>7.699219</ele>
        <time>2021-07-05T09:39:54Z</time>
      </trkpt>
      <trkpt lat="46.32142" lon="-0.60838">
        <ele>7.796875</ele>
        <time>2021-07-05T09:39:57Z</time>
      </trkpt>
      <trkpt lat="46.32141" lon="-0.60819">
        <ele>8</ele>
        <time>2021-07-05T09:40:00Z</time>
      </trkpt>
      <trkpt lat="46.32139" lon="-0.60806">
        <ele>8.398438</ele>
        <time>2021-07-05T09:40:02Z</time>
      </trkpt>
      <trkpt lat="46.32128" lon="-0.60743">
        <ele>8.796875</ele>
        <time>2021-07-05T09:40:16Z</time>
      </trkpt>
      <trkpt lat="46.32117" lon="-0.60699">
        <ele>8.398438</ele>
        <time>2021-07-05T09:40:23Z</time>
      </trkpt>
      <trkpt lat="46.32112" lon="-0.60687">
        <ele>8.5</ele>
        <time>2021-07-05T09:40:25Z</time>
      </trkpt>
      <trkpt lat="46.32097" lon="-0.6065">
        <ele>7.898438</ele>
        <time>2021-07-05T09:40:31Z</time>
      </trkpt>
      <trkpt lat="46.32093" lon="-0.60636">
        <ele>7.796875</ele>
        <time>2021-07-05T09:40:33Z</time>
      </trkpt>
      <trkpt lat="46.32089" lon="-0.60621">
        <ele>7.898438</ele>
        <time>2021-07-05T09:40:35Z</time>
      </trkpt>
      <trkpt lat="46.3206" lon="-0.60495">
        <ele>6.199219</ele>
        <time>2021-07-05T09:40:53Z</time>
      </trkpt>
      <trkpt lat="46.3205" lon="-0.6047">
        <ele>6.597656</ele>
        <time>2021-07-05T09:40:57Z</time>
      </trkpt>
      <trkpt lat="46.32034" lon="-0.60433">
        <ele>6.398438</ele>
        <time>2021-07-05T09:41:03Z</time>
      </trkpt>
      <trkpt lat="46.3203" lon="-0.6042">
        <ele>6.296875</ele>
        <time>2021-07-05T09:41:05Z</time>
      </trkpt>
      <trkpt lat="46.32027" lon="-0.60406">
        <ele>6.199219</ele>
        <time>2021-07-05T09:41:07Z</time>
      </trkpt>
      <trkpt lat="46.32025" lon="-0.60391">
        <ele>6.597656</ele>
        <time>2021-07-05T09:41:09Z</time>
      </trkpt>
      <trkpt lat="46.32021" lon="-0.6036">
        <ele>6.898438</ele>
        <time>2021-07-05T09:41:13Z</time>
      </trkpt>
      <trkpt lat="46.32021" lon="-0.60344">
        <ele>7.296875</ele>
        <time>2021-07-05T09:41:15Z</time>
      </trkpt>
      <trkpt lat="46.32007" lon="-0.60094">
        <ele>7.898438</ele>
        <time>2021-07-05T09:41:47Z</time>
      </trkpt>
      <trkpt lat="46.32008" lon="-0.60078">
        <ele>7.898438</ele>
        <time>2021-07-05T09:41:49Z</time>
      </trkpt>
      <trkpt lat="46.3201" lon="-0.60063">
        <ele>8</ele>
        <time>2021-07-05T09:41:51Z</time>
      </trkpt>
      <trkpt lat="46.32014" lon="-0.60048">
        <ele>8.097656</ele>
        <time>2021-07-05T09:41:53Z</time>
      </trkpt>
      <trkpt lat="46.32024" lon="-0.60004">
        <ele>8.5</ele>
        <time>2021-07-05T09:41:59Z</time>
      </trkpt>
      <trkpt lat="46.32027" lon="-0.59989">
        <ele>8.699219</ele>
        <time>2021-07-05T09:42:01Z</time>
      </trkpt>
      <trkpt lat="46.32027" lon="-0.59973">
        <ele>8.898438</ele>
        <time>2021-07-05T09:42:03Z</time>
      </trkpt>
      <trkpt lat="46.32026" lon="-0.59957">
        <ele>9.296875</ele>
        <time>2021-07-05T09:42:05Z</time>
      </trkpt>
      <trkpt lat="46.32017" lon="-0.59894">
        <ele>9.699219</ele>
        <time>2021-07-05T09:42:13Z</time>
      </trkpt>
      <trkpt lat="46.32003" lon="-0.59797">
        <ele>10.097656</ele>
        <time>2021-07-05T09:42:25Z</time>
      </trkpt>
      <trkpt lat="46.32001" lon="-0.59781">
        <ele>10.097656</ele>
        <time>2021-07-05T09:42:27Z</time>
      </trkpt>
      <trkpt lat="46.31997" lon="-0.59671">
        <ele>8.199219</ele>
        <time>2021-07-05T09:42:41Z</time>
      </trkpt>
      <trkpt lat="46.31995" lon="-0.59541">
        <ele>6.699219</ele>
        <time>2021-07-05T09:42:57Z</time>
      </trkpt>
      <trkpt lat="46.31996" lon="-0.59524">
        <ele>6.597656</ele>
        <time>2021-07-05T09:42:59Z</time>
      </trkpt>
      <trkpt lat="46.32014" lon="-0.5939">
        <ele>7.398438</ele>
        <time>2021-07-05T09:43:15Z</time>
      </trkpt>
      <trkpt lat="46.32017" lon="-0.59374">
        <ele>7.597656</ele>
        <time>2021-07-05T09:43:17Z</time>
      </trkpt>
      <trkpt lat="46.32024" lon="-0.59343">
        <ele>8.199219</ele>
        <time>2021-07-05T09:43:21Z</time>
      </trkpt>
      <trkpt lat="46.32075" lon="-0.59156">
        <ele>9.296875</ele>
        <time>2021-07-05T09:43:45Z</time>
      </trkpt>
      <trkpt lat="46.32076" lon="-0.59139">
        <ele>10.078125</ele>
        <time>2021-07-05T09:43:48Z</time>
      </trkpt>
      <trkpt lat="46.32075" lon="-0.59126">
        <ele>9.898438</ele>
        <time>2021-07-05T09:43:59Z</time>
      </trkpt>
      <trkpt lat="46.32079" lon="-0.59114">
        <ele>10.199219</ele>
        <time>2021-07-05T09:44:03Z</time>
      </trkpt>
      <trkpt lat="46.32086" lon="-0.59101">
        <ele>10.296875</ele>
        <time>2021-07-05T09:44:07Z</time>
      </trkpt>
      <trkpt lat="46.32102" lon="-0.59079">
        <ele>10.699219</ele>
        <time>2021-07-05T09:44:13Z</time>
      </trkpt>
      <trkpt lat="46.32108" lon="-0.59065">
        <ele>11</ele>
        <time>2021-07-05T09:44:16Z</time>
      </trkpt>
      <trkpt lat="46.32115" lon="-0.59048">
        <ele>11.097656</ele>
        <time>2021-07-05T09:44:19Z</time>
      </trkpt>
      <trkpt lat="46.32127" lon="-0.59011">
        <ele>11.597656</ele>
        <time>2021-07-05T09:44:25Z</time>
      </trkpt>
      <trkpt lat="46.32128" lon="-0.58995">
        <ele>11.296875</ele>
        <time>2021-07-05T09:44:28Z</time>
      </trkpt>
      <trkpt lat="46.32118" lon="-0.58991">
        <ele>11.097656</ele>
        <time>2021-07-05T09:44:34Z</time>
      </trkpt>
      <trkpt lat="46.32109" lon="-0.58984">
        <ele>11.199219</ele>
        <time>2021-07-05T09:44:38Z</time>
      </trkpt>
      <trkpt lat="46.32072" lon="-0.58955">
        <ele>11.597656</ele>
        <time>2021-07-05T09:44:50Z</time>
      </trkpt>
      <trkpt lat="46.32063" lon="-0.58946">
        <ele>11.5</ele>
        <time>2021-07-05T09:44:53Z</time>
      </trkpt>
      <trkpt lat="46.32054" lon="-0.58939">
        <ele>11.5</ele>
        <time>2021-07-05T09:44:56Z</time>
      </trkpt>
      <trkpt lat="46.32024" lon="-0.58916">
        <ele>11.5</ele>
        <time>2021-07-05T09:45:05Z</time>
      </trkpt>
      <trkpt lat="46.32014" lon="-0.58911">
        <ele>11.5</ele>
        <time>2021-07-05T09:45:08Z</time>
      </trkpt>
      <trkpt lat="46.31995" lon="-0.58898">
        <ele>10.699219</ele>
        <time>2021-07-05T09:45:15Z</time>
      </trkpt>
      <trkpt lat="46.31998" lon="-0.58883">
        <ele>10.699219</ele>
        <time>2021-07-05T09:45:21Z</time>
      </trkpt>
      <trkpt lat="46.32003" lon="-0.58867">
        <ele>10.898438</ele>
        <time>2021-07-05T09:45:25Z</time>
      </trkpt>
      <trkpt lat="46.32011" lon="-0.58841">
        <ele>11.796875</ele>
        <time>2021-07-05T09:45:31Z</time>
      </trkpt>
      <trkpt lat="46.32016" lon="-0.58827">
        <ele>11.898438</ele>
        <time>2021-07-05T09:45:36Z</time>
      </trkpt>
      <trkpt lat="46.32028" lon="-0.58801">
        <ele>11.898438</ele>
        <time>2021-07-05T09:45:43Z</time>
      </trkpt>
      <trkpt lat="46.32035" lon="-0.58786">
        <ele>12.199219</ele>
        <time>2021-07-05T09:45:46Z</time>
      </trkpt>
      <trkpt lat="46.32069" lon="-0.58726">
        <ele>15.296875</ele>
        <time>2021-07-05T09:46:03Z</time>
      </trkpt>
      <trkpt lat="46.32071" lon="-0.58713">
        <ele>15.898438</ele>
        <time>2021-07-05T09:46:07Z</time>
      </trkpt>
      <trkpt lat="46.32071" lon="-0.58698">
        <ele>16.296875</ele>
        <time>2021-07-05T09:46:12Z</time>
      </trkpt>
      <trkpt lat="46.32073" lon="-0.58681">
        <ele>16.597656</ele>
        <time>2021-07-05T09:46:17Z</time>
      </trkpt>
      <trkpt lat="46.32076" lon="-0.58668">
        <ele>17</ele>
        <time>2021-07-05T09:46:20Z</time>
      </trkpt>
      <trkpt lat="46.32082" lon="-0.5864">
        <ele>19.597656</ele>
        <time>2021-07-05T09:46:27Z</time>
      </trkpt>
      <trkpt lat="46.32074" lon="-0.58632">
        <ele>19.199219</ele>
        <time>2021-07-05T09:46:40Z</time>
      </trkpt>
      <trkpt lat="46.32065" lon="-0.58628">
        <ele>18.097656</ele>
        <time>2021-07-05T09:46:49Z</time>
      </trkpt>
      <trkpt lat="46.32064" lon="-0.58612">
        <ele>18.199219</ele>
        <time>2021-07-05T09:47:21Z</time>
      </trkpt>
      <trkpt lat="46.32066" lon="-0.58595">
        <ele>18.199219</ele>
        <time>2021-07-05T09:47:26Z</time>
      </trkpt>
      <trkpt lat="46.32077" lon="-0.5851">
        <ele>20.199219</ele>
        <time>2021-07-05T09:47:41Z</time>
      </trkpt>
      <trkpt lat="46.32077" lon="-0.58496">
        <ele>20.597656</ele>
        <time>2021-07-05T09:47:44Z</time>
      </trkpt>
      <trkpt lat="46.32077" lon="-0.58483">
        <ele>20.597656</ele>
        <time>2021-07-05T09:47:48Z</time>
      </trkpt>
      <trkpt lat="46.32075" lon="-0.58467">
        <ele>20.5</ele>
        <time>2021-07-05T09:47:52Z</time>
      </trkpt>
      <trkpt lat="46.32065" lon="-0.58411">
        <ele>20.199219</ele>
        <time>2021-07-05T09:48:05Z</time>
      </trkpt>
      <trkpt lat="46.32047" lon="-0.58309">
        <ele>19.5</ele>
        <time>2021-07-05T09:48:21Z</time>
      </trkpt>
      <trkpt lat="46.32047" lon="-0.58295">
        <ele>19.597656</ele>
        <time>2021-07-05T09:48:23Z</time>
      </trkpt>
      <trkpt lat="46.32048" lon="-0.58281">
        <ele>19.5</ele>
        <time>2021-07-05T09:48:25Z</time>
      </trkpt>
      <trkpt lat="46.32052" lon="-0.58253">
        <ele>18.898438</ele>
        <time>2021-07-05T09:48:29Z</time>
      </trkpt>
      <trkpt lat="46.32057" lon="-0.58221">
        <ele>17.898438</ele>
        <time>2021-07-05T09:48:34Z</time>
      </trkpt>
      <trkpt lat="46.32057" lon="-0.58201">
        <ele>17.898438</ele>
        <time>2021-07-05T09:48:37Z</time>
      </trkpt>
      <trkpt lat="46.32056" lon="-0.58188">
        <ele>17.898438</ele>
        <time>2021-07-05T09:48:39Z</time>
      </trkpt>
      <trkpt lat="46.32053" lon="-0.58176">
        <ele>17.898438</ele>
        <time>2021-07-05T09:48:41Z</time>
      </trkpt>
      <trkpt lat="46.32048" lon="-0.58159">
        <ele>17.898438</ele>
        <time>2021-07-05T09:48:44Z</time>
      </trkpt>
      <trkpt lat="46.32041" lon="-0.58145">
        <ele>17.597656</ele>
        <time>2021-07-05T09:48:47Z</time>
      </trkpt>
      <trkpt lat="46.32026" lon="-0.58117">
        <ele>16.796875</ele>
        <time>2021-07-05T09:48:53Z</time>
      </trkpt>
      <trkpt lat="46.32019" lon="-0.58101">
        <ele>16.699219</ele>
        <time>2021-07-05T09:48:56Z</time>
      </trkpt>
      <trkpt lat="46.32015" lon="-0.58083">
        <ele>16.398438</ele>
        <time>2021-07-05T09:48:59Z</time>
      </trkpt>
      <trkpt lat="46.32014" lon="-0.58066">
        <ele>16</ele>
        <time>2021-07-05T09:49:02Z</time>
      </trkpt>
      <trkpt lat="46.32013" lon="-0.58053">
        <ele>15.296875</ele>
        <time>2021-07-05T09:49:05Z</time>
      </trkpt>
      <trkpt lat="46.32005" lon="-0.58044">
        <ele>14.199219</ele>
        <time>2021-07-05T09:49:09Z</time>
      </trkpt>
      <trkpt lat="46.31996" lon="-0.58041">
        <ele>12.199219</ele>
        <time>2021-07-05T09:49:12Z</time>
      </trkpt>
      <trkpt lat="46.31986" lon="-0.58038">
        <ele>11.199219</ele>
        <time>2021-07-05T09:49:15Z</time>
      </trkpt>
      <trkpt lat="46.31976" lon="-0.58036">
        <ele>10</ele>
        <time>2021-07-05T09:49:18Z</time>
      </trkpt>
      <trkpt lat="46.31966" lon="-0.58041">
        <ele>8.796875</ele>
        <time>2021-07-05T09:49:21Z</time>
      </trkpt>
      <trkpt lat="46.31936" lon="-0.58059">
        <ele>8.199219</ele>
        <time>2021-07-05T09:49:30Z</time>
      </trkpt>
      <trkpt lat="46.31927" lon="-0.58066">
        <ele>7.796875</ele>
        <time>2021-07-05T09:49:33Z</time>
      </trkpt>
      <trkpt lat="46.31917" lon="-0.58065">
        <ele>6.796875</ele>
        <time>2021-07-05T09:49:37Z</time>
      </trkpt>
      <trkpt lat="46.3191" lon="-0.58052">
        <ele>6.699219</ele>
        <time>2021-07-05T09:49:42Z</time>
      </trkpt>
      <trkpt lat="46.31896" lon="-0.58025">
        <ele>6.898438</ele>
        <time>2021-07-05T09:49:50Z</time>
      </trkpt>
      <trkpt lat="46.31893" lon="-0.58012">
        <ele>7.296875</ele>
        <time>2021-07-05T09:49:54Z</time>
      </trkpt>
      <trkpt lat="46.31902" lon="-0.58003">
        <ele>8.296875</ele>
        <time>2021-07-05T09:49:58Z</time>
      </trkpt>
      <trkpt lat="46.31909" lon="-0.57994">
        <ele>9.097656</ele>
        <time>2021-07-05T09:50:01Z</time>
      </trkpt>
      <trkpt lat="46.31912" lon="-0.57979">
        <ele>9.5</ele>
        <time>2021-07-05T09:50:04Z</time>
      </trkpt>
      <trkpt lat="46.31915" lon="-0.57961">
        <ele>9.796875</ele>
        <time>2021-07-05T09:50:07Z</time>
      </trkpt>
      <trkpt lat="46.31918" lon="-0.57944">
        <ele>9.898438</ele>
        <time>2021-07-05T09:50:10Z</time>
      </trkpt>
      <trkpt lat="46.31924" lon="-0.5793">
        <ele>9.898438</ele>
        <time>2021-07-05T09:50:13Z</time>
      </trkpt>
      <trkpt lat="46.31929" lon="-0.57917">
        <ele>10.199219</ele>
        <time>2021-07-05T09:50:16Z</time>
      </trkpt>
      <trkpt lat="46.3194" lon="-0.57892">
        <ele>10.5</ele>
        <time>2021-07-05T09:50:22Z</time>
      </trkpt>
      <trkpt lat="46.31952" lon="-0.57867">
        <ele>10.097656</ele>
        <time>2021-07-05T09:50:28Z</time>
      </trkpt>
      <trkpt lat="46.31948" lon="-0.57853">
        <ele>10.398438</ele>
        <time>2021-07-05T09:50:32Z</time>
      </trkpt>
      <trkpt lat="46.31938" lon="-0.57847">
        <ele>11</ele>
        <time>2021-07-05T09:50:35Z</time>
      </trkpt>
      <trkpt lat="46.31927" lon="-0.57839">
        <ele>11.699219</ele>
        <time>2021-07-05T09:50:38Z</time>
      </trkpt>
      <trkpt lat="46.31919" lon="-0.57827">
        <ele>13</ele>
        <time>2021-07-05T09:50:41Z</time>
      </trkpt>
      <trkpt lat="46.31914" lon="-0.57811">
        <ele>12.796875</ele>
        <time>2021-07-05T09:50:45Z</time>
      </trkpt>
      <trkpt lat="46.31908" lon="-0.57801">
        <ele>12.898438</ele>
        <time>2021-07-05T09:50:48Z</time>
      </trkpt>
      <trkpt lat="46.31898" lon="-0.57794">
        <ele>13.097656</ele>
        <time>2021-07-05T09:50:51Z</time>
      </trkpt>
      <trkpt lat="46.31877" lon="-0.57776">
        <ele>13.199219</ele>
        <time>2021-07-05T09:50:57Z</time>
      </trkpt>
      <trkpt lat="46.31859" lon="-0.57758">
        <ele>13.296875</ele>
        <time>2021-07-05T09:51:03Z</time>
      </trkpt>
      <trkpt lat="46.3185" lon="-0.57751">
        <ele>13.199219</ele>
        <time>2021-07-05T09:51:06Z</time>
      </trkpt>
      <trkpt lat="46.31818" lon="-0.57726">
        <ele>14</ele>
        <time>2021-07-05T09:51:15Z</time>
      </trkpt>
      <trkpt lat="46.31806" lon="-0.57719">
        <ele>14</ele>
        <time>2021-07-05T09:51:18Z</time>
      </trkpt>
      <trkpt lat="46.31797" lon="-0.57715">
        <ele>14</ele>
        <time>2021-07-05T09:51:20Z</time>
      </trkpt>
      <trkpt lat="46.31767" lon="-0.57701">
        <ele>14.398438</ele>
        <time>2021-07-05T09:51:27Z</time>
      </trkpt>
      <trkpt lat="46.31756" lon="-0.57701">
        <ele>14.296875</ele>
        <time>2021-07-05T09:51:30Z</time>
      </trkpt>
      <trkpt lat="46.31743" lon="-0.57699">
        <ele>14.097656</ele>
        <time>2021-07-05T09:51:33Z</time>
      </trkpt>
      <trkpt lat="46.31735" lon="-0.57695">
        <ele>13.5</ele>
        <time>2021-07-05T09:51:35Z</time>
      </trkpt>
      <trkpt lat="46.31698" lon="-0.57682">
        <ele>12</ele>
        <time>2021-07-05T09:51:43Z</time>
      </trkpt>
      <trkpt lat="46.31689" lon="-0.5768">
        <ele>11.597656</ele>
        <time>2021-07-05T09:51:45Z</time>
      </trkpt>
      <trkpt lat="46.31657" lon="-0.57675">
        <ele>10.398438</ele>
        <time>2021-07-05T09:51:51Z</time>
      </trkpt>
      <trkpt lat="46.31646" lon="-0.57675">
        <ele>10.097656</ele>
        <time>2021-07-05T09:51:53Z</time>
      </trkpt>
      <trkpt lat="46.31484" lon="-0.57681">
        <ele>7.699219</ele>
        <time>2021-07-05T09:52:32Z</time>
      </trkpt>
      <trkpt lat="46.31474" lon="-0.57683">
        <ele>7.699219</ele>
        <time>2021-07-05T09:52:35Z</time>
      </trkpt>
      <trkpt lat="46.31463" lon="-0.57684">
        <ele>7.597656</ele>
        <time>2021-07-05T09:52:38Z</time>
      </trkpt>
      <trkpt lat="46.31416" lon="-0.5769">
        <ele>8.398438</ele>
        <time>2021-07-05T09:52:50Z</time>
      </trkpt>
      <trkpt lat="46.31359" lon="-0.57707">
        <ele>6.097656</ele>
        <time>2021-07-05T09:53:04Z</time>
      </trkpt>
      <trkpt lat="46.31348" lon="-0.57707">
        <ele>6.5</ele>
        <time>2021-07-05T09:53:07Z</time>
      </trkpt>
      <trkpt lat="46.31338" lon="-0.57704">
        <ele>7</ele>
        <time>2021-07-05T09:53:10Z</time>
      </trkpt>
      <trkpt lat="46.31327" lon="-0.57703">
        <ele>7.199219</ele>
        <time>2021-07-05T09:53:14Z</time>
      </trkpt>
      <trkpt lat="46.31318" lon="-0.57699">
        <ele>7.5</ele>
        <time>2021-07-05T09:53:17Z</time>
      </trkpt>
      <trkpt lat="46.31308" lon="-0.57699">
        <ele>7.796875</ele>
        <time>2021-07-05T09:53:20Z</time>
      </trkpt>
      <trkpt lat="46.31249" lon="-0.57703">
        <ele>8.296875</ele>
        <time>2021-07-05T09:53:35Z</time>
      </trkpt>
      <trkpt lat="46.31175" lon="-0.57709">
        <ele>8.898438</ele>
        <time>2021-07-05T09:53:53Z</time>
      </trkpt>
      <trkpt lat="46.31163" lon="-0.57709">
        <ele>8.796875</ele>
        <time>2021-07-05T09:53:56Z</time>
      </trkpt>
      <trkpt lat="46.31151" lon="-0.57711">
        <ele>8.597656</ele>
        <time>2021-07-05T09:53:59Z</time>
      </trkpt>
      <trkpt lat="46.31133" lon="-0.57715">
        <ele>8.796875</ele>
        <time>2021-07-05T09:54:03Z</time>
      </trkpt>
      <trkpt lat="46.31115" lon="-0.57721">
        <ele>9.097656</ele>
        <time>2021-07-05T09:54:07Z</time>
      </trkpt>
      <trkpt lat="46.31106" lon="-0.57725">
        <ele>9.097656</ele>
        <time>2021-07-05T09:54:09Z</time>
      </trkpt>
      <trkpt lat="46.31089" lon="-0.57735">
        <ele>9.097656</ele>
        <time>2021-07-05T09:54:13Z</time>
      </trkpt>
      <trkpt lat="46.31077" lon="-0.57744">
        <ele>9</ele>
        <time>2021-07-05T09:54:16Z</time>
      </trkpt>
      <trkpt lat="46.31066" lon="-0.57755">
        <ele>9.097656</ele>
        <time>2021-07-05T09:54:19Z</time>
      </trkpt>
      <trkpt lat="46.31058" lon="-0.57762">
        <ele>9.097656</ele>
        <time>2021-07-05T09:54:21Z</time>
      </trkpt>
      <trkpt lat="46.31051" lon="-0.57771">
        <ele>9</ele>
        <time>2021-07-05T09:54:23Z</time>
      </trkpt>
      <trkpt lat="46.31044" lon="-0.57782">
        <ele>8.898438</ele>
        <time>2021-07-05T09:54:25Z</time>
      </trkpt>
      <trkpt lat="46.31036" lon="-0.57794">
        <ele>8.796875</ele>
        <time>2021-07-05T09:54:27Z</time>
      </trkpt>
      <trkpt lat="46.3103" lon="-0.57807">
        <ele>9.199219</ele>
        <time>2021-07-05T09:54:29Z</time>
      </trkpt>
      <trkpt lat="46.31012" lon="-0.57847">
        <ele>8.898438</ele>
        <time>2021-07-05T09:54:35Z</time>
      </trkpt>
      <trkpt lat="46.31007" lon="-0.5786">
        <ele>8.898438</ele>
        <time>2021-07-05T09:54:37Z</time>
      </trkpt>
      <trkpt lat="46.31004" lon="-0.57872">
        <ele>9.097656</ele>
        <time>2021-07-05T09:54:39Z</time>
      </trkpt>
      <trkpt lat="46.31004" lon="-0.57891">
        <ele>9.199219</ele>
        <time>2021-07-05T09:54:42Z</time>
      </trkpt>
      <trkpt lat="46.31005" lon="-0.57909">
        <ele>8.597656</ele>
        <time>2021-07-05T09:54:45Z</time>
      </trkpt>
      <trkpt lat="46.30999" lon="-0.57923">
        <ele>8.398438</ele>
        <time>2021-07-05T09:54:48Z</time>
      </trkpt>
      <trkpt lat="46.30988" lon="-0.57928">
        <ele>9.296875</ele>
        <time>2021-07-05T09:54:51Z</time>
      </trkpt>
      <trkpt lat="46.3098" lon="-0.5794">
        <ele>9.199219</ele>
        <time>2021-07-05T09:54:55Z</time>
      </trkpt>
      <trkpt lat="46.30975" lon="-0.57953">
        <ele>9.296875</ele>
        <time>2021-07-05T09:54:58Z</time>
      </trkpt>
      <trkpt lat="46.30968" lon="-0.57968">
        <ele>9.5</ele>
        <time>2021-07-05T09:55:01Z</time>
      </trkpt>
      <trkpt lat="46.30946" lon="-0.58006">
        <ele>9.5</ele>
        <time>2021-07-05T09:55:11Z</time>
      </trkpt>
      <trkpt lat="46.30937" lon="-0.58017">
        <ele>10</ele>
        <time>2021-07-05T09:55:14Z</time>
      </trkpt>
      <trkpt lat="46.3093" lon="-0.5803">
        <ele>9.898438</ele>
        <time>2021-07-05T09:55:17Z</time>
      </trkpt>
      <trkpt lat="46.30925" lon="-0.58046">
        <ele>9.898438</ele>
        <time>2021-07-05T09:55:20Z</time>
      </trkpt>
      <trkpt lat="46.30923" lon="-0.5806">
        <ele>8.296875</ele>
        <time>2021-07-05T09:55:23Z</time>
      </trkpt>
      <trkpt lat="46.30922" lon="-0.58076">
        <ele>7.597656</ele>
        <time>2021-07-05T09:55:27Z</time>
      </trkpt>
      <trkpt lat="46.30919" lon="-0.58089">
        <ele>7.296875</ele>
        <time>2021-07-05T09:55:30Z</time>
      </trkpt>
      <trkpt lat="46.30909" lon="-0.58097">
        <ele>6.796875</ele>
        <time>2021-07-05T09:55:34Z</time>
      </trkpt>
      <trkpt lat="46.30891" lon="-0.5811">
        <ele>6.597656</ele>
        <time>2021-07-05T09:55:41Z</time>
      </trkpt>
      <trkpt lat="46.30884" lon="-0.5812">
        <ele>6.796875</ele>
        <time>2021-07-05T09:55:44Z</time>
      </trkpt>
      <trkpt lat="46.30878" lon="-0.58134">
        <ele>7.296875</ele>
        <time>2021-07-05T09:55:47Z</time>
      </trkpt>
      <trkpt lat="46.30875" lon="-0.58149">
        <ele>7.699219</ele>
        <time>2021-07-05T09:55:50Z</time>
      </trkpt>
      <trkpt lat="46.30871" lon="-0.58164">
        <ele>7.898438</ele>
        <time>2021-07-05T09:55:53Z</time>
      </trkpt>
      <trkpt lat="46.30867" lon="-0.58178">
        <ele>8.398438</ele>
        <time>2021-07-05T09:55:56Z</time>
      </trkpt>
      <trkpt lat="46.30861" lon="-0.5819">
        <ele>9.398438</ele>
        <time>2021-07-05T09:55:59Z</time>
      </trkpt>
      <trkpt lat="46.30853" lon="-0.58199">
        <ele>10.398438</ele>
        <time>2021-07-05T09:56:02Z</time>
      </trkpt>
      <trkpt lat="46.30845" lon="-0.5821">
        <ele>11.5</ele>
        <time>2021-07-05T09:56:05Z</time>
      </trkpt>
      <trkpt lat="46.30841" lon="-0.58224">
        <ele>10.5</ele>
        <time>2021-07-05T09:56:08Z</time>
      </trkpt>
      <trkpt lat="46.30843" lon="-0.58241">
        <ele>10.597656</ele>
        <time>2021-07-05T09:56:12Z</time>
      </trkpt>
      <trkpt lat="46.3084" lon="-0.58254">
        <ele>10.597656</ele>
        <time>2021-07-05T09:56:16Z</time>
      </trkpt>
      <trkpt lat="46.30834" lon="-0.58265">
        <ele>10.121094</ele>
        <time>2021-07-05T09:56:21Z</time>
      </trkpt>
      <trkpt lat="46.30828" lon="-0.58275">
        <ele>17.296875</ele>
        <time>2021-07-05T09:57:40Z</time>
      </trkpt>
      <trkpt lat="46.3082" lon="-0.58281">
        <ele>15.398438</ele>
        <time>2021-07-05T09:59:29Z</time>
      </trkpt>
      <trkpt lat="46.30817" lon="-0.58293">
        <ele>13.097656</ele>
        <time>2021-07-05T09:59:41Z</time>
      </trkpt>
      <trkpt lat="46.30813" lon="-0.58307">
        <ele>12.699219</ele>
        <time>2021-07-05T09:59:52Z</time>
      </trkpt>
      <trkpt lat="46.30808" lon="-0.58319">
        <ele>12.699219</ele>
        <time>2021-07-05T09:59:59Z</time>
      </trkpt>
      <trkpt lat="46.308" lon="-0.58328">
        <ele>13</ele>
        <time>2021-07-05T10:00:04Z</time>
      </trkpt>
      <trkpt lat="46.30771" lon="-0.58367">
        <ele>10.699219</ele>
        <time>2021-07-05T10:00:20Z</time>
      </trkpt>
      <trkpt lat="46.30763" lon="-0.58376">
        <ele>11.5</ele>
        <time>2021-07-05T10:00:25Z</time>
      </trkpt>
      <trkpt lat="46.30756" lon="-0.58387">
        <ele>11.898438</ele>
        <time>2021-07-05T10:00:35Z</time>
      </trkpt>
      <trkpt lat="46.30747" lon="-0.58394">
        <ele>12.597656</ele>
        <time>2021-07-05T10:00:39Z</time>
      </trkpt>
      <trkpt lat="46.30742" lon="-0.58408">
        <ele>13.5</ele>
        <time>2021-07-05T10:00:43Z</time>
      </trkpt>
      <trkpt lat="46.30739" lon="-0.58421">
        <ele>13.898438</ele>
        <time>2021-07-05T10:00:46Z</time>
      </trkpt>
      <trkpt lat="46.30734" lon="-0.58432">
        <ele>14.398438</ele>
        <time>2021-07-05T10:00:49Z</time>
      </trkpt>
      <trkpt lat="46.30727" lon="-0.58443">
        <ele>14.796875</ele>
        <time>2021-07-05T10:00:52Z</time>
      </trkpt>
      <trkpt lat="46.30713" lon="-0.58465">
        <ele>15.097656</ele>
        <time>2021-07-05T10:00:58Z</time>
      </trkpt>
      <trkpt lat="46.30708" lon="-0.58479">
        <ele>15</ele>
        <time>2021-07-05T10:01:01Z</time>
      </trkpt>
      <trkpt lat="46.30702" lon="-0.58494">
        <ele>14.796875</ele>
        <time>2021-07-05T10:01:04Z</time>
      </trkpt>
      <trkpt lat="46.30694" lon="-0.58507">
        <ele>14.398438</ele>
        <time>2021-07-05T10:01:07Z</time>
      </trkpt>
      <trkpt lat="46.30678" lon="-0.58531">
        <ele>14.398438</ele>
        <time>2021-07-05T10:01:14Z</time>
      </trkpt>
      <trkpt lat="46.3067" lon="-0.58537">
        <ele>13.898438</ele>
        <time>2021-07-05T10:01:17Z</time>
      </trkpt>
      <trkpt lat="46.30663" lon="-0.58547">
        <ele>15</ele>
        <time>2021-07-05T10:01:21Z</time>
      </trkpt>
      <trkpt lat="46.30654" lon="-0.58553">
        <ele>15.398438</ele>
        <time>2021-07-05T10:01:25Z</time>
      </trkpt>
      <trkpt lat="46.30645" lon="-0.5856">
        <ele>15.398438</ele>
        <time>2021-07-05T10:01:29Z</time>
      </trkpt>
      <trkpt lat="46.30527" lon="-0.58664">
        <ele>15.199219</ele>
        <time>2021-07-05T10:02:05Z</time>
      </trkpt>
      <trkpt lat="46.30516" lon="-0.5867">
        <ele>15.5</ele>
        <time>2021-07-05T10:02:08Z</time>
      </trkpt>
      <trkpt lat="46.30505" lon="-0.58674">
        <ele>14.796875</ele>
        <time>2021-07-05T10:02:12Z</time>
      </trkpt>
      <trkpt lat="46.30508" lon="-0.58688">
        <ele>14.199219</ele>
        <time>2021-07-05T10:02:17Z</time>
      </trkpt>
      <trkpt lat="46.30514" lon="-0.58701">
        <ele>13.796875</ele>
        <time>2021-07-05T10:02:20Z</time>
      </trkpt>
      <trkpt lat="46.30522" lon="-0.58716">
        <ele>12.699219</ele>
        <time>2021-07-05T10:02:23Z</time>
      </trkpt>
      <trkpt lat="46.30545" lon="-0.58756">
        <ele>12.398438</ele>
        <time>2021-07-05T10:02:32Z</time>
      </trkpt>
      <trkpt lat="46.3055" lon="-0.5877">
        <ele>13.097656</ele>
        <time>2021-07-05T10:02:35Z</time>
      </trkpt>
      <trkpt lat="46.30554" lon="-0.58785">
        <ele>13.898438</ele>
        <time>2021-07-05T10:02:38Z</time>
      </trkpt>
      <trkpt lat="46.30558" lon="-0.58801">
        <ele>14.699219</ele>
        <time>2021-07-05T10:02:41Z</time>
      </trkpt>
      <trkpt lat="46.30563" lon="-0.58816">
        <ele>15.5</ele>
        <time>2021-07-05T10:02:44Z</time>
      </trkpt>
      <trkpt lat="46.30571" lon="-0.58845">
        <ele>15.699219</ele>
        <time>2021-07-05T10:02:50Z</time>
      </trkpt>
      <trkpt lat="46.30577" lon="-0.58859">
        <ele>15.398438</ele>
        <time>2021-07-05T10:02:53Z</time>
      </trkpt>
      <trkpt lat="46.30584" lon="-0.58873">
        <ele>14.898438</ele>
        <time>2021-07-05T10:02:56Z</time>
      </trkpt>
      <trkpt lat="46.30591" lon="-0.58885">
        <ele>15.796875</ele>
        <time>2021-07-05T10:02:59Z</time>
      </trkpt>
      <trkpt lat="46.30597" lon="-0.58899">
        <ele>16.597656</ele>
        <time>2021-07-05T10:03:02Z</time>
      </trkpt>
      <trkpt lat="46.30602" lon="-0.58914">
        <ele>17.296875</ele>
        <time>2021-07-05T10:03:05Z</time>
      </trkpt>
      <trkpt lat="46.30605" lon="-0.5893">
        <ele>17.699219</ele>
        <time>2021-07-05T10:03:08Z</time>
      </trkpt>
      <trkpt lat="46.30612" lon="-0.58977">
        <ele>18.296875</ele>
        <time>2021-07-05T10:03:17Z</time>
      </trkpt>
      <trkpt lat="46.30612" lon="-0.58991">
        <ele>18.898438</ele>
        <time>2021-07-05T10:03:20Z</time>
      </trkpt>
      <trkpt lat="46.30609" lon="-0.59036">
        <ele>19.796875</ele>
        <time>2021-07-05T10:03:30Z</time>
      </trkpt>
      <trkpt lat="46.30609" lon="-0.59052">
        <ele>19</ele>
        <time>2021-07-05T10:03:33Z</time>
      </trkpt>
      <trkpt lat="46.30609" lon="-0.59067">
        <ele>19.199219</ele>
        <time>2021-07-05T10:03:36Z</time>
      </trkpt>
      <trkpt lat="46.30607" lon="-0.59085">
        <ele>19.898438</ele>
        <time>2021-07-05T10:03:39Z</time>
      </trkpt>
      <trkpt lat="46.30604" lon="-0.59102">
        <ele>19.796875</ele>
        <time>2021-07-05T10:03:42Z</time>
      </trkpt>
      <trkpt lat="46.306" lon="-0.5912">
        <ele>19.898438</ele>
        <time>2021-07-05T10:03:45Z</time>
      </trkpt>
      <trkpt lat="46.30595" lon="-0.59138">
        <ele>21.097656</ele>
        <time>2021-07-05T10:03:48Z</time>
      </trkpt>
      <trkpt lat="46.30547" lon="-0.59282">
        <ele>25.398438</ele>
        <time>2021-07-05T10:04:11Z</time>
      </trkpt>
      <trkpt lat="46.3054" lon="-0.59298">
        <ele>25.199219</ele>
        <time>2021-07-05T10:04:14Z</time>
      </trkpt>
      <trkpt lat="46.30524" lon="-0.59328">
        <ele>24.398438</ele>
        <time>2021-07-05T10:04:20Z</time>
      </trkpt>
      <trkpt lat="46.30516" lon="-0.59342">
        <ele>24.5</ele>
        <time>2021-07-05T10:04:23Z</time>
      </trkpt>
      <trkpt lat="46.30508" lon="-0.59355">
        <ele>24.898438</ele>
        <time>2021-07-05T10:04:26Z</time>
      </trkpt>
      <trkpt lat="46.30498" lon="-0.59366">
        <ele>23.898438</ele>
        <time>2021-07-05T10:04:29Z</time>
      </trkpt>
      <trkpt lat="46.30488" lon="-0.59377">
        <ele>23.296875</ele>
        <time>2021-07-05T10:04:32Z</time>
      </trkpt>
      <trkpt lat="46.30476" lon="-0.59386">
        <ele>22.597656</ele>
        <time>2021-07-05T10:04:35Z</time>
      </trkpt>
      <trkpt lat="46.30467" lon="-0.59392">
        <ele>21.898438</ele>
        <time>2021-07-05T10:04:38Z</time>
      </trkpt>
      <trkpt lat="46.30456" lon="-0.59396">
        <ele>21.199219</ele>
        <time>2021-07-05T10:04:42Z</time>
      </trkpt>
      <trkpt lat="46.30455" lon="-0.5941">
        <ele>18.5</ele>
        <time>2021-07-05T10:04:48Z</time>
      </trkpt>
      <trkpt lat="46.30449" lon="-0.59421">
        <ele>14</ele>
        <time>2021-07-05T10:04:55Z</time>
      </trkpt>
      <trkpt lat="46.30458" lon="-0.59419">
        <ele>13</ele>
        <time>2021-07-05T10:05:08Z</time>
      </trkpt>
      <trkpt lat="46.30463" lon="-0.5943">
        <ele>12.398438</ele>
        <time>2021-07-05T10:05:15Z</time>
      </trkpt>
      <trkpt lat="46.30459" lon="-0.59417">
        <ele>12</ele>
        <time>2021-07-05T10:05:35Z</time>
      </trkpt>
      <trkpt lat="46.30452" lon="-0.59407">
        <ele>11.296875</ele>
        <time>2021-07-05T10:05:39Z</time>
      </trkpt>
      <trkpt lat="46.30442" lon="-0.5941">
        <ele>11.398438</ele>
        <time>2021-07-05T10:05:43Z</time>
      </trkpt>
      <trkpt lat="46.30432" lon="-0.5941">
        <ele>11.699219</ele>
        <time>2021-07-05T10:05:47Z</time>
      </trkpt>
      <trkpt lat="46.30422" lon="-0.59407">
        <ele>11.097656</ele>
        <time>2021-07-05T10:05:51Z</time>
      </trkpt>
      <trkpt lat="46.3042" lon="-0.59422">
        <ele>9.898438</ele>
        <time>2021-07-05T10:05:58Z</time>
      </trkpt>
      <trkpt lat="46.30422" lon="-0.59435">
        <ele>8.199219</ele>
        <time>2021-07-05T10:06:01Z</time>
      </trkpt>
      <trkpt lat="46.3042" lon="-0.59448">
        <ele>7.296875</ele>
        <time>2021-07-05T10:06:04Z</time>
      </trkpt>
      <trkpt lat="46.30414" lon="-0.59459">
        <ele>6.5</ele>
        <time>2021-07-05T10:06:07Z</time>
      </trkpt>
      <trkpt lat="46.30405" lon="-0.59471">
        <ele>5.898438</ele>
        <time>2021-07-05T10:06:10Z</time>
      </trkpt>
      <trkpt lat="46.3039" lon="-0.59495">
        <ele>5.699219</ele>
        <time>2021-07-05T10:06:15Z</time>
      </trkpt>
      <trkpt lat="46.30385" lon="-0.59506">
        <ele>5.898438</ele>
        <time>2021-07-05T10:06:17Z</time>
      </trkpt>
      <trkpt lat="46.30381" lon="-0.59519">
        <ele>6</ele>
        <time>2021-07-05T10:06:19Z</time>
      </trkpt>
      <trkpt lat="46.30375" lon="-0.59531">
        <ele>6.296875</ele>
        <time>2021-07-05T10:06:21Z</time>
      </trkpt>
      <trkpt lat="46.30288" lon="-0.59713">
        <ele>11.5</ele>
        <time>2021-07-05T10:06:51Z</time>
      </trkpt>
      <trkpt lat="46.30278" lon="-0.5972">
        <ele>12.796875</ele>
        <time>2021-07-05T10:06:54Z</time>
      </trkpt>
      <trkpt lat="46.30267" lon="-0.59721">
        <ele>15.296875</ele>
        <time>2021-07-05T10:06:57Z</time>
      </trkpt>
      <trkpt lat="46.30255" lon="-0.59722">
        <ele>17.097656</ele>
        <time>2021-07-05T10:07:00Z</time>
      </trkpt>
      <trkpt lat="46.30243" lon="-0.59721">
        <ele>18.5</ele>
        <time>2021-07-05T10:07:03Z</time>
      </trkpt>
      <trkpt lat="46.30234" lon="-0.5972">
        <ele>19.5</ele>
        <time>2021-07-05T10:07:05Z</time>
      </trkpt>
      <trkpt lat="46.30225" lon="-0.59722">
        <ele>18.898438</ele>
        <time>2021-07-05T10:07:07Z</time>
      </trkpt>
      <trkpt lat="46.30215" lon="-0.59732">
        <ele>17.097656</ele>
        <time>2021-07-05T10:07:10Z</time>
      </trkpt>
      <trkpt lat="46.30208" lon="-0.59749">
        <ele>15.796875</ele>
        <time>2021-07-05T10:07:13Z</time>
      </trkpt>
      <trkpt lat="46.30203" lon="-0.59765">
        <ele>15.199219</ele>
        <time>2021-07-05T10:07:16Z</time>
      </trkpt>
      <trkpt lat="46.30197" lon="-0.59777">
        <ele>13.796875</ele>
        <time>2021-07-05T10:07:18Z</time>
      </trkpt>
      <trkpt lat="46.30192" lon="-0.59788">
        <ele>12.796875</ele>
        <time>2021-07-05T10:07:20Z</time>
      </trkpt>
      <trkpt lat="46.30178" lon="-0.5981">
        <ele>11.699219</ele>
        <time>2021-07-05T10:07:24Z</time>
      </trkpt>
      <trkpt lat="46.3017" lon="-0.59821">
        <ele>11.5</ele>
        <time>2021-07-05T10:07:26Z</time>
      </trkpt>
      <trkpt lat="46.30161" lon="-0.59831">
        <ele>11.296875</ele>
        <time>2021-07-05T10:07:28Z</time>
      </trkpt>
      <trkpt lat="46.30151" lon="-0.59838">
        <ele>10.796875</ele>
        <time>2021-07-05T10:07:30Z</time>
      </trkpt>
      <trkpt lat="46.30141" lon="-0.59844">
        <ele>10.296875</ele>
        <time>2021-07-05T10:07:32Z</time>
      </trkpt>
      <trkpt lat="46.30122" lon="-0.59856">
        <ele>9.898438</ele>
        <time>2021-07-05T10:07:36Z</time>
      </trkpt>
      <trkpt lat="46.30111" lon="-0.59865">
        <ele>9.296875</ele>
        <time>2021-07-05T10:07:39Z</time>
      </trkpt>
      <trkpt lat="46.30108" lon="-0.59878">
        <ele>8.199219</ele>
        <time>2021-07-05T10:07:42Z</time>
      </trkpt>
      <trkpt lat="46.30107" lon="-0.59892">
        <ele>7.199219</ele>
        <time>2021-07-05T10:07:45Z</time>
      </trkpt>
      <trkpt lat="46.30105" lon="-0.59974">
        <ele>1.199219</ele>
        <time>2021-07-05T10:08:00Z</time>
      </trkpt>
      <trkpt lat="46.30109" lon="-0.5999">
        <ele>1</ele>
        <time>2021-07-05T10:08:03Z</time>
      </trkpt>
      <trkpt lat="46.30118" lon="-0.59999">
        <ele>1.5</ele>
        <time>2021-07-05T10:08:06Z</time>
      </trkpt>
      <trkpt lat="46.30129" lon="-0.60007">
        <ele>2.597656</ele>
        <time>2021-07-05T10:08:09Z</time>
      </trkpt>
      <trkpt lat="46.30169" lon="-0.60035">
        <ele>7.398438</ele>
        <time>2021-07-05T10:08:19Z</time>
      </trkpt>
      <trkpt lat="46.3018" lon="-0.60041">
        <ele>8.699219</ele>
        <time>2021-07-05T10:08:22Z</time>
      </trkpt>
      <trkpt lat="46.30337" lon="-0.60138">
        <ele>13.199219</ele>
        <time>2021-07-05T10:09:00Z</time>
      </trkpt>
      <trkpt lat="46.30346" lon="-0.60147">
        <ele>13.398438</ele>
        <time>2021-07-05T10:09:03Z</time>
      </trkpt>
      <trkpt lat="46.30346" lon="-0.6016">
        <ele>13.398438</ele>
        <time>2021-07-05T10:09:06Z</time>
      </trkpt>
      <trkpt lat="46.30342" lon="-0.60175">
        <ele>13.398438</ele>
        <time>2021-07-05T10:09:09Z</time>
      </trkpt>
      <trkpt lat="46.30329" lon="-0.60218">
        <ele>12.398438</ele>
        <time>2021-07-05T10:09:16Z</time>
      </trkpt>
      <trkpt lat="46.30327" lon="-0.60232">
        <ele>12</ele>
        <time>2021-07-05T10:09:18Z</time>
      </trkpt>
      <trkpt lat="46.30322" lon="-0.60275">
        <ele>11.398438</ele>
        <time>2021-07-05T10:09:24Z</time>
      </trkpt>
      <trkpt lat="46.30296" lon="-0.60494">
        <ele>7.699219</ele>
        <time>2021-07-05T10:09:52Z</time>
      </trkpt>
      <trkpt lat="46.30288" lon="-0.60544">
        <ele>7.597656</ele>
        <time>2021-07-05T10:09:58Z</time>
      </trkpt>
      <trkpt lat="46.30271" lon="-0.60642">
        <ele>8.699219</ele>
        <time>2021-07-05T10:10:10Z</time>
      </trkpt>
      <trkpt lat="46.30261" lon="-0.60653">
        <ele>8.5</ele>
        <time>2021-07-05T10:10:13Z</time>
      </trkpt>
      <trkpt lat="46.30252" lon="-0.60657">
        <ele>8.296875</ele>
        <time>2021-07-05T10:10:15Z</time>
      </trkpt>
      <trkpt lat="46.30121" lon="-0.60709">
        <ele>8</ele>
        <time>2021-07-05T10:10:41Z</time>
      </trkpt>
      <trkpt lat="46.30022" lon="-0.60744">
        <ele>8.097656</ele>
        <time>2021-07-05T10:11:01Z</time>
      </trkpt>
      <trkpt lat="46.30012" lon="-0.60747">
        <ele>8.097656</ele>
        <time>2021-07-05T10:11:03Z</time>
      </trkpt>
      <trkpt lat="46.29752" lon="-0.60839">
        <ele>4.597656</ele>
        <time>2021-07-05T10:11:55Z</time>
      </trkpt>
      <trkpt lat="46.2974" lon="-0.60848">
        <ele>4.699219</ele>
        <time>2021-07-05T10:11:58Z</time>
      </trkpt>
      <trkpt lat="46.29736" lon="-0.60861">
        <ele>4.898438</ele>
        <time>2021-07-05T10:12:00Z</time>
      </trkpt>
      <trkpt lat="46.29734" lon="-0.60875">
        <ele>5.097656</ele>
        <time>2021-07-05T10:12:02Z</time>
      </trkpt>
      <trkpt lat="46.29702" lon="-0.61149">
        <ele>6.296875</ele>
        <time>2021-07-05T10:12:46Z</time>
      </trkpt>
      <trkpt lat="46.297" lon="-0.61167">
        <ele>6.398438</ele>
        <time>2021-07-05T10:12:49Z</time>
      </trkpt>
      <trkpt lat="46.29688" lon="-0.61266">
        <ele>6.898438</ele>
        <time>2021-07-05T10:13:07Z</time>
      </trkpt>
      <trkpt lat="46.29685" lon="-0.61326">
        <ele>5.398438</ele>
        <time>2021-07-05T10:13:21Z</time>
      </trkpt>
      <trkpt lat="46.29687" lon="-0.61341">
        <ele>5</ele>
        <time>2021-07-05T10:13:24Z</time>
      </trkpt>
      <trkpt lat="46.29692" lon="-0.61357">
        <ele>5</ele>
        <time>2021-07-05T10:13:27Z</time>
      </trkpt>
      <trkpt lat="46.29713" lon="-0.61427">
        <ele>5.699219</ele>
        <time>2021-07-05T10:13:43Z</time>
      </trkpt>
      <trkpt lat="46.29716" lon="-0.61442">
        <ele>5.5</ele>
        <time>2021-07-05T10:13:47Z</time>
      </trkpt>
      <trkpt lat="46.29727" lon="-0.61446">
        <ele>5.097656</ele>
        <time>2021-07-05T10:13:52Z</time>
      </trkpt>
      <trkpt lat="46.29737" lon="-0.61443">
        <ele>4.597656</ele>
        <time>2021-07-05T10:13:55Z</time>
      </trkpt>
      <trkpt lat="46.29808" lon="-0.61422">
        <ele>3.5</ele>
        <time>2021-07-05T10:14:12Z</time>
      </trkpt>
      <trkpt lat="46.2982" lon="-0.6142">
        <ele>3.296875</ele>
        <time>2021-07-05T10:14:15Z</time>
      </trkpt>
      <trkpt lat="46.29832" lon="-0.61425">
        <ele>3</ele>
        <time>2021-07-05T10:14:18Z</time>
      </trkpt>
      <trkpt lat="46.29844" lon="-0.61435">
        <ele>2.796875</ele>
        <time>2021-07-05T10:14:21Z</time>
      </trkpt>
      <trkpt lat="46.29929" lon="-0.61516">
        <ele>0.898438</ele>
        <time>2021-07-05T10:14:43Z</time>
      </trkpt>
      <trkpt lat="46.29937" lon="-0.61524">
        <ele>0.898438</ele>
        <time>2021-07-05T10:14:45Z</time>
      </trkpt>
      <trkpt lat="46.29968" lon="-0.61558">
        <ele>0.398438</ele>
        <time>2021-07-05T10:14:53Z</time>
      </trkpt>
      <trkpt lat="46.29984" lon="-0.61574">
        <ele>0.597656</ele>
        <time>2021-07-05T10:14:57Z</time>
      </trkpt>
      <trkpt lat="46.29992" lon="-0.61581">
        <ele>0.796875</ele>
        <time>2021-07-05T10:14:59Z</time>
      </trkpt>
      <trkpt lat="46.3" lon="-0.6159">
        <ele>1</ele>
        <time>2021-07-05T10:15:01Z</time>
      </trkpt>
      <trkpt lat="46.30155" lon="-0.61765">
        <ele>2.699219</ele>
        <time>2021-07-05T10:15:56Z</time>
      </trkpt>
      <trkpt lat="46.3016" lon="-0.61777">
        <ele>2.898438</ele>
        <time>2021-07-05T10:15:59Z</time>
      </trkpt>
      <trkpt lat="46.30169" lon="-0.61802">
        <ele>3.296875</ele>
        <time>2021-07-05T10:16:05Z</time>
      </trkpt>
      <trkpt lat="46.30172" lon="-0.61817">
        <ele>3.398438</ele>
        <time>2021-07-05T10:16:08Z</time>
      </trkpt>
      <trkpt lat="46.30175" lon="-0.61831">
        <ele>3.699219</ele>
        <time>2021-07-05T10:16:11Z</time>
      </trkpt>
      <trkpt lat="46.30175" lon="-0.61848">
        <ele>4.199219</ele>
        <time>2021-07-05T10:16:14Z</time>
      </trkpt>
      <trkpt lat="46.30176" lon="-0.61861">
        <ele>7.597656</ele>
        <time>2021-07-05T10:16:17Z</time>
      </trkpt>
      <trkpt lat="46.30184" lon="-0.61868">
        <ele>10.199219</ele>
        <time>2021-07-05T10:16:29Z</time>
      </trkpt>
      <trkpt lat="46.30193" lon="-0.6187">
        <ele>8.699219</ele>
        <time>2021-07-05T10:16:41Z</time>
      </trkpt>
      <trkpt lat="46.30202" lon="-0.61873">
        <ele>5.296875</ele>
        <time>2021-07-05T10:16:54Z</time>
      </trkpt>
      <trkpt lat="46.30195" lon="-0.61897">
        <ele>7.5</ele>
        <time>2021-07-05T10:17:53Z</time>
      </trkpt>
      <trkpt lat="46.30201" lon="-0.61909">
        <ele>8</ele>
        <time>2021-07-05T10:18:18Z</time>
      </trkpt>
      <trkpt lat="46.30207" lon="-0.61921">
        <ele>8.699219</ele>
        <time>2021-07-05T10:18:23Z</time>
      </trkpt>
      <trkpt lat="46.30211" lon="-0.61933">
        <ele>8.597656</ele>
        <time>2021-07-05T10:18:26Z</time>
      </trkpt>
      <trkpt lat="46.30376" lon="-0.62509">
        <ele>4.199219</ele>
        <time>2021-07-05T10:20:02Z</time>
      </trkpt>
      <trkpt lat="46.30379" lon="-0.62521">
        <ele>4.097656</ele>
        <time>2021-07-05T10:20:04Z</time>
      </trkpt>
      <trkpt lat="46.30374" lon="-0.62537">
        <ele>4.199219</ele>
        <time>2021-07-05T10:20:07Z</time>
      </trkpt>
      <trkpt lat="46.30363" lon="-0.62545">
        <ele>4.398438</ele>
        <time>2021-07-05T10:20:10Z</time>
      </trkpt>
      <trkpt lat="46.30351" lon="-0.62553">
        <ele>4.597656</ele>
        <time>2021-07-05T10:20:13Z</time>
      </trkpt>
      <trkpt lat="46.30241" lon="-0.62625">
        <ele>6</ele>
        <time>2021-07-05T10:20:39Z</time>
      </trkpt>
      <trkpt lat="46.3013" lon="-0.62699">
        <ele>5.398438</ele>
        <time>2021-07-05T10:21:01Z</time>
      </trkpt>
      <trkpt lat="46.30076" lon="-0.6273">
        <ele>7</ele>
        <time>2021-07-05T10:21:15Z</time>
      </trkpt>
      <trkpt lat="46.30066" lon="-0.62739">
        <ele>7.097656</ele>
        <time>2021-07-05T10:21:18Z</time>
      </trkpt>
      <trkpt lat="46.30061" lon="-0.62755">
        <ele>7.199219</ele>
        <time>2021-07-05T10:21:21Z</time>
      </trkpt>
      <trkpt lat="46.30063" lon="-0.62774">
        <ele>7.296875</ele>
        <time>2021-07-05T10:21:24Z</time>
      </trkpt>
      <trkpt lat="46.30067" lon="-0.62814">
        <ele>7.097656</ele>
        <time>2021-07-05T10:21:30Z</time>
      </trkpt>
      <trkpt lat="46.30073" lon="-0.62857">
        <ele>9.597656</ele>
        <time>2021-07-05T10:22:10Z</time>
      </trkpt>
      <trkpt lat="46.30088" lon="-0.6297">
        <ele>4.898438</ele>
        <time>2021-07-05T10:22:31Z</time>
      </trkpt>
      <trkpt lat="46.3009" lon="-0.62998">
        <ele>5.199219</ele>
        <time>2021-07-05T10:22:35Z</time>
      </trkpt>
      <trkpt lat="46.30092" lon="-0.63012">
        <ele>5.398438</ele>
        <time>2021-07-05T10:22:37Z</time>
      </trkpt>
      <trkpt lat="46.30096" lon="-0.6304">
        <ele>5.898438</ele>
        <time>2021-07-05T10:22:41Z</time>
      </trkpt>
      <trkpt lat="46.30096" lon="-0.63058">
        <ele>5.699219</ele>
        <time>2021-07-05T10:22:44Z</time>
      </trkpt>
      <trkpt lat="46.30093" lon="-0.63077">
        <ele>5.699219</ele>
        <time>2021-07-05T10:22:47Z</time>
      </trkpt>
      <trkpt lat="46.30089" lon="-0.63088">
        <ele>6</ele>
        <time>2021-07-05T10:22:49Z</time>
      </trkpt>
      <trkpt lat="46.30083" lon="-0.63099">
        <ele>6.398438</ele>
        <time>2021-07-05T10:22:51Z</time>
      </trkpt>
      <trkpt lat="46.30062" lon="-0.6314">
        <ele>7.5</ele>
        <time>2021-07-05T10:22:59Z</time>
      </trkpt>
      <trkpt lat="46.30055" lon="-0.63158">
        <ele>7.898438</ele>
        <time>2021-07-05T10:23:02Z</time>
      </trkpt>
      <trkpt lat="46.30033" lon="-0.63231">
        <ele>10.097656</ele>
        <time>2021-07-05T10:23:14Z</time>
      </trkpt>
      <trkpt lat="46.29986" lon="-0.63409">
        <ele>17.699219</ele>
        <time>2021-07-05T10:23:44Z</time>
      </trkpt>
      <trkpt lat="46.29983" lon="-0.63423">
        <ele>17.898438</ele>
        <time>2021-07-05T10:23:46Z</time>
      </trkpt>
      <trkpt lat="46.2998" lon="-0.63453">
        <ele>18.199219</ele>
        <time>2021-07-05T10:23:50Z</time>
      </trkpt>
      <trkpt lat="46.29968" lon="-0.63559">
        <ele>18</ele>
        <time>2021-07-05T10:24:04Z</time>
      </trkpt>
      <trkpt lat="46.29965" lon="-0.63573">
        <ele>17.898438</ele>
        <time>2021-07-05T10:24:06Z</time>
      </trkpt>
      <trkpt lat="46.29961" lon="-0.63587">
        <ele>17.898438</ele>
        <time>2021-07-05T10:24:08Z</time>
      </trkpt>
      <trkpt lat="46.29957" lon="-0.63599">
        <ele>18</ele>
        <time>2021-07-05T10:24:11Z</time>
      </trkpt>
      <trkpt lat="46.29952" lon="-0.63611">
        <ele>17.796875</ele>
        <time>2021-07-05T10:24:16Z</time>
      </trkpt>
      <trkpt lat="46.29943" lon="-0.63618">
        <ele>17.398438</ele>
        <time>2021-07-05T10:24:21Z</time>
      </trkpt>
      <trkpt lat="46.29953" lon="-0.63615">
        <ele>16.796875</ele>
        <time>2021-07-05T10:24:30Z</time>
      </trkpt>
      <trkpt lat="46.29963" lon="-0.63617">
        <ele>16.5</ele>
        <time>2021-07-05T10:24:33Z</time>
      </trkpt>
      <trkpt lat="46.29975" lon="-0.63617">
        <ele>16.5</ele>
        <time>2021-07-05T10:24:36Z</time>
      </trkpt>
      <trkpt lat="46.30029" lon="-0.63619">
        <ele>15</ele>
        <time>2021-07-05T10:24:48Z</time>
      </trkpt>
      <trkpt lat="46.30039" lon="-0.6362">
        <ele>14.597656</ele>
        <time>2021-07-05T10:24:50Z</time>
      </trkpt>
      <trkpt lat="46.30049" lon="-0.63624">
        <ele>14.199219</ele>
        <time>2021-07-05T10:24:52Z</time>
      </trkpt>
      <trkpt lat="46.30058" lon="-0.6363">
        <ele>13.898438</ele>
        <time>2021-07-05T10:24:54Z</time>
      </trkpt>
      <trkpt lat="46.30078" lon="-0.63644">
        <ele>13.199219</ele>
        <time>2021-07-05T10:24:58Z</time>
      </trkpt>
      <trkpt lat="46.30089" lon="-0.6365">
        <ele>12.898438</ele>
        <time>2021-07-05T10:25:00Z</time>
      </trkpt>
      <trkpt lat="46.30101" lon="-0.63653">
        <ele>12.699219</ele>
        <time>2021-07-05T10:25:02Z</time>
      </trkpt>
      <trkpt lat="46.30112" lon="-0.63654">
        <ele>12.5</ele>
        <time>2021-07-05T10:25:04Z</time>
      </trkpt>
      <trkpt lat="46.30136" lon="-0.63656">
        <ele>12.398438</ele>
        <time>2021-07-05T10:25:08Z</time>
      </trkpt>
      <trkpt lat="46.30148" lon="-0.63655">
        <ele>12.398438</ele>
        <time>2021-07-05T10:25:10Z</time>
      </trkpt>
      <trkpt lat="46.3016" lon="-0.63653">
        <ele>12.199219</ele>
        <time>2021-07-05T10:25:12Z</time>
      </trkpt>
      <trkpt lat="46.30172" lon="-0.6365">
        <ele>12.398438</ele>
        <time>2021-07-05T10:25:14Z</time>
      </trkpt>
      <trkpt lat="46.30183" lon="-0.63645">
        <ele>12.398438</ele>
        <time>2021-07-05T10:25:16Z</time>
      </trkpt>
      <trkpt lat="46.30309" lon="-0.63582">
        <ele>8.898438</ele>
        <time>2021-07-05T10:25:38Z</time>
      </trkpt>
      <trkpt lat="46.30389" lon="-0.6353">
        <ele>2.199219</ele>
        <time>2021-07-05T10:25:52Z</time>
      </trkpt>
      <trkpt lat="46.304" lon="-0.6353">
        <ele>1.796875</ele>
        <time>2021-07-05T10:25:54Z</time>
      </trkpt>
      <trkpt lat="46.30408" lon="-0.63538">
        <ele>1.296875</ele>
        <time>2021-07-05T10:25:56Z</time>
      </trkpt>
      <trkpt lat="46.30413" lon="-0.6355">
        <ele>1.199219</ele>
        <time>2021-07-05T10:25:58Z</time>
      </trkpt>
      <trkpt lat="46.30418" lon="-0.63563">
        <ele>1.097656</ele>
        <time>2021-07-05T10:26:00Z</time>
      </trkpt>
      <trkpt lat="46.30427" lon="-0.63589">
        <ele>0.898438</ele>
        <time>2021-07-05T10:26:04Z</time>
      </trkpt>
      <trkpt lat="46.30434" lon="-0.63601">
        <ele>1.097656</ele>
        <time>2021-07-05T10:26:06Z</time>
      </trkpt>
      <trkpt lat="46.30443" lon="-0.63605">
        <ele>0.199219</ele>
        <time>2021-07-05T10:26:08Z</time>
      </trkpt>
      <trkpt lat="46.30456" lon="-0.63599">
        <ele>-0.199219</ele>
        <time>2021-07-05T10:26:11Z</time>
      </trkpt>
      <trkpt lat="46.30533" lon="-0.6355">
        <ele>0.097656</ele>
        <time>2021-07-05T10:26:27Z</time>
      </trkpt>
      <trkpt lat="46.30594" lon="-0.63508">
        <ele>-2.5</ele>
        <time>2021-07-05T10:26:41Z</time>
      </trkpt>
      <trkpt lat="46.30604" lon="-0.63506">
        <ele>-0.796875</ele>
        <time>2021-07-05T10:26:44Z</time>
      </trkpt>
      <trkpt lat="46.30612" lon="-0.63515">
        <ele>2.199219</ele>
        <time>2021-07-05T10:26:47Z</time>
      </trkpt>
      <trkpt lat="46.30619" lon="-0.63529">
        <ele>5.199219</ele>
        <time>2021-07-05T10:26:50Z</time>
      </trkpt>
      <trkpt lat="46.30627" lon="-0.63543">
        <ele>7.199219</ele>
        <time>2021-07-05T10:26:53Z</time>
      </trkpt>
      <trkpt lat="46.30631" lon="-0.63555">
        <ele>8.597656</ele>
        <time>2021-07-05T10:26:55Z</time>
      </trkpt>
      <trkpt lat="46.30708" lon="-0.6376">
        <ele>4.398438</ele>
        <time>2021-07-05T10:27:25Z</time>
      </trkpt>
      <trkpt lat="46.30723" lon="-0.63805">
        <ele>4.796875</ele>
        <time>2021-07-05T10:27:31Z</time>
      </trkpt>
      <trkpt lat="46.30748" lon="-0.63877">
        <ele>5.699219</ele>
        <time>2021-07-05T10:27:43Z</time>
      </trkpt>
      <trkpt lat="46.30755" lon="-0.63889">
        <ele>6.5</ele>
        <time>2021-07-05T10:27:46Z</time>
      </trkpt>
      <trkpt lat="46.3077" lon="-0.63919">
        <ele>6.199219</ele>
        <time>2021-07-05T10:27:52Z</time>
      </trkpt>
      <trkpt lat="46.30774" lon="-0.63932">
        <ele>6.097656</ele>
        <time>2021-07-05T10:27:54Z</time>
      </trkpt>
      <trkpt lat="46.30784" lon="-0.6396">
        <ele>5.796875</ele>
        <time>2021-07-05T10:27:58Z</time>
      </trkpt>
      <trkpt lat="46.30788" lon="-0.63974">
        <ele>5.5</ele>
        <time>2021-07-05T10:28:00Z</time>
      </trkpt>
      <trkpt lat="46.30793" lon="-0.63986">
        <ele>5.097656</ele>
        <time>2021-07-05T10:28:02Z</time>
      </trkpt>
      <trkpt lat="46.30803" lon="-0.64013">
        <ele>4.796875</ele>
        <time>2021-07-05T10:28:06Z</time>
      </trkpt>
      <trkpt lat="46.30822" lon="-0.64073">
        <ele>2.699219</ele>
        <time>2021-07-05T10:28:14Z</time>
      </trkpt>
      <trkpt lat="46.30828" lon="-0.64087">
        <ele>1.898438</ele>
        <time>2021-07-05T10:28:16Z</time>
      </trkpt>
      <trkpt lat="46.30833" lon="-0.64102">
        <ele>1.699219</ele>
        <time>2021-07-05T10:28:18Z</time>
      </trkpt>
      <trkpt lat="46.30847" lon="-0.64147">
        <ele>1.898438</ele>
        <time>2021-07-05T10:28:24Z</time>
      </trkpt>
      <trkpt lat="46.30853" lon="-0.64161">
        <ele>2.199219</ele>
        <time>2021-07-05T10:28:26Z</time>
      </trkpt>
      <trkpt lat="46.30861" lon="-0.64172">
        <ele>2.398438</ele>
        <time>2021-07-05T10:28:28Z</time>
      </trkpt>
      <trkpt lat="46.30869" lon="-0.6418">
        <ele>2.597656</ele>
        <time>2021-07-05T10:28:30Z</time>
      </trkpt>
      <trkpt lat="46.30887" lon="-0.64196">
        <ele>3.5</ele>
        <time>2021-07-05T10:28:34Z</time>
      </trkpt>
      <trkpt lat="46.30896" lon="-0.64201">
        <ele>3.398438</ele>
        <time>2021-07-05T10:28:37Z</time>
      </trkpt>
      <trkpt lat="46.30913" lon="-0.64214">
        <ele>3.199219</ele>
        <time>2021-07-05T10:28:44Z</time>
      </trkpt>
      <trkpt lat="46.30982" lon="-0.64259">
        <ele>4.398438</ele>
        <time>2021-07-05T10:29:01Z</time>
      </trkpt>
      <trkpt lat="46.30985" lon="-0.64274">
        <ele>4.699219</ele>
        <time>2021-07-05T10:29:04Z</time>
      </trkpt>
      <trkpt lat="46.3098" lon="-0.64289">
        <ele>4.699219</ele>
        <time>2021-07-05T10:29:07Z</time>
      </trkpt>
      <trkpt lat="46.30975" lon="-0.643">
        <ele>4.597656</ele>
        <time>2021-07-05T10:29:09Z</time>
      </trkpt>
      <trkpt lat="46.30965" lon="-0.64323">
        <ele>4.597656</ele>
        <time>2021-07-05T10:29:13Z</time>
      </trkpt>
      <trkpt lat="46.30961" lon="-0.64339">
        <ele>4.699219</ele>
        <time>2021-07-05T10:29:16Z</time>
      </trkpt>
      <trkpt lat="46.30952" lon="-0.64348">
        <ele>4.597656</ele>
        <time>2021-07-05T10:29:20Z</time>
      </trkpt>
      <trkpt lat="46.30946" lon="-0.6436">
        <ele>4.597656</ele>
        <time>2021-07-05T10:29:23Z</time>
      </trkpt>
      <trkpt lat="46.30939" lon="-0.64373">
        <ele>5</ele>
        <time>2021-07-05T10:29:26Z</time>
      </trkpt>
      <trkpt lat="46.3093" lon="-0.64384">
        <ele>5.398438</ele>
        <time>2021-07-05T10:29:29Z</time>
      </trkpt>
      <trkpt lat="46.30921" lon="-0.64392">
        <ele>5.597656</ele>
        <time>2021-07-05T10:29:32Z</time>
      </trkpt>
      <trkpt lat="46.30911" lon="-0.64399">
        <ele>6</ele>
        <time>2021-07-05T10:29:35Z</time>
      </trkpt>
      <trkpt lat="46.30889" lon="-0.64413">
        <ele>6.699219</ele>
        <time>2021-07-05T10:29:41Z</time>
      </trkpt>
      <trkpt lat="46.3088" lon="-0.64423">
        <ele>7</ele>
        <time>2021-07-05T10:29:44Z</time>
      </trkpt>
      <trkpt lat="46.30868" lon="-0.6443">
        <ele>7.5</ele>
        <time>2021-07-05T10:29:47Z</time>
      </trkpt>
      <trkpt lat="46.30858" lon="-0.64438">
        <ele>7.796875</ele>
        <time>2021-07-05T10:29:50Z</time>
      </trkpt>
      <trkpt lat="46.30849" lon="-0.64444">
        <ele>8.296875</ele>
        <time>2021-07-05T10:29:53Z</time>
      </trkpt>
      <trkpt lat="46.30838" lon="-0.6445">
        <ele>8.699219</ele>
        <time>2021-07-05T10:29:57Z</time>
      </trkpt>
      <trkpt lat="46.30835" lon="-0.64464">
        <ele>8.898438</ele>
        <time>2021-07-05T10:30:08Z</time>
      </trkpt>
      <trkpt lat="46.30835" lon="-0.64479">
        <ele>9.398438</ele>
        <time>2021-07-05T10:30:11Z</time>
      </trkpt>
      <trkpt lat="46.30838" lon="-0.64493">
        <ele>9.898438</ele>
        <time>2021-07-05T10:30:14Z</time>
      </trkpt>
      <trkpt lat="46.30844" lon="-0.6452">
        <ele>10.5</ele>
        <time>2021-07-05T10:30:20Z</time>
      </trkpt>
      <trkpt lat="46.30862" lon="-0.64596">
        <ele>10.796875</ele>
        <time>2021-07-05T10:30:33Z</time>
      </trkpt>
      <trkpt lat="46.30875" lon="-0.64683">
        <ele>7</ele>
        <time>2021-07-05T10:30:47Z</time>
      </trkpt>
      <trkpt lat="46.30871" lon="-0.64695">
        <ele>6.597656</ele>
        <time>2021-07-05T10:30:50Z</time>
      </trkpt>
      <trkpt lat="46.30863" lon="-0.64706">
        <ele>7.296875</ele>
        <time>2021-07-05T10:30:53Z</time>
      </trkpt>
      <trkpt lat="46.30831" lon="-0.6475">
        <ele>11.5</ele>
        <time>2021-07-05T10:31:03Z</time>
      </trkpt>
      <trkpt lat="46.30804" lon="-0.64788">
        <ele>13.898438</ele>
        <time>2021-07-05T10:31:11Z</time>
      </trkpt>
      <trkpt lat="46.30793" lon="-0.64798">
        <ele>14</ele>
        <time>2021-07-05T10:31:14Z</time>
      </trkpt>
      <trkpt lat="46.3079" lon="-0.64816">
        <ele>15.199219</ele>
        <time>2021-07-05T10:31:17Z</time>
      </trkpt>
      <trkpt lat="46.30787" lon="-0.64833">
        <ele>16.097656</ele>
        <time>2021-07-05T10:31:20Z</time>
      </trkpt>
      <trkpt lat="46.30785" lon="-0.64851">
        <ele>16.199219</ele>
        <time>2021-07-05T10:31:23Z</time>
      </trkpt>
      <trkpt lat="46.30782" lon="-0.64869">
        <ele>16.097656</ele>
        <time>2021-07-05T10:31:26Z</time>
      </trkpt>
      <trkpt lat="46.3078" lon="-0.64887">
        <ele>16.097656</ele>
        <time>2021-07-05T10:31:29Z</time>
      </trkpt>
      <trkpt lat="46.30779" lon="-0.64906">
        <ele>15.796875</ele>
        <time>2021-07-05T10:31:32Z</time>
      </trkpt>
      <trkpt lat="46.30783" lon="-0.65031">
        <ele>12.699219</ele>
        <time>2021-07-05T10:31:50Z</time>
      </trkpt>
      <trkpt lat="46.30784" lon="-0.65045">
        <ele>12</ele>
        <time>2021-07-05T10:31:52Z</time>
      </trkpt>
      <trkpt lat="46.30787" lon="-0.65059">
        <ele>11.296875</ele>
        <time>2021-07-05T10:31:54Z</time>
      </trkpt>
      <trkpt lat="46.30795" lon="-0.65085">
        <ele>9</ele>
        <time>2021-07-05T10:31:58Z</time>
      </trkpt>
      <trkpt lat="46.30811" lon="-0.65153">
        <ele>7</ele>
        <time>2021-07-05T10:32:08Z</time>
      </trkpt>
      <trkpt lat="46.30812" lon="-0.65166">
        <ele>7.5</ele>
        <time>2021-07-05T10:32:10Z</time>
      </trkpt>
      <trkpt lat="46.30809" lon="-0.65184">
        <ele>8.199219</ele>
        <time>2021-07-05T10:32:13Z</time>
      </trkpt>
      <trkpt lat="46.30803" lon="-0.652">
        <ele>9</ele>
        <time>2021-07-05T10:32:16Z</time>
      </trkpt>
      <trkpt lat="46.30785" lon="-0.6524">
        <ele>13</ele>
        <time>2021-07-05T10:32:25Z</time>
      </trkpt>
      <trkpt lat="46.30774" lon="-0.65268">
        <ele>14.597656</ele>
        <time>2021-07-05T10:32:31Z</time>
      </trkpt>
      <trkpt lat="46.30769" lon="-0.65283">
        <ele>14.5</ele>
        <time>2021-07-05T10:32:34Z</time>
      </trkpt>
      <trkpt lat="46.30769" lon="-0.653">
        <ele>14.5</ele>
        <time>2021-07-05T10:32:37Z</time>
      </trkpt>
      <trkpt lat="46.30772" lon="-0.65317">
        <ele>14.5</ele>
        <time>2021-07-05T10:32:40Z</time>
      </trkpt>
      <trkpt lat="46.30776" lon="-0.65335">
        <ele>14.5</ele>
        <time>2021-07-05T10:32:43Z</time>
      </trkpt>
      <trkpt lat="46.30804" lon="-0.65463">
        <ele>12.296875</ele>
        <time>2021-07-05T10:33:03Z</time>
      </trkpt>
      <trkpt lat="46.30806" lon="-0.65477">
        <ele>12.296875</ele>
        <time>2021-07-05T10:33:05Z</time>
      </trkpt>
      <trkpt lat="46.30808" lon="-0.65492">
        <ele>12.199219</ele>
        <time>2021-07-05T10:33:07Z</time>
      </trkpt>
      <trkpt lat="46.30809" lon="-0.65524">
        <ele>12.398438</ele>
        <time>2021-07-05T10:33:11Z</time>
      </trkpt>
      <trkpt lat="46.30809" lon="-0.65541">
        <ele>12.597656</ele>
        <time>2021-07-05T10:33:13Z</time>
      </trkpt>
      <trkpt lat="46.30801" lon="-0.65673">
        <ele>11.597656</ele>
        <time>2021-07-05T10:33:29Z</time>
      </trkpt>
      <trkpt lat="46.30799" lon="-0.6569">
        <ele>11.199219</ele>
        <time>2021-07-05T10:33:31Z</time>
      </trkpt>
      <trkpt lat="46.30796" lon="-0.65707">
        <ele>10.699219</ele>
        <time>2021-07-05T10:33:33Z</time>
      </trkpt>
      <trkpt lat="46.30793" lon="-0.65724">
        <ele>10</ele>
        <time>2021-07-05T10:33:35Z</time>
      </trkpt>
      <trkpt lat="46.30791" lon="-0.65742">
        <ele>8.796875</ele>
        <time>2021-07-05T10:33:37Z</time>
      </trkpt>
      <trkpt lat="46.30792" lon="-0.65761">
        <ele>7.796875</ele>
        <time>2021-07-05T10:33:39Z</time>
      </trkpt>
      <trkpt lat="46.30798" lon="-0.65779">
        <ele>6.699219</ele>
        <time>2021-07-05T10:33:41Z</time>
      </trkpt>
      <trkpt lat="46.30806" lon="-0.65796">
        <ele>5.699219</ele>
        <time>2021-07-05T10:33:43Z</time>
      </trkpt>
      <trkpt lat="46.30822" lon="-0.65832">
        <ele>3.898438</ele>
        <time>2021-07-05T10:33:47Z</time>
      </trkpt>
      <trkpt lat="46.30828" lon="-0.65852">
        <ele>3.199219</ele>
        <time>2021-07-05T10:33:49Z</time>
      </trkpt>
      <trkpt lat="46.30833" lon="-0.65872">
        <ele>2.597656</ele>
        <time>2021-07-05T10:33:51Z</time>
      </trkpt>
      <trkpt lat="46.30836" lon="-0.65894">
        <ele>2.296875</ele>
        <time>2021-07-05T10:33:53Z</time>
      </trkpt>
      <trkpt lat="46.3084" lon="-0.65934">
        <ele>3</ele>
        <time>2021-07-05T10:33:57Z</time>
      </trkpt>
      <trkpt lat="46.30873" lon="-0.66258">
        <ele>8</ele>
        <time>2021-07-05T10:34:37Z</time>
      </trkpt>
      <trkpt lat="46.30878" lon="-0.66273">
        <ele>8.199219</ele>
        <time>2021-07-05T10:34:39Z</time>
      </trkpt>
      <trkpt lat="46.30885" lon="-0.66285">
        <ele>8.699219</ele>
        <time>2021-07-05T10:34:41Z</time>
      </trkpt>
      <trkpt lat="46.30893" lon="-0.66292">
        <ele>8.796875</ele>
        <time>2021-07-05T10:34:43Z</time>
      </trkpt>
      <trkpt lat="46.30905" lon="-0.66299">
        <ele>8.097656</ele>
        <time>2021-07-05T10:34:46Z</time>
      </trkpt>
      <trkpt lat="46.31158" lon="-0.6645">
        <ele>4.796875</ele>
        <time>2021-07-05T10:35:32Z</time>
      </trkpt>
      <trkpt lat="46.31167" lon="-0.66459">
        <ele>3.796875</ele>
        <time>2021-07-05T10:35:35Z</time>
      </trkpt>
      <trkpt lat="46.31166" lon="-0.66475">
        <ele>3.398438</ele>
        <time>2021-07-05T10:35:40Z</time>
      </trkpt>
      <trkpt lat="46.31163" lon="-0.66489">
        <ele>3.296875</ele>
        <time>2021-07-05T10:35:43Z</time>
      </trkpt>
      <trkpt lat="46.3115" lon="-0.66537">
        <ele>4.097656</ele>
        <time>2021-07-05T10:35:51Z</time>
      </trkpt>
      <trkpt lat="46.31078" lon="-0.66793">
        <ele>6.5</ele>
        <time>2021-07-05T10:36:27Z</time>
      </trkpt>
      <trkpt lat="46.31074" lon="-0.66807">
        <ele>6.5</ele>
        <time>2021-07-05T10:36:29Z</time>
      </trkpt>
      <trkpt lat="46.31036" lon="-0.66933">
        <ele>4.796875</ele>
        <time>2021-07-05T10:36:47Z</time>
      </trkpt>
      <trkpt lat="46.31026" lon="-0.6694">
        <ele>3</ele>
        <time>2021-07-05T10:36:50Z</time>
      </trkpt>
      <trkpt lat="46.31014" lon="-0.66935">
        <ele>1.898438</ele>
        <time>2021-07-05T10:36:53Z</time>
      </trkpt>
      <trkpt lat="46.30957" lon="-0.66906">
        <ele>-2.296875</ele>
        <time>2021-07-05T10:37:05Z</time>
      </trkpt>
      <trkpt lat="46.30843" lon="-0.66838">
        <ele>1.398438</ele>
        <time>2021-07-05T10:37:27Z</time>
      </trkpt>
      <trkpt lat="46.30833" lon="-0.66834">
        <ele>1.5</ele>
        <time>2021-07-05T10:37:29Z</time>
      </trkpt>
      <trkpt lat="46.30822" lon="-0.66837">
        <ele>1.296875</ele>
        <time>2021-07-05T10:37:31Z</time>
      </trkpt>
      <trkpt lat="46.30812" lon="-0.66841">
        <ele>1.296875</ele>
        <time>2021-07-05T10:37:33Z</time>
      </trkpt>
      <trkpt lat="46.30802" lon="-0.66841">
        <ele>1.296875</ele>
        <time>2021-07-05T10:37:35Z</time>
      </trkpt>
      <trkpt lat="46.30791" lon="-0.66837">
        <ele>0.796875</ele>
        <time>2021-07-05T10:37:37Z</time>
      </trkpt>
      <trkpt lat="46.30781" lon="-0.66832">
        <ele>0.398438</ele>
        <time>2021-07-05T10:37:39Z</time>
      </trkpt>
      <trkpt lat="46.30771" lon="-0.66825">
        <ele>0.199219</ele>
        <time>2021-07-05T10:37:41Z</time>
      </trkpt>
      <trkpt lat="46.30761" lon="-0.66817">
        <ele>0.199219</ele>
        <time>2021-07-05T10:37:43Z</time>
      </trkpt>
      <trkpt lat="46.30631" lon="-0.66702">
        <ele>-9.898438</ele>
        <time>2021-07-05T10:38:13Z</time>
      </trkpt>
      <trkpt lat="46.3062" lon="-0.66696">
        <ele>-9.597656</ele>
        <time>2021-07-05T10:38:16Z</time>
      </trkpt>
      <trkpt lat="46.30612" lon="-0.66704">
        <ele>-8.296875</ele>
        <time>2021-07-05T10:38:19Z</time>
      </trkpt>
      <trkpt lat="46.30609" lon="-0.66718">
        <ele>-6.597656</ele>
        <time>2021-07-05T10:38:22Z</time>
      </trkpt>
      <trkpt lat="46.30607" lon="-0.66732">
        <ele>-4.296875</ele>
        <time>2021-07-05T10:38:25Z</time>
      </trkpt>
      <trkpt lat="46.30603" lon="-0.6675">
        <ele>-2.898438</ele>
        <time>2021-07-05T10:38:28Z</time>
      </trkpt>
      <trkpt lat="46.30598" lon="-0.66767">
        <ele>-2.296875</ele>
        <time>2021-07-05T10:38:31Z</time>
      </trkpt>
      <trkpt lat="46.30593" lon="-0.66783">
        <ele>-2.199219</ele>
        <time>2021-07-05T10:38:34Z</time>
      </trkpt>
      <trkpt lat="46.30559" lon="-0.66875">
        <ele>1.296875</ele>
        <time>2021-07-05T10:38:48Z</time>
      </trkpt>
      <trkpt lat="46.30511" lon="-0.67061">
        <ele>10.5</ele>
        <time>2021-07-05T10:39:15Z</time>
      </trkpt>
      <trkpt lat="46.30503" lon="-0.67073">
        <ele>8.796875</ele>
        <time>2021-07-05T10:39:18Z</time>
      </trkpt>
      <trkpt lat="46.30492" lon="-0.67073">
        <ele>5.898438</ele>
        <time>2021-07-05T10:39:21Z</time>
      </trkpt>
      <trkpt lat="46.30481" lon="-0.67068">
        <ele>2.898438</ele>
        <time>2021-07-05T10:39:24Z</time>
      </trkpt>
      <trkpt lat="46.30432" lon="-0.67044">
        <ele>-6.898438</ele>
        <time>2021-07-05T10:39:35Z</time>
      </trkpt>
      <trkpt lat="46.30346" lon="-0.66991">
        <ele>-9.097656</ele>
        <time>2021-07-05T10:39:53Z</time>
      </trkpt>
      <trkpt lat="46.30288" lon="-0.66954">
        <ele>-9</ele>
        <time>2021-07-05T10:40:05Z</time>
      </trkpt>
      <trkpt lat="46.30279" lon="-0.66951">
        <ele>-8.699219</ele>
        <time>2021-07-05T10:40:08Z</time>
      </trkpt>
      <trkpt lat="46.30271" lon="-0.66963">
        <ele>-6.898438</ele>
        <time>2021-07-05T10:40:13Z</time>
      </trkpt>
      <trkpt lat="46.30267" lon="-0.66978">
        <ele>-4.699219</ele>
        <time>2021-07-05T10:40:17Z</time>
      </trkpt>
      <trkpt lat="46.30246" lon="-0.67052">
        <ele>4.097656</ele>
        <time>2021-07-05T10:40:30Z</time>
      </trkpt>
      <trkpt lat="46.30242" lon="-0.67065">
        <ele>4.699219</ele>
        <time>2021-07-05T10:40:34Z</time>
      </trkpt>
      <trkpt lat="46.30233" lon="-0.67069">
        <ele>18.097656</ele>
        <time>2021-07-05T10:40:38Z</time>
      </trkpt>
      <trkpt lat="46.30215" lon="-0.67073">
        <ele>16.597656</ele>
        <time>2021-07-05T10:52:57Z</time>
      </trkpt>
      <trkpt lat="46.30209" lon="-0.67086">
        <ele>14.398438</ele>
        <time>2021-07-05T10:53:08Z</time>
      </trkpt>
      <trkpt lat="46.3019" lon="-0.67137">
        <ele>5.097656</ele>
        <time>2021-07-05T10:53:46Z</time>
      </trkpt>
      <trkpt lat="46.30182" lon="-0.67164">
        <ele>6.5</ele>
        <time>2021-07-05T10:54:02Z</time>
      </trkpt>
      <trkpt lat="46.30149" lon="-0.67289">
        <ele>8.296875</ele>
        <time>2021-07-05T10:54:40Z</time>
      </trkpt>
      <trkpt lat="46.30148" lon="-0.67305">
        <ele>9.398438</ele>
        <time>2021-07-05T10:54:44Z</time>
      </trkpt>
      <trkpt lat="46.30144" lon="-0.67322">
        <ele>10.398438</ele>
        <time>2021-07-05T10:54:48Z</time>
      </trkpt>
      <trkpt lat="46.3014" lon="-0.67337">
        <ele>11.398438</ele>
        <time>2021-07-05T10:54:51Z</time>
      </trkpt>
      <trkpt lat="46.30112" lon="-0.67435">
        <ele>17</ele>
        <time>2021-07-05T10:55:09Z</time>
      </trkpt>
      <trkpt lat="46.30071" lon="-0.67583">
        <ele>10.699219</ele>
        <time>2021-07-05T10:55:36Z</time>
      </trkpt>
      <trkpt lat="46.30064" lon="-0.67592">
        <ele>10.296875</ele>
        <time>2021-07-05T10:55:40Z</time>
      </trkpt>
      <trkpt lat="46.30052" lon="-0.67598">
        <ele>10</ele>
        <time>2021-07-05T10:55:44Z</time>
      </trkpt>
      <trkpt lat="46.30042" lon="-0.67601">
        <ele>9.5</ele>
        <time>2021-07-05T10:55:47Z</time>
      </trkpt>
      <trkpt lat="46.29948" lon="-0.6763">
        <ele>6.699219</ele>
        <time>2021-07-05T10:56:14Z</time>
      </trkpt>
      <trkpt lat="46.29939" lon="-0.67635">
        <ele>16.5</ele>
        <time>2021-07-05T10:56:18Z</time>
      </trkpt>
      <trkpt lat="46.29935" lon="-0.67649">
        <ele>16.597656</ele>
        <time>2021-07-05T10:58:26Z</time>
      </trkpt>
      <trkpt lat="46.29938" lon="-0.67663">
        <ele>14.898438</ele>
        <time>2021-07-05T10:58:31Z</time>
      </trkpt>
      <trkpt lat="46.29973" lon="-0.67825">
        <ele>12.296875</ele>
        <time>2021-07-05T10:58:58Z</time>
      </trkpt>
      <trkpt lat="46.29981" lon="-0.67853">
        <ele>12.398438</ele>
        <time>2021-07-05T10:59:02Z</time>
      </trkpt>
      <trkpt lat="46.30002" lon="-0.67919">
        <ele>12.898438</ele>
        <time>2021-07-05T10:59:12Z</time>
      </trkpt>
      <trkpt lat="46.30006" lon="-0.67932">
        <ele>13.597656</ele>
        <time>2021-07-05T10:59:14Z</time>
      </trkpt>
      <trkpt lat="46.30013" lon="-0.67973">
        <ele>13.898438</ele>
        <time>2021-07-05T10:59:20Z</time>
      </trkpt>
      <trkpt lat="46.30051" lon="-0.68193">
        <ele>7.097656</ele>
        <time>2021-07-05T10:59:50Z</time>
      </trkpt>
      <trkpt lat="46.30063" lon="-0.68246">
        <ele>1</ele>
        <time>2021-07-05T10:59:58Z</time>
      </trkpt>
      <trkpt lat="46.30079" lon="-0.68314">
        <ele>-0.699219</ele>
        <time>2021-07-05T11:00:08Z</time>
      </trkpt>
      <trkpt lat="46.30103" lon="-0.68424">
        <ele>2.699219</ele>
        <time>2021-07-05T11:00:24Z</time>
      </trkpt>
      <trkpt lat="46.30104" lon="-0.68438">
        <ele>3.199219</ele>
        <time>2021-07-05T11:00:26Z</time>
      </trkpt>
      <trkpt lat="46.30104" lon="-0.68452">
        <ele>3.699219</ele>
        <time>2021-07-05T11:00:28Z</time>
      </trkpt>
      <trkpt lat="46.30107" lon="-0.68483">
        <ele>3.898438</ele>
        <time>2021-07-05T11:00:33Z</time>
      </trkpt>
      <trkpt lat="46.30106" lon="-0.68496">
        <ele>4.398438</ele>
        <time>2021-07-05T11:00:35Z</time>
      </trkpt>
      <trkpt lat="46.301" lon="-0.68512">
        <ele>5.398438</ele>
        <time>2021-07-05T11:00:38Z</time>
      </trkpt>
      <trkpt lat="46.30089" lon="-0.68517">
        <ele>6.296875</ele>
        <time>2021-07-05T11:00:41Z</time>
      </trkpt>
      <trkpt lat="46.30079" lon="-0.68521">
        <ele>7.199219</ele>
        <time>2021-07-05T11:00:44Z</time>
      </trkpt>
      <trkpt lat="46.30072" lon="-0.68532">
        <ele>7.796875</ele>
        <time>2021-07-05T11:00:47Z</time>
      </trkpt>
      <trkpt lat="46.3007" lon="-0.68546">
        <ele>8.296875</ele>
        <time>2021-07-05T11:00:50Z</time>
      </trkpt>
      <trkpt lat="46.3007" lon="-0.68562">
        <ele>8.597656</ele>
        <time>2021-07-05T11:00:53Z</time>
      </trkpt>
      <trkpt lat="46.30071" lon="-0.68628">
        <ele>8.898438</ele>
        <time>2021-07-05T11:01:05Z</time>
      </trkpt>
      <trkpt lat="46.30073" lon="-0.68644">
        <ele>9.199219</ele>
        <time>2021-07-05T11:01:08Z</time>
      </trkpt>
      <trkpt lat="46.30078" lon="-0.68711">
        <ele>11.5</ele>
        <time>2021-07-05T11:01:20Z</time>
      </trkpt>
      <trkpt lat="46.30078" lon="-0.68727">
        <ele>12.199219</ele>
        <time>2021-07-05T11:01:23Z</time>
      </trkpt>
      <trkpt lat="46.30076" lon="-0.68743">
        <ele>12.5</ele>
        <time>2021-07-05T11:01:26Z</time>
      </trkpt>
      <trkpt lat="46.30072" lon="-0.68776">
        <ele>12.398438</ele>
        <time>2021-07-05T11:01:32Z</time>
      </trkpt>
      <trkpt lat="46.30069" lon="-0.68791">
        <ele>12.5</ele>
        <time>2021-07-05T11:01:35Z</time>
      </trkpt>
      <trkpt lat="46.30064" lon="-0.68807">
        <ele>12.796875</ele>
        <time>2021-07-05T11:01:38Z</time>
      </trkpt>
      <trkpt lat="46.30059" lon="-0.68822">
        <ele>13.398438</ele>
        <time>2021-07-05T11:01:41Z</time>
      </trkpt>
      <trkpt lat="46.30053" lon="-0.68835">
        <ele>13.898438</ele>
        <time>2021-07-05T11:01:44Z</time>
      </trkpt>
      <trkpt lat="46.30046" lon="-0.68847">
        <ele>14.898438</ele>
        <time>2021-07-05T11:01:47Z</time>
      </trkpt>
      <trkpt lat="46.30031" lon="-0.68869">
        <ele>17.898438</ele>
        <time>2021-07-05T11:01:53Z</time>
      </trkpt>
      <trkpt lat="46.30022" lon="-0.68879">
        <ele>19</ele>
        <time>2021-07-05T11:01:56Z</time>
      </trkpt>
      <trkpt lat="46.29995" lon="-0.68907">
        <ele>21.199219</ele>
        <time>2021-07-05T11:02:05Z</time>
      </trkpt>
      <trkpt lat="46.29881" lon="-0.69021">
        <ele>18.699219</ele>
        <time>2021-07-05T11:02:38Z</time>
      </trkpt>
      <trkpt lat="46.29873" lon="-0.69028">
        <ele>19</ele>
        <time>2021-07-05T11:02:40Z</time>
      </trkpt>
      <trkpt lat="46.2984" lon="-0.69052">
        <ele>18.5</ele>
        <time>2021-07-05T11:02:49Z</time>
      </trkpt>
      <trkpt lat="46.29818" lon="-0.69073">
        <ele>17.296875</ele>
        <time>2021-07-05T11:02:55Z</time>
      </trkpt>
      <trkpt lat="46.29788" lon="-0.69103">
        <ele>16</ele>
        <time>2021-07-05T11:03:03Z</time>
      </trkpt>
      <trkpt lat="46.29776" lon="-0.69111">
        <ele>15.898438</ele>
        <time>2021-07-05T11:03:06Z</time>
      </trkpt>
      <trkpt lat="46.29764" lon="-0.69115">
        <ele>15.898438</ele>
        <time>2021-07-05T11:03:09Z</time>
      </trkpt>
      <trkpt lat="46.29754" lon="-0.69121">
        <ele>15.796875</ele>
        <time>2021-07-05T11:03:12Z</time>
      </trkpt>
      <trkpt lat="46.29706" lon="-0.69155">
        <ele>16</ele>
        <time>2021-07-05T11:03:28Z</time>
      </trkpt>
      <trkpt lat="46.2971" lon="-0.69169">
        <ele>15.796875</ele>
        <time>2021-07-05T11:03:34Z</time>
      </trkpt>
      <trkpt lat="46.29718" lon="-0.69177">
        <ele>15.296875</ele>
        <time>2021-07-05T11:03:37Z</time>
      </trkpt>
      <trkpt lat="46.29727" lon="-0.69189">
        <ele>14.796875</ele>
        <time>2021-07-05T11:03:40Z</time>
      </trkpt>
      <trkpt lat="46.29734" lon="-0.69198">
        <ele>14.097656</ele>
        <time>2021-07-05T11:03:42Z</time>
      </trkpt>
      <trkpt lat="46.29741" lon="-0.69209">
        <ele>13.296875</ele>
        <time>2021-07-05T11:03:44Z</time>
      </trkpt>
      <trkpt lat="46.29762" lon="-0.69246">
        <ele>11.097656</ele>
        <time>2021-07-05T11:03:50Z</time>
      </trkpt>
      <trkpt lat="46.29768" lon="-0.69261">
        <ele>10.796875</ele>
        <time>2021-07-05T11:03:52Z</time>
      </trkpt>
      <trkpt lat="46.29786" lon="-0.69305">
        <ele>10.898438</ele>
        <time>2021-07-05T11:03:58Z</time>
      </trkpt>
      <trkpt lat="46.2984" lon="-0.69411">
        <ele>8.296875</ele>
        <time>2021-07-05T11:04:16Z</time>
      </trkpt>
      <trkpt lat="46.29871" lon="-0.69471">
        <ele>6.199219</ele>
        <time>2021-07-05T11:04:27Z</time>
      </trkpt>
      <trkpt lat="46.29875" lon="-0.69485">
        <ele>5.398438</ele>
        <time>2021-07-05T11:04:30Z</time>
      </trkpt>
      <trkpt lat="46.29872" lon="-0.69499">
        <ele>5.199219</ele>
        <time>2021-07-05T11:04:33Z</time>
      </trkpt>
      <trkpt lat="46.2987" lon="-0.69512">
        <ele>5.097656</ele>
        <time>2021-07-05T11:04:36Z</time>
      </trkpt>
      <trkpt lat="46.29871" lon="-0.69527">
        <ele>5</ele>
        <time>2021-07-05T11:04:39Z</time>
      </trkpt>
      <trkpt lat="46.29878" lon="-0.69541">
        <ele>5</ele>
        <time>2021-07-05T11:04:42Z</time>
      </trkpt>
      <trkpt lat="46.29885" lon="-0.69554">
        <ele>4.898438</ele>
        <time>2021-07-05T11:04:45Z</time>
      </trkpt>
      <trkpt lat="46.29889" lon="-0.69568">
        <ele>4.898438</ele>
        <time>2021-07-05T11:04:48Z</time>
      </trkpt>
      <trkpt lat="46.29885" lon="-0.6958">
        <ele>3</ele>
        <time>2021-07-05T11:04:53Z</time>
      </trkpt>
      <trkpt lat="46.29877" lon="-0.69571">
        <ele>-1.699219</ele>
        <time>2021-07-05T11:05:00Z</time>
      </trkpt>
      <trkpt lat="46.2986" lon="-0.69554">
        <ele>0.472656</ele>
        <time>2021-07-05T11:07:35Z</time>
      </trkpt>
      <trkpt lat="46.29863" lon="-0.69548">
        <ele>11.203125</ele>
        <time>2021-07-05T11:08:21Z</time>
      </trkpt>
      <trkpt lat="46.29863" lon="-0.69549">
        <ele>11.175781</ele>
        <time>2021-07-05T11:08:40Z</time>
      </trkpt>
      <trkpt lat="46.29876" lon="-0.69591">
        <ele>5.144531</ele>
        <time>2021-07-05T14:09:20Z</time>
      </trkpt>
      <trkpt lat="46.29876" lon="-0.69575">
        <ele>11.488281</ele>
        <time>2021-07-05T14:09:53Z</time>
      </trkpt>
      <trkpt lat="46.29876" lon="-0.69575">
        <ele>11.488281</ele>
        <time>2021-07-05T14:09:53Z</time>
      </trkpt>
      <trkpt lat="46.29876" lon="-0.69576">
        <ele>9.699219</ele>
        <time>2021-07-05T14:09:42Z</time>
      </trkpt>
      <trkpt lat="46.29878" lon="-0.69561">
        <ele>8.796875</ele>
        <time>2021-07-05T14:10:11Z</time>
      </trkpt>
      <trkpt lat="46.29874" lon="-0.69547">
        <ele>8.597656</ele>
        <time>2021-07-05T14:10:16Z</time>
      </trkpt>
      <trkpt lat="46.29867" lon="-0.69518">
        <ele>8.796875</ele>
        <time>2021-07-05T14:10:24Z</time>
      </trkpt>
      <trkpt lat="46.2987" lon="-0.69505">
        <ele>5.296875</ele>
        <time>2021-07-05T14:10:29Z</time>
      </trkpt>
      <trkpt lat="46.2987" lon="-0.69489">
        <ele>5.398438</ele>
        <time>2021-07-05T14:15:08Z</time>
      </trkpt>
      <trkpt lat="46.29865" lon="-0.69477">
        <ele>4.699219</ele>
        <time>2021-07-05T14:15:12Z</time>
      </trkpt>
      <trkpt lat="46.2986" lon="-0.69462">
        <ele>4.097656</ele>
        <time>2021-07-05T14:15:16Z</time>
      </trkpt>
      <trkpt lat="46.29854" lon="-0.6945">
        <ele>4.398438</ele>
        <time>2021-07-05T14:15:20Z</time>
      </trkpt>
      <trkpt lat="46.29811" lon="-0.69364">
        <ele>5.398438</ele>
        <time>2021-07-05T14:15:44Z</time>
      </trkpt>
      <trkpt lat="46.29805" lon="-0.69354">
        <ele>5.796875</ele>
        <time>2021-07-05T14:15:48Z</time>
      </trkpt>
      <trkpt lat="46.29814" lon="-0.69359">
        <ele>5.699219</ele>
        <time>2021-07-05T14:15:58Z</time>
      </trkpt>
      <trkpt lat="46.29821" lon="-0.69373">
        <ele>5.199219</ele>
        <time>2021-07-05T14:16:02Z</time>
      </trkpt>
      <trkpt lat="46.29828" lon="-0.69387">
        <ele>4.699219</ele>
        <time>2021-07-05T14:16:05Z</time>
      </trkpt>
      <trkpt lat="46.2984" lon="-0.69416">
        <ele>2.199219</ele>
        <time>2021-07-05T14:16:11Z</time>
      </trkpt>
      <trkpt lat="46.2984" lon="-0.69431">
        <ele>1.398438</ele>
        <time>2021-07-05T14:16:15Z</time>
      </trkpt>
      <trkpt lat="46.29829" lon="-0.69436">
        <ele>1.5</ele>
        <time>2021-07-05T14:16:20Z</time>
      </trkpt>
      <trkpt lat="46.2982" lon="-0.69439">
        <ele>1.296875</ele>
        <time>2021-07-05T14:16:23Z</time>
      </trkpt>
      <trkpt lat="46.2981" lon="-0.69447">
        <ele>0.898438</ele>
        <time>2021-07-05T14:16:26Z</time>
      </trkpt>
      <trkpt lat="46.29801" lon="-0.69458">
        <ele>0.699219</ele>
        <time>2021-07-05T14:16:29Z</time>
      </trkpt>
      <trkpt lat="46.2979" lon="-0.69468">
        <ele>1.097656</ele>
        <time>2021-07-05T14:16:32Z</time>
      </trkpt>
      <trkpt lat="46.29762" lon="-0.69494">
        <ele>1.296875</ele>
        <time>2021-07-05T14:16:41Z</time>
      </trkpt>
      <trkpt lat="46.29754" lon="-0.69505">
        <ele>1.296875</ele>
        <time>2021-07-05T14:16:44Z</time>
      </trkpt>
      <trkpt lat="46.29746" lon="-0.69519">
        <ele>1.5</ele>
        <time>2021-07-05T14:16:47Z</time>
      </trkpt>
      <trkpt lat="46.2974" lon="-0.69536">
        <ele>1.699219</ele>
        <time>2021-07-05T14:16:50Z</time>
      </trkpt>
      <trkpt lat="46.29736" lon="-0.69552">
        <ele>1.898438</ele>
        <time>2021-07-05T14:16:53Z</time>
      </trkpt>
      <trkpt lat="46.29735" lon="-0.6957">
        <ele>1.796875</ele>
        <time>2021-07-05T14:16:56Z</time>
      </trkpt>
      <trkpt lat="46.29735" lon="-0.69583">
        <ele>2</ele>
        <time>2021-07-05T14:16:59Z</time>
      </trkpt>
      <trkpt lat="46.2974" lon="-0.69596">
        <ele>2.796875</ele>
        <time>2021-07-05T14:17:03Z</time>
      </trkpt>
      <trkpt lat="46.29737" lon="-0.69608">
        <ele>2.597656</ele>
        <time>2021-07-05T14:17:07Z</time>
      </trkpt>
      <trkpt lat="46.29733" lon="-0.6962">
        <ele>3.398438</ele>
        <time>2021-07-05T14:17:10Z</time>
      </trkpt>
      <trkpt lat="46.29723" lon="-0.69645">
        <ele>3.941406</ele>
        <time>2021-07-05T14:17:17Z</time>
      </trkpt>
      <trkpt lat="46.29714" lon="-0.69651">
        <ele>4.898438</ele>
        <time>2021-07-05T14:17:33Z</time>
      </trkpt>
      <trkpt lat="46.29705" lon="-0.69652">
        <ele>7.199219</ele>
        <time>2021-07-05T14:17:41Z</time>
      </trkpt>
      <trkpt lat="46.297" lon="-0.6964">
        <ele>6.398438</ele>
        <time>2021-07-05T14:18:10Z</time>
      </trkpt>
      <trkpt lat="46.2969" lon="-0.69611">
        <ele>5.199219</ele>
        <time>2021-07-05T14:18:18Z</time>
      </trkpt>
      <trkpt lat="46.29686" lon="-0.69597">
        <ele>5.097656</ele>
        <time>2021-07-05T14:18:21Z</time>
      </trkpt>
      <trkpt lat="46.2968" lon="-0.69583">
        <ele>4.699219</ele>
        <time>2021-07-05T14:18:24Z</time>
      </trkpt>
      <trkpt lat="46.29628" lon="-0.69452">
        <ele>4.796875</ele>
        <time>2021-07-05T14:18:53Z</time>
      </trkpt>
      <trkpt lat="46.2962" lon="-0.69443">
        <ele>4.097656</ele>
        <time>2021-07-05T14:18:56Z</time>
      </trkpt>
      <trkpt lat="46.2961" lon="-0.69433">
        <ele>4.097656</ele>
        <time>2021-07-05T14:18:59Z</time>
      </trkpt>
      <trkpt lat="46.29445" lon="-0.69272">
        <ele>4.796875</ele>
        <time>2021-07-05T14:19:45Z</time>
      </trkpt>
      <trkpt lat="46.29437" lon="-0.69262">
        <ele>5.5</ele>
        <time>2021-07-05T14:19:48Z</time>
      </trkpt>
      <trkpt lat="46.29431" lon="-0.69251">
        <ele>6.398438</ele>
        <time>2021-07-05T14:19:51Z</time>
      </trkpt>
      <trkpt lat="46.29425" lon="-0.69239">
        <ele>6.699219</ele>
        <time>2021-07-05T14:19:54Z</time>
      </trkpt>
      <trkpt lat="46.29409" lon="-0.69205">
        <ele>6.898438</ele>
        <time>2021-07-05T14:20:03Z</time>
      </trkpt>
      <trkpt lat="46.29405" lon="-0.69192">
        <ele>7.097656</ele>
        <time>2021-07-05T14:20:06Z</time>
      </trkpt>
      <trkpt lat="46.29402" lon="-0.69177">
        <ele>7.296875</ele>
        <time>2021-07-05T14:20:09Z</time>
      </trkpt>
      <trkpt lat="46.29398" lon="-0.69162">
        <ele>7.296875</ele>
        <time>2021-07-05T14:20:12Z</time>
      </trkpt>
      <trkpt lat="46.29395" lon="-0.69145">
        <ele>7.5</ele>
        <time>2021-07-05T14:20:15Z</time>
      </trkpt>
      <trkpt lat="46.29393" lon="-0.69128">
        <ele>7.199219</ele>
        <time>2021-07-05T14:20:18Z</time>
      </trkpt>
      <trkpt lat="46.29389" lon="-0.69092">
        <ele>6.699219</ele>
        <time>2021-07-05T14:20:24Z</time>
      </trkpt>
      <trkpt lat="46.29387" lon="-0.69079">
        <ele>7.199219</ele>
        <time>2021-07-05T14:20:29Z</time>
      </trkpt>
      <trkpt lat="46.29377" lon="-0.69075">
        <ele>7</ele>
        <time>2021-07-05T14:20:35Z</time>
      </trkpt>
      <trkpt lat="46.29368" lon="-0.69074">
        <ele>6.898438</ele>
        <time>2021-07-05T14:20:38Z</time>
      </trkpt>
      <trkpt lat="46.2914" lon="-0.69047">
        <ele>6.597656</ele>
        <time>2021-07-05T14:21:24Z</time>
      </trkpt>
      <trkpt lat="46.29067" lon="-0.69054">
        <ele>5.097656</ele>
        <time>2021-07-05T14:21:38Z</time>
      </trkpt>
      <trkpt lat="46.29055" lon="-0.69057">
        <ele>5</ele>
        <time>2021-07-05T14:21:41Z</time>
      </trkpt>
      <trkpt lat="46.29049" lon="-0.69072">
        <ele>5</ele>
        <time>2021-07-05T14:21:45Z</time>
      </trkpt>
      <trkpt lat="46.29047" lon="-0.6909">
        <ele>4.597656</ele>
        <time>2021-07-05T14:21:48Z</time>
      </trkpt>
      <trkpt lat="46.29042" lon="-0.69137">
        <ele>5.699219</ele>
        <time>2021-07-05T14:21:59Z</time>
      </trkpt>
      <trkpt lat="46.29036" lon="-0.69165">
        <ele>5.796875</ele>
        <time>2021-07-05T14:22:10Z</time>
      </trkpt>
      <trkpt lat="46.29033" lon="-0.69178">
        <ele>5.796875</ele>
        <time>2021-07-05T14:22:14Z</time>
      </trkpt>
      <trkpt lat="46.2902" lon="-0.69223">
        <ele>5.296875</ele>
        <time>2021-07-05T14:22:25Z</time>
      </trkpt>
      <trkpt lat="46.29014" lon="-0.6924">
        <ele>4.898438</ele>
        <time>2021-07-05T14:22:28Z</time>
      </trkpt>
      <trkpt lat="46.29003" lon="-0.69265">
        <ele>4</ele>
        <time>2021-07-05T14:22:32Z</time>
      </trkpt>
      <trkpt lat="46.2899" lon="-0.6929">
        <ele>3.199219</ele>
        <time>2021-07-05T14:22:36Z</time>
      </trkpt>
      <trkpt lat="46.28975" lon="-0.69316">
        <ele>3</ele>
        <time>2021-07-05T14:22:40Z</time>
      </trkpt>
      <trkpt lat="46.28966" lon="-0.69328">
        <ele>3.097656</ele>
        <time>2021-07-05T14:22:42Z</time>
      </trkpt>
      <trkpt lat="46.28948" lon="-0.6935">
        <ele>2.796875</ele>
        <time>2021-07-05T14:22:46Z</time>
      </trkpt>
      <trkpt lat="46.28939" lon="-0.69361">
        <ele>2.699219</ele>
        <time>2021-07-05T14:22:48Z</time>
      </trkpt>
      <trkpt lat="46.2892" lon="-0.69379">
        <ele>2.199219</ele>
        <time>2021-07-05T14:22:52Z</time>
      </trkpt>
      <trkpt lat="46.28911" lon="-0.69388">
        <ele>2.199219</ele>
        <time>2021-07-05T14:22:54Z</time>
      </trkpt>
      <trkpt lat="46.28901" lon="-0.69395">
        <ele>2.199219</ele>
        <time>2021-07-05T14:22:56Z</time>
      </trkpt>
      <trkpt lat="46.28846" lon="-0.69432">
        <ele>3.398438</ele>
        <time>2021-07-05T14:23:09Z</time>
      </trkpt>
      <trkpt lat="46.27848" lon="-0.70088">
        <ele>9.699219</ele>
        <time>2021-07-05T14:27:45Z</time>
      </trkpt>
      <trkpt lat="46.27838" lon="-0.70096">
        <ele>9.398438</ele>
        <time>2021-07-05T14:27:48Z</time>
      </trkpt>
      <trkpt lat="46.27826" lon="-0.70103">
        <ele>9</ele>
        <time>2021-07-05T14:27:51Z</time>
      </trkpt>
      <trkpt lat="46.27483" lon="-0.70328">
        <ele>7.296875</ele>
        <time>2021-07-05T14:29:16Z</time>
      </trkpt>
      <trkpt lat="46.27492" lon="-0.70319">
        <ele>7</ele>
        <time>2021-07-05T14:29:57Z</time>
      </trkpt>
      <trkpt lat="46.27502" lon="-0.70312">
        <ele>6.699219</ele>
        <time>2021-07-05T14:30:01Z</time>
      </trkpt>
      <trkpt lat="46.28463" lon="-0.69675">
        <ele>2.296875</ele>
        <time>2021-07-05T14:34:31Z</time>
      </trkpt>
      <trkpt lat="46.28471" lon="-0.69666">
        <ele>5.296875</ele>
        <time>2021-07-05T14:34:36Z</time>
      </trkpt>
      <trkpt lat="46.28467" lon="-0.69653">
        <ele>5.5</ele>
        <time>2021-07-05T14:35:11Z</time>
      </trkpt>
      <trkpt lat="46.28389" lon="-0.69381">
        <ele>13.097656</ele>
        <time>2021-07-05T14:36:11Z</time>
      </trkpt>
      <trkpt lat="46.28386" lon="-0.69368">
        <ele>11.898438</ele>
        <time>2021-07-05T14:36:16Z</time>
      </trkpt>
      <trkpt lat="46.28378" lon="-0.69375">
        <ele>12</ele>
        <time>2021-07-05T14:36:43Z</time>
      </trkpt>
      <trkpt lat="46.28234" lon="-0.69464">
        <ele>11.699219</ele>
        <time>2021-07-05T14:37:45Z</time>
      </trkpt>
      <trkpt lat="46.28163" lon="-0.69508">
        <ele>11.898438</ele>
        <time>2021-07-05T14:38:06Z</time>
      </trkpt>
      <trkpt lat="46.28155" lon="-0.69517">
        <ele>11.898438</ele>
        <time>2021-07-05T14:38:09Z</time>
      </trkpt>
      <trkpt lat="46.28158" lon="-0.69533">
        <ele>11.898438</ele>
        <time>2021-07-05T14:38:13Z</time>
      </trkpt>
      <trkpt lat="46.28163" lon="-0.69548">
        <ele>11.796875</ele>
        <time>2021-07-05T14:38:17Z</time>
      </trkpt>
      <trkpt lat="46.28242" lon="-0.69818">
        <ele>12.296875</ele>
        <time>2021-07-05T14:39:11Z</time>
      </trkpt>
      <trkpt lat="46.28238" lon="-0.69831">
        <ele>12.199219</ele>
        <time>2021-07-05T14:39:15Z</time>
      </trkpt>
      <trkpt lat="46.28229" lon="-0.69836">
        <ele>12.097656</ele>
        <time>2021-07-05T14:39:18Z</time>
      </trkpt>
      <trkpt lat="46.28221" lon="-0.69841">
        <ele>10</ele>
        <time>2021-07-05T14:39:21Z</time>
      </trkpt>
      <trkpt lat="46.28227" lon="-0.69832">
        <ele>11</ele>
        <time>2021-07-05T14:45:26Z</time>
      </trkpt>
      <trkpt lat="46.28236" lon="-0.69827">
        <ele>11</ele>
        <time>2021-07-05T14:46:09Z</time>
      </trkpt>
      <trkpt lat="46.28302" lon="-0.69782">
        <ele>11.097656</ele>
        <time>2021-07-05T14:46:40Z</time>
      </trkpt>
      <trkpt lat="46.28312" lon="-0.69774">
        <ele>12</ele>
        <time>2021-07-05T14:46:43Z</time>
      </trkpt>
      <trkpt lat="46.28323" lon="-0.69765">
        <ele>10.5</ele>
        <time>2021-07-05T14:46:46Z</time>
      </trkpt>
      <trkpt lat="46.28334" lon="-0.69758">
        <ele>10.199219</ele>
        <time>2021-07-05T14:46:49Z</time>
      </trkpt>
      <trkpt lat="46.28461" lon="-0.69676">
        <ele>1.597656</ele>
        <time>2021-07-05T14:47:22Z</time>
      </trkpt>
      <trkpt lat="46.28471" lon="-0.69667">
        <ele>1.796875</ele>
        <time>2021-07-05T14:47:26Z</time>
      </trkpt>
      <trkpt lat="46.28474" lon="-0.69654">
        <ele>2</ele>
        <time>2021-07-05T14:47:29Z</time>
      </trkpt>
      <trkpt lat="46.28478" lon="-0.69637">
        <ele>2.097656</ele>
        <time>2021-07-05T14:47:32Z</time>
      </trkpt>
      <trkpt lat="46.28514" lon="-0.69483">
        <ele>4</ele>
        <time>2021-07-05T14:47:53Z</time>
      </trkpt>
      <trkpt lat="46.28519" lon="-0.69468">
        <ele>4.199219</ele>
        <time>2021-07-05T14:47:55Z</time>
      </trkpt>
      <trkpt lat="46.28524" lon="-0.69453">
        <ele>4.296875</ele>
        <time>2021-07-05T14:47:57Z</time>
      </trkpt>
      <trkpt lat="46.2853" lon="-0.69439">
        <ele>4.398438</ele>
        <time>2021-07-05T14:47:59Z</time>
      </trkpt>
      <trkpt lat="46.28537" lon="-0.69426">
        <ele>4.5</ele>
        <time>2021-07-05T14:48:01Z</time>
      </trkpt>
      <trkpt lat="46.28559" lon="-0.69385">
        <ele>4.796875</ele>
        <time>2021-07-05T14:48:07Z</time>
      </trkpt>
      <trkpt lat="46.28583" lon="-0.69345">
        <ele>5.296875</ele>
        <time>2021-07-05T14:48:13Z</time>
      </trkpt>
      <trkpt lat="46.28606" lon="-0.69312">
        <ele>5.796875</ele>
        <time>2021-07-05T14:48:19Z</time>
      </trkpt>
      <trkpt lat="46.28616" lon="-0.693">
        <ele>5.597656</ele>
        <time>2021-07-05T14:48:22Z</time>
      </trkpt>
      <trkpt lat="46.28607" lon="-0.69293">
        <ele>5.398438</ele>
        <time>2021-07-05T14:48:29Z</time>
      </trkpt>
      <trkpt lat="46.28597" lon="-0.69298">
        <ele>5.296875</ele>
        <time>2021-07-05T14:48:32Z</time>
      </trkpt>
      <trkpt lat="46.28562" lon="-0.6931">
        <ele>4</ele>
        <time>2021-07-05T14:48:40Z</time>
      </trkpt>
      <trkpt lat="46.28553" lon="-0.69313">
        <ele>3.597656</ele>
        <time>2021-07-05T14:48:42Z</time>
      </trkpt>
      <trkpt lat="46.28543" lon="-0.69314">
        <ele>3.5</ele>
        <time>2021-07-05T14:48:44Z</time>
      </trkpt>
      <trkpt lat="46.28533" lon="-0.69314">
        <ele>3.5</ele>
        <time>2021-07-05T14:48:46Z</time>
      </trkpt>
      <trkpt lat="46.28523" lon="-0.69313">
        <ele>3.699219</ele>
        <time>2021-07-05T14:48:48Z</time>
      </trkpt>
      <trkpt lat="46.28514" lon="-0.69311">
        <ele>3.898438</ele>
        <time>2021-07-05T14:48:50Z</time>
      </trkpt>
      <trkpt lat="46.28496" lon="-0.69305">
        <ele>4.699219</ele>
        <time>2021-07-05T14:48:54Z</time>
      </trkpt>
      <trkpt lat="46.28471" lon="-0.69295">
        <ele>5.796875</ele>
        <time>2021-07-05T14:49:00Z</time>
      </trkpt>
      <trkpt lat="46.2844" lon="-0.69276">
        <ele>6.898438</ele>
        <time>2021-07-05T14:49:09Z</time>
      </trkpt>
      <trkpt lat="46.28394" lon="-0.69245">
        <ele>6.699219</ele>
        <time>2021-07-05T14:49:20Z</time>
      </trkpt>
      <trkpt lat="46.28361" lon="-0.69216">
        <ele>6.597656</ele>
        <time>2021-07-05T14:49:28Z</time>
      </trkpt>
      <trkpt lat="46.28238" lon="-0.69102">
        <ele>6.796875</ele>
        <time>2021-07-05T14:49:56Z</time>
      </trkpt>
      <trkpt lat="46.2822" lon="-0.69089">
        <ele>6.898438</ele>
        <time>2021-07-05T14:50:00Z</time>
      </trkpt>
      <trkpt lat="46.28201" lon="-0.69078">
        <ele>6.898438</ele>
        <time>2021-07-05T14:50:04Z</time>
      </trkpt>
      <trkpt lat="46.28075" lon="-0.69007">
        <ele>6.699219</ele>
        <time>2021-07-05T14:50:28Z</time>
      </trkpt>
      <trkpt lat="46.27917" lon="-0.68892">
        <ele>7.398438</ele>
        <time>2021-07-05T14:51:02Z</time>
      </trkpt>
      <trkpt lat="46.27802" lon="-0.68829">
        <ele>8.796875</ele>
        <time>2021-07-05T14:51:28Z</time>
      </trkpt>
      <trkpt lat="46.27747" lon="-0.68807">
        <ele>10.296875</ele>
        <time>2021-07-05T14:51:40Z</time>
      </trkpt>
      <trkpt lat="46.277" lon="-0.68794">
        <ele>10.699219</ele>
        <time>2021-07-05T14:51:50Z</time>
      </trkpt>
      <trkpt lat="46.27679" lon="-0.68789">
        <ele>11.5</ele>
        <time>2021-07-05T14:51:56Z</time>
      </trkpt>
      <trkpt lat="46.27671" lon="-0.6878">
        <ele>11.597656</ele>
        <time>2021-07-05T14:52:17Z</time>
      </trkpt>
      <trkpt lat="46.2767" lon="-0.68767">
        <ele>12.097656</ele>
        <time>2021-07-05T14:52:21Z</time>
      </trkpt>
      <trkpt lat="46.27667" lon="-0.68754">
        <ele>12.296875</ele>
        <time>2021-07-05T14:52:25Z</time>
      </trkpt>
      <trkpt lat="46.27656" lon="-0.68712">
        <ele>13.296875</ele>
        <time>2021-07-05T14:52:39Z</time>
      </trkpt>
      <trkpt lat="46.27655" lon="-0.68699">
        <ele>13.898438</ele>
        <time>2021-07-05T14:53:19Z</time>
      </trkpt>
      <trkpt lat="46.27651" lon="-0.68686">
        <ele>14.597656</ele>
        <time>2021-07-05T14:53:24Z</time>
      </trkpt>
      <trkpt lat="46.2759" lon="-0.6845">
        <ele>28</ele>
        <time>2021-07-05T14:54:15Z</time>
      </trkpt>
      <trkpt lat="46.27492" lon="-0.68124">
        <ele>33.898438</ele>
        <time>2021-07-05T14:55:15Z</time>
      </trkpt>
      <trkpt lat="46.27489" lon="-0.68111">
        <ele>33.699219</ele>
        <time>2021-07-05T14:55:17Z</time>
      </trkpt>
      <trkpt lat="46.27487" lon="-0.68092">
        <ele>33.597656</ele>
        <time>2021-07-05T14:55:20Z</time>
      </trkpt>
      <trkpt lat="46.27496" lon="-0.68079">
        <ele>33.398438</ele>
        <time>2021-07-05T14:55:23Z</time>
      </trkpt>
      <trkpt lat="46.27505" lon="-0.68074">
        <ele>33.398438</ele>
        <time>2021-07-05T14:55:25Z</time>
      </trkpt>
      <trkpt lat="46.27635" lon="-0.67998">
        <ele>33.898438</ele>
        <time>2021-07-05T14:55:56Z</time>
      </trkpt>
      <trkpt lat="46.27645" lon="-0.67991">
        <ele>33.796875</ele>
        <time>2021-07-05T14:55:59Z</time>
      </trkpt>
      <trkpt lat="46.27649" lon="-0.67979">
        <ele>33.796875</ele>
        <time>2021-07-05T14:56:02Z</time>
      </trkpt>
      <trkpt lat="46.27646" lon="-0.67964">
        <ele>33.699219</ele>
        <time>2021-07-05T14:56:05Z</time>
      </trkpt>
      <trkpt lat="46.27639" lon="-0.67934">
        <ele>33.597656</ele>
        <time>2021-07-05T14:56:11Z</time>
      </trkpt>
      <trkpt lat="46.27622" lon="-0.67867">
        <ele>32.796875</ele>
        <time>2021-07-05T14:56:23Z</time>
      </trkpt>
      <trkpt lat="46.27515" lon="-0.67448">
        <ele>28.398438</ele>
        <time>2021-07-05T14:57:27Z</time>
      </trkpt>
      <trkpt lat="46.27342" lon="-0.66724">
        <ele>24.898438</ele>
        <time>2021-07-05T14:59:52Z</time>
      </trkpt>
      <trkpt lat="46.27318" lon="-0.66666">
        <ele>22.898438</ele>
        <time>2021-07-05T15:00:15Z</time>
      </trkpt>
      <trkpt lat="46.27318" lon="-0.66666">
        <ele>22.898438</ele>
        <time>2021-07-05T15:00:15Z</time>
      </trkpt>
      <trkpt lat="46.27319" lon="-0.6667">
        <ele>22.597656</ele>
        <time>2021-07-05T15:00:04Z</time>
      </trkpt>
      <trkpt lat="46.27316" lon="-0.66657">
        <ele>21.898438</ele>
        <time>2021-07-05T15:00:31Z</time>
      </trkpt>
      <trkpt lat="46.2731" lon="-0.66642">
        <ele>22</ele>
        <time>2021-07-05T15:00:36Z</time>
      </trkpt>
      <trkpt lat="46.27299" lon="-0.66616">
        <ele>22.199219</ele>
        <time>2021-07-05T15:00:42Z</time>
      </trkpt>
      <trkpt lat="46.27284" lon="-0.66586">
        <ele>22.398438</ele>
        <time>2021-07-05T15:00:48Z</time>
      </trkpt>
      <trkpt lat="46.27249" lon="-0.66516">
        <ele>23.398438</ele>
        <time>2021-07-05T15:01:00Z</time>
      </trkpt>
      <trkpt lat="46.27234" lon="-0.66475">
        <ele>23.796875</ele>
        <time>2021-07-05T15:01:06Z</time>
      </trkpt>
      <trkpt lat="46.27208" lon="-0.66388">
        <ele>22.5</ele>
        <time>2021-07-05T15:01:19Z</time>
      </trkpt>
      <trkpt lat="46.27209" lon="-0.66373">
        <ele>21.398438</ele>
        <time>2021-07-05T15:01:22Z</time>
      </trkpt>
      <trkpt lat="46.27221" lon="-0.66365">
        <ele>20.699219</ele>
        <time>2021-07-05T15:01:25Z</time>
      </trkpt>
      <trkpt lat="46.27232" lon="-0.6636">
        <ele>20</ele>
        <time>2021-07-05T15:01:27Z</time>
      </trkpt>
      <trkpt lat="46.2732" lon="-0.66329">
        <ele>15.097656</ele>
        <time>2021-07-05T15:01:41Z</time>
      </trkpt>
      <trkpt lat="46.27333" lon="-0.66325">
        <ele>14.398438</ele>
        <time>2021-07-05T15:01:43Z</time>
      </trkpt>
      <trkpt lat="46.27345" lon="-0.66324">
        <ele>13.898438</ele>
        <time>2021-07-05T15:01:45Z</time>
      </trkpt>
      <trkpt lat="46.27356" lon="-0.66327">
        <ele>13.597656</ele>
        <time>2021-07-05T15:01:47Z</time>
      </trkpt>
      <trkpt lat="46.27368" lon="-0.66333">
        <ele>13.597656</ele>
        <time>2021-07-05T15:01:49Z</time>
      </trkpt>
      <trkpt lat="46.27378" lon="-0.6634">
        <ele>13.796875</ele>
        <time>2021-07-05T15:01:51Z</time>
      </trkpt>
      <trkpt lat="46.27426" lon="-0.66373">
        <ele>13.199219</ele>
        <time>2021-07-05T15:02:01Z</time>
      </trkpt>
      <trkpt lat="46.27437" lon="-0.66379">
        <ele>12.898438</ele>
        <time>2021-07-05T15:02:03Z</time>
      </trkpt>
      <trkpt lat="46.2745" lon="-0.66382">
        <ele>12.597656</ele>
        <time>2021-07-05T15:02:05Z</time>
      </trkpt>
      <trkpt lat="46.27464" lon="-0.66383">
        <ele>12.296875</ele>
        <time>2021-07-05T15:02:07Z</time>
      </trkpt>
      <trkpt lat="46.27477" lon="-0.66381">
        <ele>12.097656</ele>
        <time>2021-07-05T15:02:09Z</time>
      </trkpt>
      <trkpt lat="46.2749" lon="-0.66378">
        <ele>11.898438</ele>
        <time>2021-07-05T15:02:11Z</time>
      </trkpt>
      <trkpt lat="46.27529" lon="-0.66365">
        <ele>11.398438</ele>
        <time>2021-07-05T15:02:17Z</time>
      </trkpt>
      <trkpt lat="46.27788" lon="-0.6625">
        <ele>9.699219</ele>
        <time>2021-07-05T15:03:12Z</time>
      </trkpt>
      <trkpt lat="46.27799" lon="-0.66244">
        <ele>9.699219</ele>
        <time>2021-07-05T15:03:15Z</time>
      </trkpt>
      <trkpt lat="46.27811" lon="-0.66235">
        <ele>10</ele>
        <time>2021-07-05T15:03:18Z</time>
      </trkpt>
      <trkpt lat="46.27821" lon="-0.66225">
        <ele>10.296875</ele>
        <time>2021-07-05T15:03:21Z</time>
      </trkpt>
      <trkpt lat="46.27831" lon="-0.66214">
        <ele>10.597656</ele>
        <time>2021-07-05T15:03:24Z</time>
      </trkpt>
      <trkpt lat="46.27858" lon="-0.66181">
        <ele>11.296875</ele>
        <time>2021-07-05T15:03:33Z</time>
      </trkpt>
      <trkpt lat="46.27867" lon="-0.6617">
        <ele>11.5</ele>
        <time>2021-07-05T15:03:36Z</time>
      </trkpt>
      <trkpt lat="46.27878" lon="-0.66161">
        <ele>11.5</ele>
        <time>2021-07-05T15:03:39Z</time>
      </trkpt>
      <trkpt lat="46.27889" lon="-0.66152">
        <ele>11.398438</ele>
        <time>2021-07-05T15:03:42Z</time>
      </trkpt>
      <trkpt lat="46.27978" lon="-0.66095">
        <ele>10.199219</ele>
        <time>2021-07-05T15:04:02Z</time>
      </trkpt>
      <trkpt lat="46.27987" lon="-0.66082">
        <ele>10.5</ele>
        <time>2021-07-05T15:04:05Z</time>
      </trkpt>
      <trkpt lat="46.27988" lon="-0.66064">
        <ele>10.597656</ele>
        <time>2021-07-05T15:04:08Z</time>
      </trkpt>
      <trkpt lat="46.27986" lon="-0.66046">
        <ele>10.796875</ele>
        <time>2021-07-05T15:04:11Z</time>
      </trkpt>
      <trkpt lat="46.27969" lon="-0.65924">
        <ele>10.796875</ele>
        <time>2021-07-05T15:04:28Z</time>
      </trkpt>
      <trkpt lat="46.2794" lon="-0.65794">
        <ele>9.898438</ele>
        <time>2021-07-05T15:04:44Z</time>
      </trkpt>
      <trkpt lat="46.27919" lon="-0.65713">
        <ele>8.296875</ele>
        <time>2021-07-05T15:04:55Z</time>
      </trkpt>
      <trkpt lat="46.27919" lon="-0.65698">
        <ele>8.296875</ele>
        <time>2021-07-05T15:04:58Z</time>
      </trkpt>
      <trkpt lat="46.27928" lon="-0.65687">
        <ele>8.398438</ele>
        <time>2021-07-05T15:05:01Z</time>
      </trkpt>
      <trkpt lat="46.27938" lon="-0.65678">
        <ele>8.5</ele>
        <time>2021-07-05T15:05:04Z</time>
      </trkpt>
      <trkpt lat="46.2795" lon="-0.65668">
        <ele>8.296875</ele>
        <time>2021-07-05T15:05:07Z</time>
      </trkpt>
      <trkpt lat="46.27961" lon="-0.65661">
        <ele>8.398438</ele>
        <time>2021-07-05T15:05:10Z</time>
      </trkpt>
      <trkpt lat="46.27972" lon="-0.65655">
        <ele>8.097656</ele>
        <time>2021-07-05T15:05:13Z</time>
      </trkpt>
      <trkpt lat="46.27981" lon="-0.65642">
        <ele>8.398438</ele>
        <time>2021-07-05T15:05:16Z</time>
      </trkpt>
      <trkpt lat="46.27981" lon="-0.65625">
        <ele>8.699219</ele>
        <time>2021-07-05T15:05:19Z</time>
      </trkpt>
      <trkpt lat="46.27977" lon="-0.65592">
        <ele>9.097656</ele>
        <time>2021-07-05T15:05:24Z</time>
      </trkpt>
      <trkpt lat="46.27975" lon="-0.65566">
        <ele>9.097656</ele>
        <time>2021-07-05T15:05:28Z</time>
      </trkpt>
      <trkpt lat="46.27973" lon="-0.65553">
        <ele>8.898438</ele>
        <time>2021-07-05T15:05:30Z</time>
      </trkpt>
      <trkpt lat="46.27963" lon="-0.65502">
        <ele>8.296875</ele>
        <time>2021-07-05T15:05:39Z</time>
      </trkpt>
      <trkpt lat="46.27945" lon="-0.65429">
        <ele>8.097656</ele>
        <time>2021-07-05T15:05:51Z</time>
      </trkpt>
      <trkpt lat="46.2794" lon="-0.65416">
        <ele>8.597656</ele>
        <time>2021-07-05T15:05:55Z</time>
      </trkpt>
      <trkpt lat="46.27931" lon="-0.65421">
        <ele>9.296875</ele>
        <time>2021-07-05T15:06:00Z</time>
      </trkpt>
      <trkpt lat="46.27922" lon="-0.65429">
        <ele>9</ele>
        <time>2021-07-05T15:06:04Z</time>
      </trkpt>
      <trkpt lat="46.27893" lon="-0.65449">
        <ele>9.097656</ele>
        <time>2021-07-05T15:06:15Z</time>
      </trkpt>
      <trkpt lat="46.27864" lon="-0.65466">
        <ele>8.898438</ele>
        <time>2021-07-05T15:06:25Z</time>
      </trkpt>
      <trkpt lat="46.27854" lon="-0.65465">
        <ele>8.699219</ele>
        <time>2021-07-05T15:06:29Z</time>
      </trkpt>
      <trkpt lat="46.27845" lon="-0.65456">
        <ele>8</ele>
        <time>2021-07-05T15:06:32Z</time>
      </trkpt>
      <trkpt lat="46.2783" lon="-0.65438">
        <ele>8.5</ele>
        <time>2021-07-05T15:06:38Z</time>
      </trkpt>
      <trkpt lat="46.27825" lon="-0.65424">
        <ele>8.796875</ele>
        <time>2021-07-05T15:06:42Z</time>
      </trkpt>
      <trkpt lat="46.2783" lon="-0.65408">
        <ele>8.796875</ele>
        <time>2021-07-05T15:06:46Z</time>
      </trkpt>
      <trkpt lat="46.27835" lon="-0.65395">
        <ele>9.199219</ele>
        <time>2021-07-05T15:06:49Z</time>
      </trkpt>
      <trkpt lat="46.27837" lon="-0.65379">
        <ele>9.296875</ele>
        <time>2021-07-05T15:06:52Z</time>
      </trkpt>
      <trkpt lat="46.27838" lon="-0.65362">
        <ele>9.097656</ele>
        <time>2021-07-05T15:06:55Z</time>
      </trkpt>
      <trkpt lat="46.27841" lon="-0.65344">
        <ele>8.699219</ele>
        <time>2021-07-05T15:06:58Z</time>
      </trkpt>
      <trkpt lat="46.27845" lon="-0.65332">
        <ele>8.296875</ele>
        <time>2021-07-05T15:07:00Z</time>
      </trkpt>
      <trkpt lat="46.27852" lon="-0.65307">
        <ele>7.398438</ele>
        <time>2021-07-05T15:07:04Z</time>
      </trkpt>
      <trkpt lat="46.27854" lon="-0.65293">
        <ele>7.199219</ele>
        <time>2021-07-05T15:07:06Z</time>
      </trkpt>
      <trkpt lat="46.27853" lon="-0.6528">
        <ele>6.898438</ele>
        <time>2021-07-05T15:07:08Z</time>
      </trkpt>
      <trkpt lat="46.27852" lon="-0.65261">
        <ele>6.699219</ele>
        <time>2021-07-05T15:07:11Z</time>
      </trkpt>
      <trkpt lat="46.27854" lon="-0.65246">
        <ele>6.699219</ele>
        <time>2021-07-05T15:07:14Z</time>
      </trkpt>
      <trkpt lat="46.2786" lon="-0.65232">
        <ele>6.597656</ele>
        <time>2021-07-05T15:07:17Z</time>
      </trkpt>
      <trkpt lat="46.27868" lon="-0.65218">
        <ele>6.398438</ele>
        <time>2021-07-05T15:07:20Z</time>
      </trkpt>
      <trkpt lat="46.27903" lon="-0.65166">
        <ele>6.199219</ele>
        <time>2021-07-05T15:07:31Z</time>
      </trkpt>
      <trkpt lat="46.27911" lon="-0.65151">
        <ele>6.5</ele>
        <time>2021-07-05T15:07:34Z</time>
      </trkpt>
      <trkpt lat="46.27909" lon="-0.65132">
        <ele>6.5</ele>
        <time>2021-07-05T15:07:37Z</time>
      </trkpt>
      <trkpt lat="46.27907" lon="-0.65118">
        <ele>6.398438</ele>
        <time>2021-07-05T15:07:39Z</time>
      </trkpt>
      <trkpt lat="46.279" lon="-0.65076">
        <ele>6</ele>
        <time>2021-07-05T15:07:45Z</time>
      </trkpt>
      <trkpt lat="46.27899" lon="-0.65063">
        <ele>5.597656</ele>
        <time>2021-07-05T15:07:47Z</time>
      </trkpt>
      <trkpt lat="46.27899" lon="-0.65044">
        <ele>5.097656</ele>
        <time>2021-07-05T15:07:50Z</time>
      </trkpt>
      <trkpt lat="46.27902" lon="-0.65026">
        <ele>3.898438</ele>
        <time>2021-07-05T15:07:53Z</time>
      </trkpt>
      <trkpt lat="46.27906" lon="-0.65014">
        <ele>2.5</ele>
        <time>2021-07-05T15:07:55Z</time>
      </trkpt>
      <trkpt lat="46.27911" lon="-0.65002">
        <ele>1.398438</ele>
        <time>2021-07-05T15:07:57Z</time>
      </trkpt>
      <trkpt lat="46.27923" lon="-0.64972">
        <ele>0.199219</ele>
        <time>2021-07-05T15:08:01Z</time>
      </trkpt>
      <trkpt lat="46.27927" lon="-0.64956">
        <ele>0.398438</ele>
        <time>2021-07-05T15:08:03Z</time>
      </trkpt>
      <trkpt lat="46.27952" lon="-0.64858">
        <ele>-0.898438</ele>
        <time>2021-07-05T15:08:22Z</time>
      </trkpt>
      <trkpt lat="46.27954" lon="-0.64843">
        <ele>-0.5</ele>
        <time>2021-07-05T15:08:26Z</time>
      </trkpt>
      <trkpt lat="46.27947" lon="-0.64832">
        <ele>-0.699219</ele>
        <time>2021-07-05T15:08:30Z</time>
      </trkpt>
      <trkpt lat="46.27925" lon="-0.64801">
        <ele>-1.898438</ele>
        <time>2021-07-05T15:08:39Z</time>
      </trkpt>
      <trkpt lat="46.2788" lon="-0.64744">
        <ele>-0.796875</ele>
        <time>2021-07-05T15:08:53Z</time>
      </trkpt>
      <trkpt lat="46.27787" lon="-0.64635">
        <ele>-3</ele>
        <time>2021-07-05T15:09:20Z</time>
      </trkpt>
      <trkpt lat="46.2778" lon="-0.64623">
        <ele>-3.398438</ele>
        <time>2021-07-05T15:09:23Z</time>
      </trkpt>
      <trkpt lat="46.27777" lon="-0.64609">
        <ele>3</ele>
        <time>2021-07-05T15:09:26Z</time>
      </trkpt>
      <trkpt lat="46.27772" lon="-0.64588">
        <ele>2.398438</ele>
        <time>2021-07-05T15:10:06Z</time>
      </trkpt>
      <trkpt lat="46.27772" lon="-0.64573">
        <ele>1.398438</ele>
        <time>2021-07-05T15:10:10Z</time>
      </trkpt>
      <trkpt lat="46.27768" lon="-0.64508">
        <ele>-0.398438</ele>
        <time>2021-07-05T15:10:21Z</time>
      </trkpt>
      <trkpt lat="46.27764" lon="-0.64479">
        <ele>-0.296875</ele>
        <time>2021-07-05T15:10:25Z</time>
      </trkpt>
      <trkpt lat="46.27729" lon="-0.64266">
        <ele>-1.097656</ele>
        <time>2021-07-05T15:10:53Z</time>
      </trkpt>
      <trkpt lat="46.27728" lon="-0.6425">
        <ele>-1.097656</ele>
        <time>2021-07-05T15:10:55Z</time>
      </trkpt>
      <trkpt lat="46.27722" lon="-0.64184">
        <ele>-0.796875</ele>
        <time>2021-07-05T15:11:03Z</time>
      </trkpt>
      <trkpt lat="46.27719" lon="-0.64167">
        <ele>-0.699219</ele>
        <time>2021-07-05T15:11:05Z</time>
      </trkpt>
      <trkpt lat="46.27716" lon="-0.64151">
        <ele>-0.597656</ele>
        <time>2021-07-05T15:11:07Z</time>
      </trkpt>
      <trkpt lat="46.27712" lon="-0.64136">
        <ele>-0.597656</ele>
        <time>2021-07-05T15:11:09Z</time>
      </trkpt>
      <trkpt lat="46.27707" lon="-0.64123">
        <ele>-0.898438</ele>
        <time>2021-07-05T15:11:11Z</time>
      </trkpt>
      <trkpt lat="46.27701" lon="-0.6411">
        <ele>-1.296875</ele>
        <time>2021-07-05T15:11:13Z</time>
      </trkpt>
      <trkpt lat="46.27689" lon="-0.64088">
        <ele>-1.398438</ele>
        <time>2021-07-05T15:11:17Z</time>
      </trkpt>
      <trkpt lat="46.27675" lon="-0.64066">
        <ele>-0.796875</ele>
        <time>2021-07-05T15:11:21Z</time>
      </trkpt>
      <trkpt lat="46.27667" lon="-0.64056">
        <ele>-0.398438</ele>
        <time>2021-07-05T15:11:23Z</time>
      </trkpt>
      <trkpt lat="46.27659" lon="-0.64047">
        <ele>-0.898438</ele>
        <time>2021-07-05T15:11:25Z</time>
      </trkpt>
      <trkpt lat="46.27649" lon="-0.6404">
        <ele>-1.296875</ele>
        <time>2021-07-05T15:11:27Z</time>
      </trkpt>
      <trkpt lat="46.2761" lon="-0.64014">
        <ele>-1.796875</ele>
        <time>2021-07-05T15:11:35Z</time>
      </trkpt>
      <trkpt lat="46.27579" lon="-0.63998">
        <ele>-2</ele>
        <time>2021-07-05T15:11:41Z</time>
      </trkpt>
      <trkpt lat="46.2757" lon="-0.6399">
        <ele>-1.398438</ele>
        <time>2021-07-05T15:11:43Z</time>
      </trkpt>
      <trkpt lat="46.27562" lon="-0.63981">
        <ele>-0.699219</ele>
        <time>2021-07-05T15:11:45Z</time>
      </trkpt>
      <trkpt lat="46.27547" lon="-0.63963">
        <ele>-0.796875</ele>
        <time>2021-07-05T15:11:49Z</time>
      </trkpt>
      <trkpt lat="46.27538" lon="-0.63959">
        <ele>-0.699219</ele>
        <time>2021-07-05T15:11:51Z</time>
      </trkpt>
      <trkpt lat="46.27529" lon="-0.63959">
        <ele>-0.597656</ele>
        <time>2021-07-05T15:11:53Z</time>
      </trkpt>
      <trkpt lat="46.2752" lon="-0.63962">
        <ele>-0.5</ele>
        <time>2021-07-05T15:11:55Z</time>
      </trkpt>
      <trkpt lat="46.27511" lon="-0.63966">
        <ele>-0.296875</ele>
        <time>2021-07-05T15:11:57Z</time>
      </trkpt>
      <trkpt lat="46.27493" lon="-0.63975">
        <ele>-0.097656</ele>
        <time>2021-07-05T15:12:01Z</time>
      </trkpt>
      <trkpt lat="46.27484" lon="-0.63975">
        <ele>6.6</ele>
        <time>2021-07-05T15:12:03Z</time>
      </trkpt>
      <trkpt lat="46.27473" lon="-0.63965">
        <ele>0.199219</ele>
        <time>2021-07-05T15:12:06Z</time>
      </trkpt>
      <trkpt lat="46.27467" lon="-0.63954">
        <ele>0.398438</ele>
        <time>2021-07-05T15:12:08Z</time>
      </trkpt>
      <trkpt lat="46.27445" lon="-0.63906">
        <ele>1.398438</ele>
        <time>2021-07-05T15:12:16Z</time>
      </trkpt>
      <trkpt lat="46.2744" lon="-0.63893">
        <ele>1.5</ele>
        <time>2021-07-05T15:12:18Z</time>
      </trkpt>
      <trkpt lat="46.27437" lon="-0.6388">
        <ele>1.5</ele>
        <time>2021-07-05T15:12:20Z</time>
      </trkpt>
      <trkpt lat="46.27434" lon="-0.63866">
        <ele>1.5</ele>
        <time>2021-07-05T15:12:22Z</time>
      </trkpt>
      <trkpt lat="46.2742" lon="-0.63806">
        <ele>1.398438</ele>
        <time>2021-07-05T15:12:30Z</time>
      </trkpt>
      <trkpt lat="46.27386" lon="-0.63692">
        <ele>2</ele>
        <time>2021-07-05T15:12:46Z</time>
      </trkpt>
      <trkpt lat="46.27383" lon="-0.63677">
        <ele>1.699219</ele>
        <time>2021-07-05T15:12:48Z</time>
      </trkpt>
      <trkpt lat="46.27381" lon="-0.63661">
        <ele>1</ele>
        <time>2021-07-05T15:12:50Z</time>
      </trkpt>
      <trkpt lat="46.2738" lon="-0.63645">
        <ele>0.5</ele>
        <time>2021-07-05T15:12:52Z</time>
      </trkpt>
      <trkpt lat="46.2738" lon="-0.63628">
        <ele>0.5</ele>
        <time>2021-07-05T15:12:54Z</time>
      </trkpt>
      <trkpt lat="46.27381" lon="-0.63459">
        <ele>-1.5</ele>
        <time>2021-07-05T15:13:16Z</time>
      </trkpt>
      <trkpt lat="46.27373" lon="-0.63402">
        <ele>-2.097656</ele>
        <time>2021-07-05T15:13:24Z</time>
      </trkpt>
      <trkpt lat="46.27368" lon="-0.63372">
        <ele>-2.398438</ele>
        <time>2021-07-05T15:13:28Z</time>
      </trkpt>
      <trkpt lat="46.27367" lon="-0.63359">
        <ele>-2.699219</ele>
        <time>2021-07-05T15:13:30Z</time>
      </trkpt>
      <trkpt lat="46.27374" lon="-0.63346">
        <ele>-2.898438</ele>
        <time>2021-07-05T15:13:33Z</time>
      </trkpt>
      <trkpt lat="46.27383" lon="-0.6334">
        <ele>-3.199219</ele>
        <time>2021-07-05T15:13:36Z</time>
      </trkpt>
      <trkpt lat="46.27393" lon="-0.63335">
        <ele>-3.097656</ele>
        <time>2021-07-05T15:13:39Z</time>
      </trkpt>
      <trkpt lat="46.27545" lon="-0.63256">
        <ele>-2.296875</ele>
        <time>2021-07-05T15:14:10Z</time>
      </trkpt>
      <trkpt lat="46.27556" lon="-0.63247">
        <ele>-1.898438</ele>
        <time>2021-07-05T15:14:13Z</time>
      </trkpt>
      <trkpt lat="46.27567" lon="-0.63236">
        <ele>-2</ele>
        <time>2021-07-05T15:14:16Z</time>
      </trkpt>
      <trkpt lat="46.27585" lon="-0.63215">
        <ele>-3.898438</ele>
        <time>2021-07-05T15:14:21Z</time>
      </trkpt>
      <trkpt lat="46.27827" lon="-0.62921">
        <ele>-6.898438</ele>
        <time>2021-07-05T15:15:28Z</time>
      </trkpt>
      <trkpt lat="46.27866" lon="-0.62875">
        <ele>-6.296875</ele>
        <time>2021-07-05T15:15:39Z</time>
      </trkpt>
      <trkpt lat="46.27977" lon="-0.62745">
        <ele>-7.097656</ele>
        <time>2021-07-05T15:16:10Z</time>
      </trkpt>
      <trkpt lat="46.27983" lon="-0.62735">
        <ele>-6.898438</ele>
        <time>2021-07-05T15:16:12Z</time>
      </trkpt>
      <trkpt lat="46.27989" lon="-0.62723">
        <ele>-6.296875</ele>
        <time>2021-07-05T15:16:14Z</time>
      </trkpt>
      <trkpt lat="46.28012" lon="-0.62671">
        <ele>-5.398438</ele>
        <time>2021-07-05T15:16:23Z</time>
      </trkpt>
      <trkpt lat="46.28026" lon="-0.62634">
        <ele>-4.199219</ele>
        <time>2021-07-05T15:16:29Z</time>
      </trkpt>
      <trkpt lat="46.28034" lon="-0.62626">
        <ele>-3.796875</ele>
        <time>2021-07-05T15:16:31Z</time>
      </trkpt>
      <trkpt lat="46.28047" lon="-0.6263">
        <ele>-3.597656</ele>
        <time>2021-07-05T15:16:34Z</time>
      </trkpt>
      <trkpt lat="46.28057" lon="-0.62641">
        <ele>-3.398438</ele>
        <time>2021-07-05T15:16:37Z</time>
      </trkpt>
      <trkpt lat="46.28068" lon="-0.62652">
        <ele>-3.199219</ele>
        <time>2021-07-05T15:16:40Z</time>
      </trkpt>
      <trkpt lat="46.28078" lon="-0.62664">
        <ele>-2.699219</ele>
        <time>2021-07-05T15:16:43Z</time>
      </trkpt>
      <trkpt lat="46.28084" lon="-0.62674">
        <ele>-2.5</ele>
        <time>2021-07-05T15:16:45Z</time>
      </trkpt>
      <trkpt lat="46.28092" lon="-0.62689">
        <ele>-2</ele>
        <time>2021-07-05T15:16:48Z</time>
      </trkpt>
      <trkpt lat="46.28105" lon="-0.62715">
        <ele>-1.398438</ele>
        <time>2021-07-05T15:16:53Z</time>
      </trkpt>
      <trkpt lat="46.2811" lon="-0.62727">
        <ele>-1.398438</ele>
        <time>2021-07-05T15:16:55Z</time>
      </trkpt>
      <trkpt lat="46.28114" lon="-0.62739">
        <ele>-1.398438</ele>
        <time>2021-07-05T15:16:57Z</time>
      </trkpt>
      <trkpt lat="46.28126" lon="-0.62777">
        <ele>-1.097656</ele>
        <time>2021-07-05T15:17:03Z</time>
      </trkpt>
      <trkpt lat="46.28132" lon="-0.62789">
        <ele>-0.898438</ele>
        <time>2021-07-05T15:17:05Z</time>
      </trkpt>
      <trkpt lat="46.28139" lon="-0.628">
        <ele>-0.796875</ele>
        <time>2021-07-05T15:17:07Z</time>
      </trkpt>
      <trkpt lat="46.28159" lon="-0.62829">
        <ele>-0.398438</ele>
        <time>2021-07-05T15:17:15Z</time>
      </trkpt>
      <trkpt lat="46.2815" lon="-0.62817">
        <ele>-0.5</ele>
        <time>2021-07-05T15:17:24Z</time>
      </trkpt>
      <trkpt lat="46.28143" lon="-0.62809">
        <ele>-1</ele>
        <time>2021-07-05T15:17:27Z</time>
      </trkpt>
      <trkpt lat="46.28153" lon="-0.62819">
        <ele>-0.597656</ele>
        <time>2021-07-05T15:17:37Z</time>
      </trkpt>
      <trkpt lat="46.2816" lon="-0.6283">
        <ele>-0.597656</ele>
        <time>2021-07-05T15:17:40Z</time>
      </trkpt>
      <trkpt lat="46.28167" lon="-0.62844">
        <ele>-1</ele>
        <time>2021-07-05T15:17:43Z</time>
      </trkpt>
      <trkpt lat="46.28177" lon="-0.62854">
        <ele>-1.597656</ele>
        <time>2021-07-05T15:17:46Z</time>
      </trkpt>
      <trkpt lat="46.2819" lon="-0.62854">
        <ele>-1.898438</ele>
        <time>2021-07-05T15:17:49Z</time>
      </trkpt>
      <trkpt lat="46.28203" lon="-0.62851">
        <ele>-1.898438</ele>
        <time>2021-07-05T15:17:52Z</time>
      </trkpt>
      <trkpt lat="46.28212" lon="-0.6285">
        <ele>-1.898438</ele>
        <time>2021-07-05T15:17:54Z</time>
      </trkpt>
      <trkpt lat="46.28221" lon="-0.62851">
        <ele>-1.796875</ele>
        <time>2021-07-05T15:17:56Z</time>
      </trkpt>
      <trkpt lat="46.28231" lon="-0.62852">
        <ele>-1.5</ele>
        <time>2021-07-05T15:17:58Z</time>
      </trkpt>
      <trkpt lat="46.2824" lon="-0.62855">
        <ele>-1.199219</ele>
        <time>2021-07-05T15:18:00Z</time>
      </trkpt>
      <trkpt lat="46.28279" lon="-0.62873">
        <ele>0.5</ele>
        <time>2021-07-05T15:18:09Z</time>
      </trkpt>
      <trkpt lat="46.28287" lon="-0.62864">
        <ele>0.597656</ele>
        <time>2021-07-05T15:18:13Z</time>
      </trkpt>
      <trkpt lat="46.28285" lon="-0.6285">
        <ele>0.199219</ele>
        <time>2021-07-05T15:18:17Z</time>
      </trkpt>
      <trkpt lat="46.28264" lon="-0.62729">
        <ele>-0.699219</ele>
        <time>2021-07-05T15:18:36Z</time>
      </trkpt>
      <trkpt lat="46.28261" lon="-0.62717">
        <ele>-1.5</ele>
        <time>2021-07-05T15:18:38Z</time>
      </trkpt>
      <trkpt lat="46.28257" lon="-0.62699">
        <ele>-1.597656</ele>
        <time>2021-07-05T15:18:41Z</time>
      </trkpt>
      <trkpt lat="46.28264" lon="-0.62686">
        <ele>-1.296875</ele>
        <time>2021-07-05T15:18:44Z</time>
      </trkpt>
      <trkpt lat="46.28276" lon="-0.6268">
        <ele>-1.296875</ele>
        <time>2021-07-05T15:18:47Z</time>
      </trkpt>
      <trkpt lat="46.28342" lon="-0.62655">
        <ele>-0.898438</ele>
        <time>2021-07-05T15:19:01Z</time>
      </trkpt>
      <trkpt lat="46.28355" lon="-0.62653">
        <ele>-0.898438</ele>
        <time>2021-07-05T15:19:04Z</time>
      </trkpt>
      <trkpt lat="46.28365" lon="-0.62659">
        <ele>-0.796875</ele>
        <time>2021-07-05T15:19:07Z</time>
      </trkpt>
      <trkpt lat="46.28375" lon="-0.62665">
        <ele>-0.898438</ele>
        <time>2021-07-05T15:19:10Z</time>
      </trkpt>
      <trkpt lat="46.28385" lon="-0.62664">
        <ele>-0.699219</ele>
        <time>2021-07-05T15:19:13Z</time>
      </trkpt>
      <trkpt lat="46.28397" lon="-0.6266">
        <ele>-0.5</ele>
        <time>2021-07-05T15:19:16Z</time>
      </trkpt>
      <trkpt lat="46.28408" lon="-0.62657">
        <ele>-0.097656</ele>
        <time>2021-07-05T15:19:19Z</time>
      </trkpt>
      <trkpt lat="46.28414" lon="-0.62647">
        <ele>0.296875</ele>
        <time>2021-07-05T15:19:22Z</time>
      </trkpt>
      <trkpt lat="46.2842" lon="-0.62636">
        <ele>1</ele>
        <time>2021-07-05T15:19:26Z</time>
      </trkpt>
      <trkpt lat="46.28429" lon="-0.62631">
        <ele>0.796875</ele>
        <time>2021-07-05T15:19:32Z</time>
      </trkpt>
      <trkpt lat="46.28441" lon="-0.62628">
        <ele>0.597656</ele>
        <time>2021-07-05T15:19:36Z</time>
      </trkpt>
      <trkpt lat="46.2847" lon="-0.62619">
        <ele>1.5</ele>
        <time>2021-07-05T15:19:45Z</time>
      </trkpt>
      <trkpt lat="46.2848" lon="-0.62614">
        <ele>2</ele>
        <time>2021-07-05T15:19:48Z</time>
      </trkpt>
      <trkpt lat="46.2849" lon="-0.62607">
        <ele>2.296875</ele>
        <time>2021-07-05T15:19:51Z</time>
      </trkpt>
      <trkpt lat="46.28501" lon="-0.62604">
        <ele>2.398438</ele>
        <time>2021-07-05T15:19:54Z</time>
      </trkpt>
      <trkpt lat="46.28725" lon="-0.62524">
        <ele>1.898438</ele>
        <time>2021-07-05T15:20:46Z</time>
      </trkpt>
      <trkpt lat="46.28735" lon="-0.62518">
        <ele>2</ele>
        <time>2021-07-05T15:20:49Z</time>
      </trkpt>
      <trkpt lat="46.28736" lon="-0.62505">
        <ele>2.199219</ele>
        <time>2021-07-05T15:20:52Z</time>
      </trkpt>
      <trkpt lat="46.28735" lon="-0.6249">
        <ele>2.398438</ele>
        <time>2021-07-05T15:20:55Z</time>
      </trkpt>
      <trkpt lat="46.2873" lon="-0.62437">
        <ele>3.796875</ele>
        <time>2021-07-05T15:21:04Z</time>
      </trkpt>
      <trkpt lat="46.28736" lon="-0.62425">
        <ele>3.097656</ele>
        <time>2021-07-05T15:21:27Z</time>
      </trkpt>
      <trkpt lat="46.28746" lon="-0.62419">
        <ele>2.898438</ele>
        <time>2021-07-05T15:21:31Z</time>
      </trkpt>
      <trkpt lat="46.28757" lon="-0.62415">
        <ele>2.796875</ele>
        <time>2021-07-05T15:21:49Z</time>
      </trkpt>
      <trkpt lat="46.28781" lon="-0.62407">
        <ele>2.398438</ele>
        <time>2021-07-05T15:21:56Z</time>
      </trkpt>
      <trkpt lat="46.28791" lon="-0.62406">
        <ele>2.199219</ele>
        <time>2021-07-05T15:21:58Z</time>
      </trkpt>
      <trkpt lat="46.28833" lon="-0.62407">
        <ele>0.296875</ele>
        <time>2021-07-05T15:22:06Z</time>
      </trkpt>
      <trkpt lat="46.28842" lon="-0.62409">
        <ele>5.3</ele>
        <time>2021-07-05T15:22:08Z</time>
      </trkpt>
      <trkpt lat="46.28862" lon="-0.62414">
        <ele>-0.597656</ele>
        <time>2021-07-05T15:22:12Z</time>
      </trkpt>
      <trkpt lat="46.28925" lon="-0.62439">
        <ele>1.597656</ele>
        <time>2021-07-05T15:22:24Z</time>
      </trkpt>
      <trkpt lat="46.28935" lon="-0.62439">
        <ele>2.199219</ele>
        <time>2021-07-05T15:22:26Z</time>
      </trkpt>
      <trkpt lat="46.28944" lon="-0.62436">
        <ele>3.199219</ele>
        <time>2021-07-05T15:22:28Z</time>
      </trkpt>
      <trkpt lat="46.28956" lon="-0.62429">
        <ele>3.898438</ele>
        <time>2021-07-05T15:22:31Z</time>
      </trkpt>
      <trkpt lat="46.28966" lon="-0.6242">
        <ele>4.398438</ele>
        <time>2021-07-05T15:22:34Z</time>
      </trkpt>
      <trkpt lat="46.28975" lon="-0.62409">
        <ele>4.699219</ele>
        <time>2021-07-05T15:22:37Z</time>
      </trkpt>
      <trkpt lat="46.28983" lon="-0.62396">
        <ele>5.097656</ele>
        <time>2021-07-05T15:22:40Z</time>
      </trkpt>
      <trkpt lat="46.28991" lon="-0.62384">
        <ele>5.199219</ele>
        <time>2021-07-05T15:22:43Z</time>
      </trkpt>
      <trkpt lat="46.29001" lon="-0.62373">
        <ele>5.398438</ele>
        <time>2021-07-05T15:22:46Z</time>
      </trkpt>
      <trkpt lat="46.29011" lon="-0.62365">
        <ele>5.597656</ele>
        <time>2021-07-05T15:22:49Z</time>
      </trkpt>
      <trkpt lat="46.29023" lon="-0.62358">
        <ele>6</ele>
        <time>2021-07-05T15:22:52Z</time>
      </trkpt>
      <trkpt lat="46.29059" lon="-0.62341">
        <ele>7</ele>
        <time>2021-07-05T15:23:01Z</time>
      </trkpt>
      <trkpt lat="46.2907" lon="-0.6233">
        <ele>6.796875</ele>
        <time>2021-07-05T15:23:04Z</time>
      </trkpt>
      <trkpt lat="46.29077" lon="-0.62321">
        <ele>6.597656</ele>
        <time>2021-07-05T15:23:06Z</time>
      </trkpt>
      <trkpt lat="46.29083" lon="-0.6231">
        <ele>6.5</ele>
        <time>2021-07-05T15:23:08Z</time>
      </trkpt>
      <trkpt lat="46.29095" lon="-0.62287">
        <ele>6.199219</ele>
        <time>2021-07-05T15:23:12Z</time>
      </trkpt>
      <trkpt lat="46.29103" lon="-0.62276">
        <ele>6.097656</ele>
        <time>2021-07-05T15:23:14Z</time>
      </trkpt>
      <trkpt lat="46.29113" lon="-0.62269">
        <ele>5.796875</ele>
        <time>2021-07-05T15:23:16Z</time>
      </trkpt>
      <trkpt lat="46.29123" lon="-0.62264">
        <ele>5.097656</ele>
        <time>2021-07-05T15:23:18Z</time>
      </trkpt>
      <trkpt lat="46.29134" lon="-0.6226">
        <ele>4.097656</ele>
        <time>2021-07-05T15:23:20Z</time>
      </trkpt>
      <trkpt lat="46.29145" lon="-0.62253">
        <ele>3.199219</ele>
        <time>2021-07-05T15:23:22Z</time>
      </trkpt>
      <trkpt lat="46.29155" lon="-0.62245">
        <ele>2.199219</ele>
        <time>2021-07-05T15:23:24Z</time>
      </trkpt>
      <trkpt lat="46.29174" lon="-0.62229">
        <ele>0.5</ele>
        <time>2021-07-05T15:23:28Z</time>
      </trkpt>
      <trkpt lat="46.29184" lon="-0.62225">
        <ele>0.597656</ele>
        <time>2021-07-05T15:23:30Z</time>
      </trkpt>
      <trkpt lat="46.29195" lon="-0.62231">
        <ele>1</ele>
        <time>2021-07-05T15:23:33Z</time>
      </trkpt>
      <trkpt lat="46.29202" lon="-0.62247">
        <ele>1</ele>
        <time>2021-07-05T15:23:36Z</time>
      </trkpt>
      <trkpt lat="46.29205" lon="-0.6226">
        <ele>1</ele>
        <time>2021-07-05T15:23:38Z</time>
      </trkpt>
      <trkpt lat="46.29208" lon="-0.62286">
        <ele>1.199219</ele>
        <time>2021-07-05T15:23:42Z</time>
      </trkpt>
      <trkpt lat="46.29212" lon="-0.62298">
        <ele>1.5</ele>
        <time>2021-07-05T15:23:44Z</time>
      </trkpt>
      <trkpt lat="46.29216" lon="-0.62311">
        <ele>1.699219</ele>
        <time>2021-07-05T15:23:46Z</time>
      </trkpt>
      <trkpt lat="46.29222" lon="-0.62323">
        <ele>2.097656</ele>
        <time>2021-07-05T15:23:48Z</time>
      </trkpt>
      <trkpt lat="46.29229" lon="-0.62333">
        <ele>2.5</ele>
        <time>2021-07-05T15:23:50Z</time>
      </trkpt>
      <trkpt lat="46.29242" lon="-0.62352">
        <ele>3.097656</ele>
        <time>2021-07-05T15:23:54Z</time>
      </trkpt>
      <trkpt lat="46.29247" lon="-0.62363">
        <ele>3.5</ele>
        <time>2021-07-05T15:23:56Z</time>
      </trkpt>
      <trkpt lat="46.29252" lon="-0.62375">
        <ele>3.796875</ele>
        <time>2021-07-05T15:23:58Z</time>
      </trkpt>
      <trkpt lat="46.29271" lon="-0.62421">
        <ele>4.699219</ele>
        <time>2021-07-05T15:24:06Z</time>
      </trkpt>
      <trkpt lat="46.29277" lon="-0.62439">
        <ele>4.796875</ele>
        <time>2021-07-05T15:24:09Z</time>
      </trkpt>
      <trkpt lat="46.29289" lon="-0.62475">
        <ele>5.097656</ele>
        <time>2021-07-05T15:24:15Z</time>
      </trkpt>
      <trkpt lat="46.29305" lon="-0.62509">
        <ele>5.5</ele>
        <time>2021-07-05T15:24:21Z</time>
      </trkpt>
      <trkpt lat="46.2935" lon="-0.62601">
        <ele>6.699219</ele>
        <time>2021-07-05T15:24:37Z</time>
      </trkpt>
      <trkpt lat="46.29357" lon="-0.62611">
        <ele>6.898438</ele>
        <time>2021-07-05T15:24:39Z</time>
      </trkpt>
      <trkpt lat="46.29407" lon="-0.62679">
        <ele>7.898438</ele>
        <time>2021-07-05T15:24:53Z</time>
      </trkpt>
      <trkpt lat="46.29418" lon="-0.62701">
        <ele>7.398438</ele>
        <time>2021-07-05T15:24:57Z</time>
      </trkpt>
      <trkpt lat="46.29429" lon="-0.62725">
        <ele>6.898438</ele>
        <time>2021-07-05T15:25:01Z</time>
      </trkpt>
      <trkpt lat="46.29433" lon="-0.62737">
        <ele>6.796875</ele>
        <time>2021-07-05T15:25:03Z</time>
      </trkpt>
      <trkpt lat="46.29437" lon="-0.6275">
        <ele>6.597656</ele>
        <time>2021-07-05T15:25:05Z</time>
      </trkpt>
      <trkpt lat="46.29441" lon="-0.62764">
        <ele>7</ele>
        <time>2021-07-05T15:25:07Z</time>
      </trkpt>
      <trkpt lat="46.29467" lon="-0.62864">
        <ele>7.199219</ele>
        <time>2021-07-05T15:25:21Z</time>
      </trkpt>
      <trkpt lat="46.29472" lon="-0.62876">
        <ele>7.199219</ele>
        <time>2021-07-05T15:25:23Z</time>
      </trkpt>
      <trkpt lat="46.29477" lon="-0.62887">
        <ele>7.097656</ele>
        <time>2021-07-05T15:25:25Z</time>
      </trkpt>
      <trkpt lat="46.29483" lon="-0.62898">
        <ele>7.199219</ele>
        <time>2021-07-05T15:25:27Z</time>
      </trkpt>
      <trkpt lat="46.2949" lon="-0.62909">
        <ele>7.199219</ele>
        <time>2021-07-05T15:25:29Z</time>
      </trkpt>
      <trkpt lat="46.29496" lon="-0.62921">
        <ele>7.296875</ele>
        <time>2021-07-05T15:25:31Z</time>
      </trkpt>
      <trkpt lat="46.29501" lon="-0.62934">
        <ele>7.398438</ele>
        <time>2021-07-05T15:25:33Z</time>
      </trkpt>
      <trkpt lat="46.29504" lon="-0.62947">
        <ele>7.597656</ele>
        <time>2021-07-05T15:25:35Z</time>
      </trkpt>
      <trkpt lat="46.29508" lon="-0.6296">
        <ele>8</ele>
        <time>2021-07-05T15:25:37Z</time>
      </trkpt>
      <trkpt lat="46.29513" lon="-0.62985">
        <ele>8.296875</ele>
        <time>2021-07-05T15:25:41Z</time>
      </trkpt>
      <trkpt lat="46.29515" lon="-0.62998">
        <ele>8.398438</ele>
        <time>2021-07-05T15:25:43Z</time>
      </trkpt>
      <trkpt lat="46.29518" lon="-0.63012">
        <ele>8.5</ele>
        <time>2021-07-05T15:25:45Z</time>
      </trkpt>
      <trkpt lat="46.29523" lon="-0.63024">
        <ele>8.5</ele>
        <time>2021-07-05T15:25:47Z</time>
      </trkpt>
      <trkpt lat="46.2957" lon="-0.63157">
        <ele>9.296875</ele>
        <time>2021-07-05T15:26:09Z</time>
      </trkpt>
      <trkpt lat="46.29577" lon="-0.63172">
        <ele>9.296875</ele>
        <time>2021-07-05T15:26:12Z</time>
      </trkpt>
      <trkpt lat="46.29627" lon="-0.63265">
        <ele>8.898438</ele>
        <time>2021-07-05T15:26:31Z</time>
      </trkpt>
      <trkpt lat="46.29632" lon="-0.63277">
        <ele>8.898438</ele>
        <time>2021-07-05T15:26:33Z</time>
      </trkpt>
      <trkpt lat="46.29636" lon="-0.63289">
        <ele>9.097656</ele>
        <time>2021-07-05T15:26:35Z</time>
      </trkpt>
      <trkpt lat="46.29639" lon="-0.63306">
        <ele>9.199219</ele>
        <time>2021-07-05T15:26:38Z</time>
      </trkpt>
      <trkpt lat="46.2964" lon="-0.63324">
        <ele>9.5</ele>
        <time>2021-07-05T15:26:41Z</time>
      </trkpt>
      <trkpt lat="46.2964" lon="-0.6334">
        <ele>9.898438</ele>
        <time>2021-07-05T15:26:44Z</time>
      </trkpt>
      <trkpt lat="46.2964" lon="-0.63356">
        <ele>10.5</ele>
        <time>2021-07-05T15:26:47Z</time>
      </trkpt>
      <trkpt lat="46.29636" lon="-0.6337">
        <ele>10.5</ele>
        <time>2021-07-05T15:26:50Z</time>
      </trkpt>
      <trkpt lat="46.29629" lon="-0.63381">
        <ele>10.796875</ele>
        <time>2021-07-05T15:26:53Z</time>
      </trkpt>
      <trkpt lat="46.29621" lon="-0.6339">
        <ele>11</ele>
        <time>2021-07-05T15:26:56Z</time>
      </trkpt>
      <trkpt lat="46.29579" lon="-0.6343">
        <ele>13.296875</ele>
        <time>2021-07-05T15:27:11Z</time>
      </trkpt>
      <trkpt lat="46.29561" lon="-0.63446">
        <ele>14.296875</ele>
        <time>2021-07-05T15:27:17Z</time>
      </trkpt>
      <trkpt lat="46.29538" lon="-0.63474">
        <ele>16.398438</ele>
        <time>2021-07-05T15:27:26Z</time>
      </trkpt>
      <trkpt lat="46.29531" lon="-0.63484">
        <ele>16.699219</ele>
        <time>2021-07-05T15:27:29Z</time>
      </trkpt>
      <trkpt lat="46.29526" lon="-0.63498">
        <ele>17.296875</ele>
        <time>2021-07-05T15:27:32Z</time>
      </trkpt>
      <trkpt lat="46.29529" lon="-0.63512">
        <ele>17.898438</ele>
        <time>2021-07-05T15:27:35Z</time>
      </trkpt>
      <trkpt lat="46.29534" lon="-0.63526">
        <ele>18.5</ele>
        <time>2021-07-05T15:27:38Z</time>
      </trkpt>
      <trkpt lat="46.29538" lon="-0.63541">
        <ele>19</ele>
        <time>2021-07-05T15:27:41Z</time>
      </trkpt>
      <trkpt lat="46.2954" lon="-0.63556">
        <ele>19.5</ele>
        <time>2021-07-05T15:27:44Z</time>
      </trkpt>
      <trkpt lat="46.29541" lon="-0.63572">
        <ele>19.699219</ele>
        <time>2021-07-05T15:27:47Z</time>
      </trkpt>
      <trkpt lat="46.29549" lon="-0.63656">
        <ele>19</ele>
        <time>2021-07-05T15:28:02Z</time>
      </trkpt>
      <trkpt lat="46.29552" lon="-0.6367">
        <ele>19</ele>
        <time>2021-07-05T15:28:05Z</time>
      </trkpt>
      <trkpt lat="46.2956" lon="-0.63681">
        <ele>19</ele>
        <time>2021-07-05T15:28:08Z</time>
      </trkpt>
      <trkpt lat="46.29577" lon="-0.63707">
        <ele>19.199219</ele>
        <time>2021-07-05T15:28:14Z</time>
      </trkpt>
      <trkpt lat="46.29588" lon="-0.63715">
        <ele>18.898438</ele>
        <time>2021-07-05T15:28:17Z</time>
      </trkpt>
      <trkpt lat="46.29599" lon="-0.63712">
        <ele>18.398438</ele>
        <time>2021-07-05T15:28:20Z</time>
      </trkpt>
      <trkpt lat="46.29691" lon="-0.63685">
        <ele>17.699219</ele>
        <time>2021-07-05T15:28:39Z</time>
      </trkpt>
      <trkpt lat="46.2979" lon="-0.63669">
        <ele>15.5</ele>
        <time>2021-07-05T15:28:57Z</time>
      </trkpt>
      <trkpt lat="46.29912" lon="-0.63628">
        <ele>5.898438</ele>
        <time>2021-07-05T15:29:15Z</time>
      </trkpt>
      <trkpt lat="46.29949" lon="-0.63613">
        <ele>5.199219</ele>
        <time>2021-07-05T15:29:24Z</time>
      </trkpt>
      <trkpt lat="46.29961" lon="-0.63615">
        <ele>5.5</ele>
        <time>2021-07-05T15:29:27Z</time>
      </trkpt>
      <trkpt lat="46.29993" lon="-0.63619">
        <ele>5.796875</ele>
        <time>2021-07-05T15:29:34Z</time>
      </trkpt>
      <trkpt lat="46.30014" lon="-0.6362">
        <ele>5.898438</ele>
        <time>2021-07-05T15:29:39Z</time>
      </trkpt>
      <trkpt lat="46.30039" lon="-0.6362">
        <ele>6.628906</ele>
        <time>2021-07-05T15:30:10Z</time>
      </trkpt>
      <trkpt lat="46.30039" lon="-0.6362">
        <ele>6.628906</ele>
        <time>2021-07-05T15:30:10Z</time>
      </trkpt>
      <trkpt lat="46.30039" lon="-0.6362">
        <ele>6.628906</ele>
        <time>2021-07-05T15:30:10Z</time>
      </trkpt>
      <trkpt lat="46.30039" lon="-0.6362">
        <ele>6.628906</ele>
        <time>2021-07-05T15:30:10Z</time>
      </trkpt>
      <trkpt lat="46.30035" lon="-0.6362">
        <ele>6</ele>
        <time>2021-07-05T15:29:48Z</time>
      </trkpt>
      <trkpt lat="46.30025" lon="-0.6362">
        <ele>5.796875</ele>
        <time>2021-07-05T15:30:33Z</time>
      </trkpt>
      <trkpt lat="46.29991" lon="-0.63619">
        <ele>5.699219</ele>
        <time>2021-07-05T15:30:43Z</time>
      </trkpt>
      <trkpt lat="46.29967" lon="-0.63616">
        <ele>5.796875</ele>
        <time>2021-07-05T15:30:49Z</time>
      </trkpt>
      <trkpt lat="46.29958" lon="-0.63609">
        <ele>5.796875</ele>
        <time>2021-07-05T15:30:53Z</time>
      </trkpt>
      <trkpt lat="46.29957" lon="-0.6359">
        <ele>6.199219</ele>
        <time>2021-07-05T15:31:10Z</time>
      </trkpt>
      <trkpt lat="46.29957" lon="-0.6359">
        <ele>6.199219</ele>
        <time>2021-07-05T15:31:10Z</time>
      </trkpt>
      <trkpt lat="46.29957" lon="-0.6359">
        <ele>6.199219</ele>
        <time>2021-07-05T15:31:10Z</time>
      </trkpt>
      <trkpt lat="46.29957" lon="-0.6359">
        <ele>6.199219</ele>
        <time>2021-07-05T15:31:10Z</time>
      </trkpt>
      <trkpt lat="46.29956" lon="-0.63594">
        <ele>6.699219</ele>
        <time>2021-07-05T15:30:58Z</time>
      </trkpt>
      <trkpt lat="46.29959" lon="-0.63581">
        <ele>6.898438</ele>
        <time>2021-07-05T15:31:22Z</time>
      </trkpt>
      <trkpt lat="46.29963" lon="-0.63566">
        <ele>7</ele>
        <time>2021-07-05T15:31:28Z</time>
      </trkpt>
      <trkpt lat="46.29966" lon="-0.6355">
        <ele>7.097656</ele>
        <time>2021-07-05T15:31:32Z</time>
      </trkpt>
      <trkpt lat="46.29971" lon="-0.6352">
        <ele>7</ele>
        <time>2021-07-05T15:31:38Z</time>
      </trkpt>
      <trkpt lat="46.29971" lon="-0.63494">
        <ele>7.121094</ele>
        <time>2021-07-05T15:31:54Z</time>
      </trkpt>
      <trkpt lat="46.29971" lon="-0.63494">
        <ele>7.121094</ele>
        <time>2021-07-05T15:31:54Z</time>
      </trkpt>
      <trkpt lat="46.29971" lon="-0.63494">
        <ele>7.121094</ele>
        <time>2021-07-05T15:31:54Z</time>
      </trkpt>
      <trkpt lat="46.29971" lon="-0.63494">
        <ele>7.121094</ele>
        <time>2021-07-05T15:31:54Z</time>
      </trkpt>
      <trkpt lat="46.29971" lon="-0.63505">
        <ele>8.398438</ele>
        <time>2021-07-05T15:31:41Z</time>
      </trkpt>
      <trkpt lat="46.29971" lon="-0.63488">
        <ele>8.75</ele>
        <time>2021-07-05T15:35:04Z</time>
      </trkpt>
      <trkpt lat="46.29971" lon="-0.63488">
        <ele>8.75</ele>
        <time>2021-07-05T15:35:04Z</time>
      </trkpt>
      <trkpt lat="46.29971" lon="-0.63488">
        <ele>8.75</ele>
        <time>2021-07-05T15:35:04Z</time>
      </trkpt>
      <trkpt lat="46.29971" lon="-0.63488">
        <ele>8.75</ele>
        <time>2021-07-05T15:35:04Z</time>
      </trkpt>
      <trkpt lat="46.29971" lon="-0.63489">
        <ele>11.097656</ele>
        <time>2021-07-05T15:33:56Z</time>
      </trkpt>
      <trkpt lat="46.29975" lon="-0.63477">
        <ele>11</ele>
        <time>2021-07-05T15:37:16Z</time>
      </trkpt>
      <trkpt lat="46.29977" lon="-0.63463">
        <ele>10.898438</ele>
        <time>2021-07-05T15:37:21Z</time>
      </trkpt>
      <trkpt lat="46.29979" lon="-0.63448">
        <ele>10.796875</ele>
        <time>2021-07-05T15:37:25Z</time>
      </trkpt>
      <trkpt lat="46.29982" lon="-0.63422">
        <ele>11.699219</ele>
        <time>2021-07-05T15:37:34Z</time>
      </trkpt>
      <trkpt lat="46.29987" lon="-0.63393">
        <ele>12.699219</ele>
        <time>2021-07-05T15:37:45Z</time>
      </trkpt>
      <trkpt lat="46.29987" lon="-0.63393">
        <ele>12.699219</ele>
        <time>2021-07-05T15:37:45Z</time>
      </trkpt>
      <trkpt lat="46.29987" lon="-0.63393">
        <ele>12.699219</ele>
        <time>2021-07-05T15:37:45Z</time>
      </trkpt>
      <trkpt lat="46.29987" lon="-0.63393">
        <ele>12.699219</ele>
        <time>2021-07-05T15:37:45Z</time>
      </trkpt>
      <trkpt lat="46.29987" lon="-0.63393">
        <ele>13.199219</ele>
        <time>2021-07-05T15:37:45Z</time>
      </trkpt>
      <trkpt lat="46.2999" lon="-0.63381">
        <ele>14.097656</ele>
        <time>2021-07-05T15:37:49Z</time>
      </trkpt>
      <trkpt lat="46.29996" lon="-0.63349">
        <ele>15.597656</ele>
        <time>2021-07-05T15:37:57Z</time>
      </trkpt>
      <trkpt lat="46.30016" lon="-0.63278">
        <ele>17.398438</ele>
        <time>2021-07-05T15:38:09Z</time>
      </trkpt>
      <trkpt lat="46.3003" lon="-0.63233">
        <ele>17.398438</ele>
        <time>2021-07-05T15:38:15Z</time>
      </trkpt>
      <trkpt lat="46.30058" lon="-0.63147">
        <ele>17.699219</ele>
        <time>2021-07-05T15:38:29Z</time>
      </trkpt>
      <trkpt lat="46.30063" lon="-0.63134">
        <ele>17.398438</ele>
        <time>2021-07-05T15:38:31Z</time>
      </trkpt>
      <trkpt lat="46.3007" lon="-0.63123">
        <ele>17.296875</ele>
        <time>2021-07-05T15:38:33Z</time>
      </trkpt>
      <trkpt lat="46.30088" lon="-0.63091">
        <ele>16.699219</ele>
        <time>2021-07-05T15:38:39Z</time>
      </trkpt>
      <trkpt lat="46.30092" lon="-0.63079">
        <ele>16.597656</ele>
        <time>2021-07-05T15:38:41Z</time>
      </trkpt>
      <trkpt lat="46.30093" lon="-0.63062">
        <ele>15.5</ele>
        <time>2021-07-05T15:38:44Z</time>
      </trkpt>
      <trkpt lat="46.30092" lon="-0.63045">
        <ele>14.398438</ele>
        <time>2021-07-05T15:38:47Z</time>
      </trkpt>
      <trkpt lat="46.30089" lon="-0.63027">
        <ele>13.796875</ele>
        <time>2021-07-05T15:38:50Z</time>
      </trkpt>
      <trkpt lat="46.30086" lon="-0.63008">
        <ele>13.699219</ele>
        <time>2021-07-05T15:38:53Z</time>
      </trkpt>
      <trkpt lat="46.30081" lon="-0.62957">
        <ele>13.296875</ele>
        <time>2021-07-05T15:39:01Z</time>
      </trkpt>
      <trkpt lat="46.3006" lon="-0.62767">
        <ele>9.199219</ele>
        <time>2021-07-05T15:39:30Z</time>
      </trkpt>
      <trkpt lat="46.30061" lon="-0.62748">
        <ele>9</ele>
        <time>2021-07-05T15:39:33Z</time>
      </trkpt>
      <trkpt lat="46.30071" lon="-0.62736">
        <ele>8.5</ele>
        <time>2021-07-05T15:39:36Z</time>
      </trkpt>
      <trkpt lat="46.30083" lon="-0.62727">
        <ele>7.699219</ele>
        <time>2021-07-05T15:39:39Z</time>
      </trkpt>
      <trkpt lat="46.30108" lon="-0.6271">
        <ele>2.699219</ele>
        <time>2021-07-05T15:39:45Z</time>
      </trkpt>
      <trkpt lat="46.30129" lon="-0.62697">
        <ele>0.199219</ele>
        <time>2021-07-05T15:39:49Z</time>
      </trkpt>
      <trkpt lat="46.30207" lon="-0.62648">
        <ele>0.296875</ele>
        <time>2021-07-05T15:40:05Z</time>
      </trkpt>
      <trkpt lat="46.30335" lon="-0.6256">
        <ele>3.398438</ele>
        <time>2021-07-05T15:40:33Z</time>
      </trkpt>
      <trkpt lat="46.30366" lon="-0.62544">
        <ele>4.296875</ele>
        <time>2021-07-05T15:40:39Z</time>
      </trkpt>
      <trkpt lat="46.30372" lon="-0.6253">
        <ele>4.699219</ele>
        <time>2021-07-05T15:40:42Z</time>
      </trkpt>
      <trkpt lat="46.3037" lon="-0.62514">
        <ele>4.898438</ele>
        <time>2021-07-05T15:40:45Z</time>
      </trkpt>
      <trkpt lat="46.30366" lon="-0.62497">
        <ele>5.097656</ele>
        <time>2021-07-05T15:40:48Z</time>
      </trkpt>
      <trkpt lat="46.30216" lon="-0.61931">
        <ele>5.699219</ele>
        <time>2021-07-05T15:42:11Z</time>
      </trkpt>
      <trkpt lat="46.30204" lon="-0.61889">
        <ele>5</ele>
        <time>2021-07-05T15:42:18Z</time>
      </trkpt>
      <trkpt lat="46.302" lon="-0.61872">
        <ele>5.296875</ele>
        <time>2021-07-05T15:42:21Z</time>
      </trkpt>
      <trkpt lat="46.30199" lon="-0.61857">
        <ele>5.5</ele>
        <time>2021-07-05T15:42:24Z</time>
      </trkpt>
      <trkpt lat="46.30199" lon="-0.61841">
        <ele>5.699219</ele>
        <time>2021-07-05T15:42:28Z</time>
      </trkpt>
      <trkpt lat="46.302" lon="-0.61823">
        <ele>5.597656</ele>
        <time>2021-07-05T15:42:32Z</time>
      </trkpt>
      <trkpt lat="46.30204" lon="-0.6181">
        <ele>5</ele>
        <time>2021-07-05T15:42:35Z</time>
      </trkpt>
      <trkpt lat="46.30215" lon="-0.61803">
        <ele>3.296875</ele>
        <time>2021-07-05T15:42:39Z</time>
      </trkpt>
      <trkpt lat="46.30226" lon="-0.61801">
        <ele>3</ele>
        <time>2021-07-05T15:42:43Z</time>
      </trkpt>
      <trkpt lat="46.30414" lon="-0.61763">
        <ele>2.398438</ele>
        <time>2021-07-05T15:43:26Z</time>
      </trkpt>
      <trkpt lat="46.30425" lon="-0.61759">
        <ele>2.398438</ele>
        <time>2021-07-05T15:43:29Z</time>
      </trkpt>
      <trkpt lat="46.30458" lon="-0.61744">
        <ele>2.296875</ele>
        <time>2021-07-05T15:43:38Z</time>
      </trkpt>
      <trkpt lat="46.30536" lon="-0.61705">
        <ele>3.097656</ele>
        <time>2021-07-05T15:43:57Z</time>
      </trkpt>
      <trkpt lat="46.30546" lon="-0.61702">
        <ele>3.199219</ele>
        <time>2021-07-05T15:44:00Z</time>
      </trkpt>
      <trkpt lat="46.30556" lon="-0.61707">
        <ele>4</ele>
        <time>2021-07-05T15:44:04Z</time>
      </trkpt>
      <trkpt lat="46.30562" lon="-0.61719">
        <ele>5.199219</ele>
        <time>2021-07-05T15:44:08Z</time>
      </trkpt>
      <trkpt lat="46.30567" lon="-0.61733">
        <ele>6</ele>
        <time>2021-07-05T15:44:12Z</time>
      </trkpt>
      <trkpt lat="46.30616" lon="-0.61897">
        <ele>8.796875</ele>
        <time>2021-07-05T15:44:39Z</time>
      </trkpt>
      <trkpt lat="46.30651" lon="-0.62067">
        <ele>6.796875</ele>
        <time>2021-07-05T15:45:05Z</time>
      </trkpt>
      <trkpt lat="46.30654" lon="-0.62083">
        <ele>7</ele>
        <time>2021-07-05T15:45:08Z</time>
      </trkpt>
      <trkpt lat="46.30651" lon="-0.62066">
        <ele>7.199219</ele>
        <time>2021-07-05T15:45:22Z</time>
      </trkpt>
      <trkpt lat="46.30634" lon="-0.61979">
        <ele>6.699219</ele>
        <time>2021-07-05T15:45:35Z</time>
      </trkpt>
      <trkpt lat="46.30619" lon="-0.61903">
        <ele>7.699219</ele>
        <time>2021-07-05T15:45:53Z</time>
      </trkpt>
      <trkpt lat="46.30622" lon="-0.61916">
        <ele>7.5</ele>
        <time>2021-07-05T15:46:11Z</time>
      </trkpt>
      <trkpt lat="46.30662" lon="-0.62125">
        <ele>6.898438</ele>
        <time>2021-07-05T15:46:55Z</time>
      </trkpt>
      <trkpt lat="46.30671" lon="-0.62136">
        <ele>6.097656</ele>
        <time>2021-07-05T15:46:58Z</time>
      </trkpt>
      <trkpt lat="46.30682" lon="-0.62134">
        <ele>5.597656</ele>
        <time>2021-07-05T15:47:01Z</time>
      </trkpt>
      <trkpt lat="46.30692" lon="-0.62131">
        <ele>5.699219</ele>
        <time>2021-07-05T15:47:04Z</time>
      </trkpt>
      <trkpt lat="46.30727" lon="-0.62117">
        <ele>5.097656</ele>
        <time>2021-07-05T15:47:13Z</time>
      </trkpt>
      <trkpt lat="46.30735" lon="-0.62113">
        <ele>5</ele>
        <time>2021-07-05T15:47:15Z</time>
      </trkpt>
      <trkpt lat="46.30778" lon="-0.62093">
        <ele>4.699219</ele>
        <time>2021-07-05T15:47:25Z</time>
      </trkpt>
      <trkpt lat="46.30909" lon="-0.62049">
        <ele>3</ele>
        <time>2021-07-05T15:47:58Z</time>
      </trkpt>
      <trkpt lat="46.30919" lon="-0.62053">
        <ele>3.398438</ele>
        <time>2021-07-05T15:48:01Z</time>
      </trkpt>
      <trkpt lat="46.30928" lon="-0.62063">
        <ele>3.796875</ele>
        <time>2021-07-05T15:48:04Z</time>
      </trkpt>
      <trkpt lat="46.30936" lon="-0.62076">
        <ele>4.097656</ele>
        <time>2021-07-05T15:48:07Z</time>
      </trkpt>
      <trkpt lat="46.30943" lon="-0.62089">
        <ele>4.5</ele>
        <time>2021-07-05T15:48:10Z</time>
      </trkpt>
      <trkpt lat="46.30951" lon="-0.621">
        <ele>5.796875</ele>
        <time>2021-07-05T15:48:13Z</time>
      </trkpt>
      <trkpt lat="46.30962" lon="-0.62099">
        <ele>5.898438</ele>
        <time>2021-07-05T15:48:17Z</time>
      </trkpt>
      <trkpt lat="46.30969" lon="-0.62089">
        <ele>5.699219</ele>
        <time>2021-07-05T15:48:21Z</time>
      </trkpt>
      <trkpt lat="46.30973" lon="-0.62075">
        <ele>5.898438</ele>
        <time>2021-07-05T15:48:24Z</time>
      </trkpt>
      <trkpt lat="46.30976" lon="-0.6206">
        <ele>5.796875</ele>
        <time>2021-07-05T15:48:27Z</time>
      </trkpt>
      <trkpt lat="46.30993" lon="-0.61945">
        <ele>6.199219</ele>
        <time>2021-07-05T15:48:46Z</time>
      </trkpt>
      <trkpt lat="46.31008" lon="-0.61826">
        <ele>5.597656</ele>
        <time>2021-07-05T15:49:05Z</time>
      </trkpt>
      <trkpt lat="46.31011" lon="-0.61809">
        <ele>5.5</ele>
        <time>2021-07-05T15:49:08Z</time>
      </trkpt>
      <trkpt lat="46.31027" lon="-0.6174">
        <ele>5</ele>
        <time>2021-07-05T15:49:20Z</time>
      </trkpt>
      <trkpt lat="46.31029" lon="-0.61722">
        <ele>5.699219</ele>
        <time>2021-07-05T15:49:23Z</time>
      </trkpt>
      <trkpt lat="46.31033" lon="-0.61708">
        <ele>5.898438</ele>
        <time>2021-07-05T15:49:26Z</time>
      </trkpt>
      <trkpt lat="46.31042" lon="-0.617">
        <ele>4.898438</ele>
        <time>2021-07-05T15:49:30Z</time>
      </trkpt>
      <trkpt lat="46.31049" lon="-0.61686">
        <ele>4.199219</ele>
        <time>2021-07-05T15:49:34Z</time>
      </trkpt>
      <trkpt lat="46.31053" lon="-0.61672">
        <ele>4</ele>
        <time>2021-07-05T15:49:37Z</time>
      </trkpt>
      <trkpt lat="46.31065" lon="-0.6164">
        <ele>3.699219</ele>
        <time>2021-07-05T15:49:43Z</time>
      </trkpt>
      <trkpt lat="46.3108" lon="-0.616">
        <ele>3.597656</ele>
        <time>2021-07-05T15:49:50Z</time>
      </trkpt>
      <trkpt lat="46.31088" lon="-0.61587">
        <ele>4.199219</ele>
        <time>2021-07-05T15:49:53Z</time>
      </trkpt>
      <trkpt lat="46.31099" lon="-0.61582">
        <ele>4.898438</ele>
        <time>2021-07-05T15:49:57Z</time>
      </trkpt>
      <trkpt lat="46.31109" lon="-0.61587">
        <ele>5.597656</ele>
        <time>2021-07-05T15:50:02Z</time>
      </trkpt>
      <trkpt lat="46.31115" lon="-0.61598">
        <ele>5.898438</ele>
        <time>2021-07-05T15:50:06Z</time>
      </trkpt>
      <trkpt lat="46.31121" lon="-0.6161">
        <ele>6.097656</ele>
        <time>2021-07-05T15:50:09Z</time>
      </trkpt>
      <trkpt lat="46.31129" lon="-0.6162">
        <ele>6.097656</ele>
        <time>2021-07-05T15:50:12Z</time>
      </trkpt>
      <trkpt lat="46.31135" lon="-0.6163">
        <ele>6.296875</ele>
        <time>2021-07-05T15:50:15Z</time>
      </trkpt>
      <trkpt lat="46.31141" lon="-0.61641">
        <ele>7.199219</ele>
        <time>2021-07-05T15:50:19Z</time>
      </trkpt>
      <trkpt lat="46.31151" lon="-0.6164">
        <ele>7.296875</ele>
        <time>2021-07-05T15:50:33Z</time>
      </trkpt>
      <trkpt lat="46.3116" lon="-0.61633">
        <ele>7.296875</ele>
        <time>2021-07-05T15:50:37Z</time>
      </trkpt>
      <trkpt lat="46.31214" lon="-0.61587">
        <ele>7.898438</ele>
        <time>2021-07-05T15:50:52Z</time>
      </trkpt>
      <trkpt lat="46.31224" lon="-0.61575">
        <ele>7.898438</ele>
        <time>2021-07-05T15:50:55Z</time>
      </trkpt>
      <trkpt lat="46.31232" lon="-0.6156">
        <ele>7.699219</ele>
        <time>2021-07-05T15:50:58Z</time>
      </trkpt>
      <trkpt lat="46.31303" lon="-0.61413">
        <ele>6.699219</ele>
        <time>2021-07-05T15:51:20Z</time>
      </trkpt>
      <trkpt lat="46.31309" lon="-0.61398">
        <ele>6.699219</ele>
        <time>2021-07-05T15:51:22Z</time>
      </trkpt>
      <trkpt lat="46.31313" lon="-0.61382">
        <ele>6.796875</ele>
        <time>2021-07-05T15:51:24Z</time>
      </trkpt>
      <trkpt lat="46.31317" lon="-0.61366">
        <ele>6.796875</ele>
        <time>2021-07-05T15:51:26Z</time>
      </trkpt>
      <trkpt lat="46.3132" lon="-0.61349">
        <ele>7</ele>
        <time>2021-07-05T15:51:28Z</time>
      </trkpt>
      <trkpt lat="46.31322" lon="-0.61332">
        <ele>7.296875</ele>
        <time>2021-07-05T15:51:30Z</time>
      </trkpt>
      <trkpt lat="46.31322" lon="-0.61316">
        <ele>7.398438</ele>
        <time>2021-07-05T15:51:32Z</time>
      </trkpt>
      <trkpt lat="46.31322" lon="-0.61299">
        <ele>7.398438</ele>
        <time>2021-07-05T15:51:34Z</time>
      </trkpt>
      <trkpt lat="46.3132" lon="-0.61282">
        <ele>7.199219</ele>
        <time>2021-07-05T15:51:36Z</time>
      </trkpt>
      <trkpt lat="46.31317" lon="-0.61266">
        <ele>6.699219</ele>
        <time>2021-07-05T15:51:38Z</time>
      </trkpt>
      <trkpt lat="46.31314" lon="-0.61251">
        <ele>6.5</ele>
        <time>2021-07-05T15:51:40Z</time>
      </trkpt>
      <trkpt lat="46.3131" lon="-0.61236">
        <ele>6.296875</ele>
        <time>2021-07-05T15:51:42Z</time>
      </trkpt>
      <trkpt lat="46.31294" lon="-0.61175">
        <ele>6.398438</ele>
        <time>2021-07-05T15:51:50Z</time>
      </trkpt>
      <trkpt lat="46.31291" lon="-0.61159">
        <ele>6.597656</ele>
        <time>2021-07-05T15:51:52Z</time>
      </trkpt>
      <trkpt lat="46.31289" lon="-0.61143">
        <ele>6.898438</ele>
        <time>2021-07-05T15:51:54Z</time>
      </trkpt>
      <trkpt lat="46.31288" lon="-0.61128">
        <ele>7.296875</ele>
        <time>2021-07-05T15:51:56Z</time>
      </trkpt>
      <trkpt lat="46.31288" lon="-0.61112">
        <ele>7.5</ele>
        <time>2021-07-05T15:51:58Z</time>
      </trkpt>
      <trkpt lat="46.3129" lon="-0.61095">
        <ele>7.796875</ele>
        <time>2021-07-05T15:52:00Z</time>
      </trkpt>
      <trkpt lat="46.31292" lon="-0.61079">
        <ele>8</ele>
        <time>2021-07-05T15:52:02Z</time>
      </trkpt>
      <trkpt lat="46.31296" lon="-0.61064">
        <ele>8.296875</ele>
        <time>2021-07-05T15:52:04Z</time>
      </trkpt>
      <trkpt lat="46.31302" lon="-0.61049">
        <ele>8.597656</ele>
        <time>2021-07-05T15:52:06Z</time>
      </trkpt>
      <trkpt lat="46.31308" lon="-0.61036">
        <ele>8.796875</ele>
        <time>2021-07-05T15:52:08Z</time>
      </trkpt>
      <trkpt lat="46.31316" lon="-0.61024">
        <ele>9</ele>
        <time>2021-07-05T15:52:10Z</time>
      </trkpt>
      <trkpt lat="46.31324" lon="-0.61014">
        <ele>9</ele>
        <time>2021-07-05T15:52:12Z</time>
      </trkpt>
      <trkpt lat="46.31341" lon="-0.60995">
        <ele>8.699219</ele>
        <time>2021-07-05T15:52:16Z</time>
      </trkpt>
      <trkpt lat="46.31402" lon="-0.60933">
        <ele>3.898438</ele>
        <time>2021-07-05T15:52:30Z</time>
      </trkpt>
      <trkpt lat="46.31417" lon="-0.60919">
        <ele>4</ele>
        <time>2021-07-05T15:52:34Z</time>
      </trkpt>
      <trkpt lat="46.31467" lon="-0.6087">
        <ele>5.796875</ele>
        <time>2021-07-05T15:52:49Z</time>
      </trkpt>
      <trkpt lat="46.31477" lon="-0.60871">
        <ele>5.597656</ele>
        <time>2021-07-05T15:53:00Z</time>
      </trkpt>
      <trkpt lat="46.31482" lon="-0.60884">
        <ele>5.597656</ele>
        <time>2021-07-05T15:53:11Z</time>
      </trkpt>
      <trkpt lat="46.31505" lon="-0.60934">
        <ele>5.097656</ele>
        <time>2021-07-05T15:53:26Z</time>
      </trkpt>
      <trkpt lat="46.31515" lon="-0.6094">
        <ele>4.699219</ele>
        <time>2021-07-05T15:53:30Z</time>
      </trkpt>
      <trkpt lat="46.31524" lon="-0.6095">
        <ele>3.796875</ele>
        <time>2021-07-05T15:53:34Z</time>
      </trkpt>
      <trkpt lat="46.31531" lon="-0.60962">
        <ele>3.796875</ele>
        <time>2021-07-05T15:53:38Z</time>
      </trkpt>
      <trkpt lat="46.31536" lon="-0.60976">
        <ele>3.398438</ele>
        <time>2021-07-05T15:53:43Z</time>
      </trkpt>
      <trkpt lat="46.3154" lon="-0.60989">
        <ele>3.398438</ele>
        <time>2021-07-05T15:53:48Z</time>
      </trkpt>
      <trkpt lat="46.31556" lon="-0.61046">
        <ele>10.003906</ele>
        <time>2021-07-05T15:54:04Z</time>
      </trkpt>
      <trkpt lat="46.31547" lon="-0.61061">
        <ele>15.945313</ele>
        <time>2021-07-05T15:56:56Z</time>
      </trkpt>
    </trkseg>
  </trk>
</gpx>